PWSweather.com
Personal Weather Stations
Station Observations
KCTGROTO5
Groton, CT 06340

Groton, CT 06340

Lat: 41.355721, Lon: -72.084428

Elevation: 0

Station Type: acurite 5in1

High Low Average
Temperature 28.2°F-2.1°C 17.7°F-7.9°C 22.3°F-5.4°C
Dew Point 14.4°F-9.8°C 1.7°F-16.8°C 7.0°F-13.9°C
Winds 22.0 mph 35.4 kmh 2.0 mph 3.2 kmh 10.0 mph WNW16.1 kmh WNW
Wind Gusts 24.0 mph38.6 kmh 4.0 mph6.4 kmh 15.0 mph24.1 kmh
Humidity 66% 35% 52%
Pressure 30.10 in1019.3 mb 29.93 in1013.5 mb -
Precipitation 1.35 in34.3 mm - -
Hour Temp Dew Point Humidity Winds Wind Gusts Pressure Precip Precip Rate Daily Precip Total
12:00 AM 25.4°F-3.7°C 14.6°F-9.7°C 63% 4.0 mph NW6.4 kmh NW 5.0 mph8.0 kmh 29.93 in1013.5 mb 1.35 in34.3 mm 0.00 in0.0 mm 1.35 in34.3 mm
12:01 AM 25.4°F-3.7°C 14.6°F-9.7°C 63% 6.0 mph WNW9.7 kmh WNW 6.0 mph9.7 kmh 29.93 in1013.5 mb 1.35 in34.3 mm 0.00 in0.0 mm 1.35 in34.3 mm
12:02 AM 25.4°F-3.7°C 14.6°F-9.7°C 63% 7.0 mph WNW11.3 kmh WNW 7.0 mph11.3 kmh 29.93 in1013.5 mb 1.35 in34.3 mm 0.00 in0.0 mm 1.35 in34.3 mm
12:03 AM 25.4°F-3.7°C 14.6°F-9.7°C 63% 5.0 mph WNW8.0 kmh WNW 7.0 mph11.3 kmh 29.93 in1013.5 mb 1.35 in34.3 mm 0.00 in0.0 mm 1.35 in34.3 mm
12:04 AM 25.4°F-3.7°C 14.6°F-9.7°C 63% 4.0 mph NW6.4 kmh NW 7.0 mph11.3 kmh 29.93 in1013.5 mb 1.35 in34.3 mm 0.00 in0.0 mm 1.35 in34.3 mm
12:05 AM 25.4°F-3.7°C 14.6°F-9.7°C 63% 5.0 mph WNW8.0 kmh WNW 7.0 mph11.3 kmh 29.93 in1013.5 mb 1.35 in34.3 mm 0.00 in0.0 mm 1.35 in34.3 mm
12:06 AM 25.4°F-3.7°C 14.6°F-9.7°C 63% 4.0 mph W6.4 kmh W 7.0 mph11.3 kmh 29.93 in1013.5 mb 1.35 in34.3 mm 0.00 in0.0 mm 1.35 in34.3 mm
12:07 AM 25.4°F-3.7°C 14.6°F-9.7°C 63% 6.0 mph WNW9.7 kmh WNW 7.0 mph11.3 kmh 29.93 in1013.5 mb 1.35 in34.3 mm 0.00 in0.0 mm 1.35 in34.3 mm
12:08 AM 25.4°F-3.7°C 14.6°F-9.7°C 63% 4.0 mph WNW6.4 kmh WNW 7.0 mph11.3 kmh 29.93 in1013.5 mb 1.35 in34.3 mm 0.00 in0.0 mm 1.35 in34.3 mm
12:09 AM 25.4°F-3.7°C 14.6°F-9.7°C 63% 5.0 mph W8.0 kmh W 7.0 mph11.3 kmh 29.93 in1013.5 mb 1.35 in34.3 mm 0.00 in0.0 mm 1.35 in34.3 mm
12:10 AM 25.4°F-3.7°C 14.6°F-9.7°C 63% 4.0 mph WNW6.4 kmh WNW 7.0 mph11.3 kmh 29.93 in1013.5 mb 1.35 in34.3 mm 0.00 in0.0 mm 1.35 in34.3 mm
12:11 AM 25.4°F-3.7°C 14.6°F-9.7°C 63% 5.0 mph NW8.0 kmh NW 7.0 mph11.3 kmh 29.93 in1013.5 mb 1.35 in34.3 mm 0.00 in0.0 mm 1.35 in34.3 mm
12:12 AM 25.4°F-3.7°C 14.6°F-9.7°C 63% 4.0 mph W6.4 kmh W 6.0 mph9.7 kmh 29.93 in1013.5 mb 1.35 in34.3 mm 0.00 in0.0 mm 1.35 in34.3 mm
12:13 AM 25.4°F-3.7°C 14.6°F-9.7°C 63% 5.0 mph WNW8.0 kmh WNW 6.0 mph9.7 kmh 29.93 in1013.5 mb 1.35 in34.3 mm 0.00 in0.0 mm 1.35 in34.3 mm
12:14 AM 25.4°F-3.7°C 14.6°F-9.7°C 63% 4.0 mph WNW6.4 kmh WNW 6.0 mph9.7 kmh 29.93 in1013.5 mb 1.35 in34.3 mm 0.00 in0.0 mm 1.35 in34.3 mm
12:15 AM 25.4°F-3.7°C 14.6°F-9.7°C 63% 5.0 mph WNW8.0 kmh WNW 6.0 mph9.7 kmh 29.93 in1013.5 mb 1.35 in34.3 mm 0.00 in0.0 mm 1.35 in34.3 mm
12:16 AM 25.4°F-3.7°C 13.9°F-10.1°C 61% 4.0 mph WNW6.4 kmh WNW 6.0 mph9.7 kmh 29.93 in1013.5 mb 1.35 in34.3 mm 0.00 in0.0 mm 1.35 in34.3 mm
12:17 AM 25.2°F-3.8°C 14.4°F-9.8°C 63% 5.0 mph WNW8.0 kmh WNW 5.0 mph8.0 kmh 29.93 in1013.5 mb 1.35 in34.3 mm 0.00 in0.0 mm 1.35 in34.3 mm
12:18 AM 25.2°F-3.8°C 13.7°F-10.2°C 61% 4.0 mph WNW6.4 kmh WNW 5.0 mph8.0 kmh 29.93 in1013.5 mb 1.35 in34.3 mm 0.00 in0.0 mm 1.35 in34.3 mm
12:19 AM 25.2°F-3.8°C 13.7°F-10.2°C 61% 4.0 mph WNW6.4 kmh WNW 5.0 mph8.0 kmh 29.93 in1013.5 mb 1.35 in34.3 mm 0.00 in0.0 mm 1.35 in34.3 mm
12:20 AM 25.2°F-3.8°C 13.7°F-10.2°C 61% 3.0 mph WNW4.8 kmh WNW 5.0 mph8.0 kmh 29.93 in1013.5 mb 1.35 in34.3 mm 0.00 in0.0 mm 1.35 in34.3 mm
12:21 AM 25.1°F-3.8°C 13.6°F-10.2°C 61% 3.0 mph NW4.8 kmh NW 5.0 mph8.0 kmh 29.93 in1013.5 mb 1.35 in34.3 mm 0.00 in0.0 mm 1.35 in34.3 mm
12:22 AM 25.1°F-3.8°C 13.6°F-10.2°C 61% 3.0 mph NW4.8 kmh NW 5.0 mph8.0 kmh 29.93 in1013.5 mb 1.35 in34.3 mm 0.00 in0.0 mm 1.35 in34.3 mm
12:23 AM 25.1°F-3.8°C 13.6°F-10.2°C 61% 3.0 mph WNW4.8 kmh WNW 5.0 mph8.0 kmh 29.93 in1013.5 mb 1.35 in34.3 mm 0.00 in0.0 mm 1.35 in34.3 mm
12:24 AM 25.1°F-3.8°C 13.6°F-10.2°C 61% 4.0 mph WNW6.4 kmh WNW 5.0 mph8.0 kmh 29.93 in1013.5 mb 1.35 in34.3 mm 0.00 in0.0 mm 1.35 in34.3 mm
12:25 AM 25.1°F-3.8°C 13.6°F-10.2°C 61% 4.0 mph WNW6.4 kmh WNW 5.0 mph8.0 kmh 29.93 in1013.5 mb 1.35 in34.3 mm 0.00 in0.0 mm 1.35 in34.3 mm
12:26 AM 25.1°F-3.8°C 13.6°F-10.2°C 61% 4.0 mph NW6.4 kmh NW 5.0 mph8.0 kmh 29.93 in1013.5 mb 1.35 in34.3 mm 0.00 in0.0 mm 1.35 in34.3 mm
12:27 AM 25.1°F-3.8°C 13.6°F-10.2°C 61% 4.0 mph NW6.4 kmh NW 4.0 mph6.4 kmh 29.93 in1013.5 mb 1.35 in34.3 mm 0.00 in0.0 mm 1.35 in34.3 mm
12:28 AM 25.1°F-3.8°C 13.6°F-10.2°C 61% 3.0 mph W4.8 kmh W 4.0 mph6.4 kmh 29.93 in1013.5 mb 1.35 in34.3 mm 0.00 in0.0 mm 1.35 in34.3 mm
12:29 AM 25.1°F-3.8°C 13.6°F-10.2°C 61% 3.0 mph WNW4.8 kmh WNW 4.0 mph6.4 kmh 29.93 in1013.5 mb 1.35 in34.3 mm 0.00 in0.0 mm 1.35 in34.3 mm
12:30 AM 25.1°F-3.8°C 14.3°F-9.8°C 63% 5.0 mph WNW8.0 kmh WNW 5.0 mph8.0 kmh 29.93 in1013.5 mb 1.35 in34.3 mm 0.00 in0.0 mm 1.35 in34.3 mm
12:31 AM 25.1°F-3.8°C 14.3°F-9.8°C 63% 4.0 mph WNW6.4 kmh WNW 5.0 mph8.0 kmh 29.93 in1013.5 mb 1.35 in34.3 mm 0.00 in0.0 mm 1.35 in34.3 mm
12:32 AM 25.1°F-3.8°C 14.3°F-9.8°C 63% 2.0 mph W3.2 kmh W 5.0 mph8.0 kmh 29.93 in1013.5 mb 1.35 in34.3 mm 0.00 in0.0 mm 1.35 in34.3 mm
12:33 AM 25.1°F-3.8°C 13.6°F-10.2°C 61% 3.0 mph WNW4.8 kmh WNW 5.0 mph8.0 kmh 29.93 in1013.5 mb 1.35 in34.3 mm 0.00 in0.0 mm 1.35 in34.3 mm
12:34 AM 25.1°F-3.8°C 13.6°F-10.2°C 61% 4.0 mph NW6.4 kmh NW 5.0 mph8.0 kmh 29.93 in1013.5 mb 1.35 in34.3 mm 0.00 in0.0 mm 1.35 in34.3 mm
12:35 AM 25.1°F-3.8°C 14.3°F-9.8°C 63% 4.0 mph WNW6.4 kmh WNW 5.0 mph8.0 kmh 29.93 in1013.5 mb 1.35 in34.3 mm 0.00 in0.0 mm 1.35 in34.3 mm
12:36 AM 25.1°F-3.8°C 13.6°F-10.2°C 61% 5.0 mph WNW8.0 kmh WNW 5.0 mph8.0 kmh 29.93 in1013.5 mb 1.35 in34.3 mm 0.00 in0.0 mm 1.35 in34.3 mm
12:37 AM 25.0°F-3.9°C 13.5°F-10.3°C 61% 5.0 mph W8.0 kmh W 6.0 mph9.7 kmh 29.93 in1013.5 mb 1.35 in34.3 mm 0.00 in0.0 mm 1.35 in34.3 mm
12:38 AM 25.0°F-3.9°C 13.1°F-10.5°C 60% 4.0 mph NW6.4 kmh NW 6.0 mph9.7 kmh 29.93 in1013.5 mb 1.35 in34.3 mm 0.00 in0.0 mm 1.35 in34.3 mm
12:39 AM 25.0°F-3.9°C 13.5°F-10.3°C 61% 4.0 mph WNW6.4 kmh WNW 6.0 mph9.7 kmh 29.93 in1013.5 mb 1.35 in34.3 mm 0.00 in0.0 mm 1.35 in34.3 mm
12:40 AM 25.0°F-3.9°C 13.1°F-10.5°C 60% 5.0 mph WNW8.0 kmh WNW 6.0 mph9.7 kmh 29.93 in1013.5 mb 1.35 in34.3 mm 0.00 in0.0 mm 1.35 in34.3 mm
12:41 AM 25.0°F-3.9°C 13.5°F-10.3°C 61% 3.0 mph WNW4.8 kmh WNW 6.0 mph9.7 kmh 29.93 in1013.5 mb 1.35 in34.3 mm 0.00 in0.0 mm 1.35 in34.3 mm
12:42 AM 25.0°F-3.9°C 13.5°F-10.3°C 61% 4.0 mph W6.4 kmh W 6.0 mph9.7 kmh 29.92 in1013.2 mb 1.35 in34.3 mm 0.00 in0.0 mm 1.35 in34.3 mm
12:43 AM 25.0°F-3.9°C 13.5°F-10.3°C 61% 4.0 mph WNW6.4 kmh WNW 6.0 mph9.7 kmh 29.93 in1013.5 mb 1.35 in34.3 mm 0.00 in0.0 mm 1.35 in34.3 mm
12:44 AM 25.0°F-3.9°C 13.5°F-10.3°C 61% 4.0 mph WNW6.4 kmh WNW 6.0 mph9.7 kmh 29.92 in1013.2 mb 1.35 in34.3 mm 0.00 in0.0 mm 1.35 in34.3 mm
12:45 AM 25.0°F-3.9°C 13.5°F-10.3°C 61% 5.0 mph WNW8.0 kmh WNW 6.0 mph9.7 kmh 29.93 in1013.5 mb 1.35 in34.3 mm 0.00 in0.0 mm 1.35 in34.3 mm
12:46 AM 25.0°F-3.9°C 13.5°F-10.3°C 61% 4.0 mph NW6.4 kmh NW 6.0 mph9.7 kmh 29.93 in1013.5 mb 1.35 in34.3 mm 0.00 in0.0 mm 1.35 in34.3 mm
12:47 AM 25.0°F-3.9°C 13.5°F-10.3°C 61% 5.0 mph WNW8.0 kmh WNW 5.0 mph8.0 kmh 29.93 in1013.5 mb 1.35 in34.3 mm 0.00 in0.0 mm 1.35 in34.3 mm
12:48 AM 25.0°F-3.9°C 13.5°F-10.3°C 61% 4.0 mph WNW6.4 kmh WNW 5.0 mph8.0 kmh 29.93 in1013.5 mb 1.35 in34.3 mm 0.00 in0.0 mm 1.35 in34.3 mm
12:49 AM 25.0°F-3.9°C 13.5°F-10.3°C 61% 4.0 mph WNW6.4 kmh WNW 5.0 mph8.0 kmh 29.93 in1013.5 mb 1.35 in34.3 mm 0.00 in0.0 mm 1.35 in34.3 mm
12:50 AM 25.0°F-3.9°C 14.2°F-9.9°C 63% 5.0 mph NW8.0 kmh NW 5.0 mph8.0 kmh 29.93 in1013.5 mb 1.35 in34.3 mm 0.00 in0.0 mm 1.35 in34.3 mm
12:51 AM 25.0°F-3.9°C 14.2°F-9.9°C 63% 4.0 mph NW6.4 kmh NW 5.0 mph8.0 kmh 29.93 in1013.5 mb 1.35 in34.3 mm 0.00 in0.0 mm 1.35 in34.3 mm
12:52 AM 25.0°F-3.9°C 14.2°F-9.9°C 63% 4.0 mph WNW6.4 kmh WNW 5.0 mph8.0 kmh 29.93 in1013.5 mb 1.35 in34.3 mm 0.00 in0.0 mm 1.35 in34.3 mm
12:53 AM 24.8°F-4.0°C 13.3°F-10.4°C 61% 4.0 mph WNW6.4 kmh WNW 5.0 mph8.0 kmh 29.93 in1013.5 mb 1.35 in34.3 mm 0.00 in0.0 mm 1.35 in34.3 mm
12:54 AM 24.8°F-4.0°C 13.3°F-10.4°C 61% 3.0 mph WNW4.8 kmh WNW 5.0 mph8.0 kmh 29.93 in1013.5 mb 1.35 in34.3 mm 0.00 in0.0 mm 1.35 in34.3 mm
12:55 AM 24.8°F-4.0°C 13.3°F-10.4°C 61% 3.0 mph WNW4.8 kmh WNW 5.0 mph8.0 kmh 29.93 in1013.5 mb 1.35 in34.3 mm 0.00 in0.0 mm 1.35 in34.3 mm
12:56 AM 24.8°F-4.0°C 13.3°F-10.4°C 61% 4.0 mph WNW6.4 kmh WNW 5.0 mph8.0 kmh 29.93 in1013.5 mb 1.35 in34.3 mm 0.00 in0.0 mm 1.35 in34.3 mm
12:57 AM 24.8°F-4.0°C 14.0°F-10.0°C 63% 3.0 mph WNW4.8 kmh WNW 5.0 mph8.0 kmh 29.93 in1013.5 mb 1.35 in34.3 mm 0.00 in0.0 mm 1.35 in34.3 mm
12:58 AM 24.8°F-4.0°C 13.3°F-10.4°C 61% 2.0 mph WNW3.2 kmh WNW 5.0 mph8.0 kmh 29.93 in1013.5 mb 1.35 in34.3 mm 0.00 in0.0 mm 1.35 in34.3 mm
12:59 AM 24.8°F-4.0°C 13.3°F-10.4°C 61% 2.0 mph NW3.2 kmh NW 5.0 mph8.0 kmh 29.93 in1013.5 mb 1.35 in34.3 mm 0.00 in0.0 mm 1.35 in34.3 mm
01:00 AM 24.6°F-4.1°C 13.1°F-10.5°C 61% 3.0 mph WNW4.8 kmh WNW 5.0 mph8.0 kmh 29.93 in1013.5 mb 1.35 in34.3 mm 0.00 in0.0 mm 1.35 in34.3 mm
01:01 AM 24.6°F-4.1°C 13.1°F-10.5°C 61% 3.0 mph NNW4.8 kmh NNW 5.0 mph8.0 kmh 29.93 in1013.5 mb 1.35 in34.3 mm 0.00 in0.0 mm 1.35 in34.3 mm
01:02 AM 24.6°F-4.1°C 13.1°F-10.5°C 61% 3.0 mph WNW4.8 kmh WNW 4.0 mph6.4 kmh 29.93 in1013.5 mb 1.35 in34.3 mm 0.00 in0.0 mm 1.35 in34.3 mm
01:03 AM 24.6°F-4.1°C 13.1°F-10.5°C 61% 3.0 mph WNW4.8 kmh WNW 4.0 mph6.4 kmh 29.93 in1013.5 mb 1.35 in34.3 mm 0.00 in0.0 mm 1.35 in34.3 mm
01:04 AM 24.4°F-4.2°C 12.9°F-10.6°C 61% 3.0 mph W4.8 kmh W 4.0 mph6.4 kmh 29.93 in1013.5 mb 1.35 in34.3 mm 0.00 in0.0 mm 1.35 in34.3 mm
01:05 AM 24.4°F-4.2°C 12.9°F-10.6°C 61% 4.0 mph WNW6.4 kmh WNW 4.0 mph6.4 kmh 29.93 in1013.5 mb 1.35 in34.3 mm 0.00 in0.0 mm 1.35 in34.3 mm
01:06 AM 24.4°F-4.2°C 12.9°F-10.6°C 61% 2.0 mph NNW3.2 kmh NNW 4.0 mph6.4 kmh 29.93 in1013.5 mb 1.35 in34.3 mm 0.00 in0.0 mm 1.35 in34.3 mm
01:07 AM 24.4°F-4.2°C 12.9°F-10.6°C 61% 4.0 mph NW6.4 kmh NW 5.0 mph8.0 kmh 29.93 in1013.5 mb 1.35 in34.3 mm 0.00 in0.0 mm 1.35 in34.3 mm
01:08 AM 24.4°F-4.2°C 12.5°F-10.8°C 60% 4.0 mph NW6.4 kmh NW 5.0 mph8.0 kmh 29.93 in1013.5 mb 1.35 in34.3 mm 0.00 in0.0 mm 1.35 in34.3 mm
01:09 AM 24.4°F-4.2°C 12.5°F-10.8°C 60% 4.0 mph WNW6.4 kmh WNW 5.0 mph8.0 kmh 29.93 in1013.5 mb 1.35 in34.3 mm 0.00 in0.0 mm 1.35 in34.3 mm
01:10 AM 24.4°F-4.2°C 12.5°F-10.8°C 60% 3.0 mph NW4.8 kmh NW 5.0 mph8.0 kmh 29.93 in1013.5 mb 1.35 in34.3 mm 0.00 in0.0 mm 1.35 in34.3 mm
01:11 AM 24.4°F-4.2°C 12.9°F-10.6°C 61% 2.0 mph WNW3.2 kmh WNW 5.0 mph8.0 kmh 29.93 in1013.5 mb 1.35 in34.3 mm 0.00 in0.0 mm 1.35 in34.3 mm
01:12 AM 24.4°F-4.2°C 12.5°F-10.8°C 60% 3.0 mph WNW4.8 kmh WNW 5.0 mph8.0 kmh 29.93 in1013.5 mb 1.35 in34.3 mm 0.00 in0.0 mm 1.35 in34.3 mm
01:13 AM 24.4°F-4.2°C 12.9°F-10.6°C 61% 3.0 mph WNW4.8 kmh WNW 5.0 mph8.0 kmh 29.93 in1013.5 mb 1.35 in34.3 mm 0.00 in0.0 mm 1.35 in34.3 mm
01:14 AM 24.4°F-4.2°C 12.9°F-10.6°C 61% 3.0 mph WNW4.8 kmh WNW 5.0 mph8.0 kmh 29.93 in1013.5 mb 1.35 in34.3 mm 0.00 in0.0 mm 1.35 in34.3 mm
01:15 AM 24.4°F-4.2°C 12.5°F-10.8°C 60% 3.0 mph WNW4.8 kmh WNW 5.0 mph8.0 kmh 29.93 in1013.5 mb 1.35 in34.3 mm 0.00 in0.0 mm 1.35 in34.3 mm
01:16 AM 24.4°F-4.2°C 12.5°F-10.8°C 60% 4.0 mph W6.4 kmh W 5.0 mph8.0 kmh 29.93 in1013.5 mb 1.35 in34.3 mm 0.00 in0.0 mm 1.35 in34.3 mm
01:17 AM 24.4°F-4.2°C 12.9°F-10.6°C 61% 4.0 mph WNW6.4 kmh WNW 4.0 mph6.4 kmh 29.93 in1013.5 mb 1.35 in34.3 mm 0.00 in0.0 mm 1.35 in34.3 mm
01:18 AM 24.4°F-4.2°C 13.7°F-10.2°C 63% 3.0 mph WNW4.8 kmh WNW 5.0 mph8.0 kmh 29.93 in1013.5 mb 1.35 in34.3 mm 0.00 in0.0 mm 1.35 in34.3 mm
01:19 AM 24.4°F-4.2°C 13.7°F-10.2°C 63% 4.0 mph WNW6.4 kmh WNW 5.0 mph8.0 kmh 29.93 in1013.5 mb 1.35 in34.3 mm 0.00 in0.0 mm 1.35 in34.3 mm
01:20 AM 24.4°F-4.2°C 13.7°F-10.2°C 63% 4.0 mph NW6.4 kmh NW 5.0 mph8.0 kmh 29.93 in1013.5 mb 1.35 in34.3 mm 0.00 in0.0 mm 1.35 in34.3 mm
01:21 AM 24.4°F-4.2°C 13.7°F-10.2°C 63% 4.0 mph WNW6.4 kmh WNW 5.0 mph8.0 kmh 29.93 in1013.5 mb 1.35 in34.3 mm 0.00 in0.0 mm 1.35 in34.3 mm
01:22 AM 24.4°F-4.2°C 12.9°F-10.6°C 61% 5.0 mph WNW8.0 kmh WNW 5.0 mph8.0 kmh 29.93 in1013.5 mb 1.35 in34.3 mm 0.00 in0.0 mm 1.35 in34.3 mm
01:23 AM 24.4°F-4.2°C 12.9°F-10.6°C 61% 4.0 mph WNW6.4 kmh WNW 5.0 mph8.0 kmh 29.93 in1013.5 mb 1.35 in34.3 mm 0.00 in0.0 mm 1.35 in34.3 mm
01:24 AM 24.4°F-4.2°C 12.5°F-10.8°C 60% 4.0 mph WNW6.4 kmh WNW 5.0 mph8.0 kmh 29.93 in1013.5 mb 1.35 in34.3 mm 0.00 in0.0 mm 1.35 in34.3 mm
01:25 AM 24.4°F-4.2°C 12.5°F-10.8°C 60% 4.0 mph NW6.4 kmh NW 5.0 mph8.0 kmh 29.94 in1013.9 mb 1.35 in34.3 mm 0.00 in0.0 mm 1.35 in34.3 mm
01:26 AM 24.4°F-4.2°C 12.5°F-10.8°C 60% 4.0 mph W6.4 kmh W 6.0 mph9.7 kmh 29.94 in1013.9 mb 1.35 in34.3 mm 0.00 in0.0 mm 1.35 in34.3 mm
01:27 AM 24.4°F-4.2°C 12.9°F-10.6°C 61% 4.0 mph WNW6.4 kmh WNW 6.0 mph9.7 kmh 29.94 in1013.9 mb 1.35 in34.3 mm 0.00 in0.0 mm 1.35 in34.3 mm
01:28 AM 24.4°F-4.2°C 12.9°F-10.6°C 61% 5.0 mph NW8.0 kmh NW 6.0 mph9.7 kmh 29.94 in1013.9 mb 1.35 in34.3 mm 0.00 in0.0 mm 1.35 in34.3 mm
01:29 AM 24.6°F-4.1°C 13.8°F-10.1°C 63% 4.0 mph WNW6.4 kmh WNW 6.0 mph9.7 kmh 29.94 in1013.9 mb 1.35 in34.3 mm 0.00 in0.0 mm 1.35 in34.3 mm
01:30 AM 24.6°F-4.1°C 13.1°F-10.5°C 61% 6.0 mph WNW9.7 kmh WNW 6.0 mph9.7 kmh 29.94 in1013.9 mb 1.35 in34.3 mm 0.00 in0.0 mm 1.35 in34.3 mm
01:31 AM 24.6°F-4.1°C 13.8°F-10.1°C 63% 11.0 mph W17.7 kmh W 11.0 mph17.7 kmh 29.94 in1013.9 mb 1.35 in34.3 mm 0.00 in0.0 mm 1.35 in34.3 mm
01:32 AM 24.8°F-4.0°C 12.9°F-10.6°C 60% 13.0 mph NW20.9 kmh NW 15.0 mph24.1 kmh 29.94 in1013.9 mb 1.35 in34.3 mm 0.00 in0.0 mm 1.35 in34.3 mm
01:33 AM 24.8°F-4.0°C 13.3°F-10.4°C 61% 12.0 mph NW19.3 kmh NW 15.0 mph24.1 kmh 29.95 in1014.2 mb 1.35 in34.3 mm 0.00 in0.0 mm 1.35 in34.3 mm
01:34 AM 25.0°F-3.9°C 13.5°F-10.3°C 61% 12.0 mph WNW19.3 kmh WNW 17.0 mph27.4 kmh 29.94 in1013.9 mb 1.35 in34.3 mm 0.00 in0.0 mm 1.35 in34.3 mm
01:35 AM 25.0°F-3.9°C 13.1°F-10.5°C 60% 14.0 mph NW22.5 kmh NW 17.0 mph27.4 kmh 29.95 in1014.2 mb 1.35 in34.3 mm 0.00 in0.0 mm 1.35 in34.3 mm
01:36 AM 25.0°F-3.9°C 12.7°F-10.7°C 59% 11.0 mph NW17.7 kmh NW 17.0 mph27.4 kmh 29.94 in1013.9 mb 1.35 in34.3 mm 0.00 in0.0 mm 1.35 in34.3 mm
01:37 AM 25.0°F-3.9°C 13.1°F-10.5°C 60% 9.0 mph NW14.5 kmh NW 17.0 mph27.4 kmh 29.95 in1014.2 mb 1.35 in34.3 mm 0.00 in0.0 mm 1.35 in34.3 mm
01:38 AM 25.0°F-3.9°C 13.1°F-10.5°C 60% 10.0 mph NW16.1 kmh NW 17.0 mph27.4 kmh 29.94 in1013.9 mb 1.35 in34.3 mm 0.00 in0.0 mm 1.35 in34.3 mm
01:39 AM 25.0°F-3.9°C 13.1°F-10.5°C 60% 11.0 mph NW17.7 kmh NW 17.0 mph27.4 kmh 29.95 in1014.2 mb 1.35 in34.3 mm 0.00 in0.0 mm 1.35 in34.3 mm
01:40 AM 25.0°F-3.9°C 12.7°F-10.7°C 59% 9.0 mph NNE14.5 kmh NNE 17.0 mph27.4 kmh 29.95 in1014.2 mb 1.35 in34.3 mm 0.00 in0.0 mm 1.35 in34.3 mm
01:41 AM 25.0°F-3.9°C 13.5°F-10.3°C 61% 12.0 mph NNW19.3 kmh NNW 17.0 mph27.4 kmh 29.95 in1014.2 mb 1.35 in34.3 mm 0.00 in0.0 mm 1.35 in34.3 mm
01:42 AM 25.0°F-3.9°C 13.5°F-10.3°C 61% 7.0 mph NW11.3 kmh NW 17.0 mph27.4 kmh 29.94 in1013.9 mb 1.35 in34.3 mm 0.00 in0.0 mm 1.35 in34.3 mm
01:43 AM 25.0°F-3.9°C 14.2°F-9.9°C 63% 8.0 mph NW12.9 kmh NW 17.0 mph27.4 kmh 29.94 in1013.9 mb 1.35 in34.3 mm 0.00 in0.0 mm 1.35 in34.3 mm
01:44 AM 25.0°F-3.9°C 14.2°F-9.9°C 63% 9.0 mph NNW14.5 kmh NNW 17.0 mph27.4 kmh 29.94 in1013.9 mb 1.35 in34.3 mm 0.00 in0.0 mm 1.35 in34.3 mm
01:45 AM 25.0°F-3.9°C 14.2°F-9.9°C 63% 7.0 mph NE11.3 kmh NE 17.0 mph27.4 kmh 29.95 in1014.2 mb 1.35 in34.3 mm 0.00 in0.0 mm 1.35 in34.3 mm
01:46 AM 24.8°F-4.0°C 13.3°F-10.4°C 61% 9.0 mph NNE14.5 kmh NNE 17.0 mph27.4 kmh 29.95 in1014.2 mb 1.35 in34.3 mm 0.00 in0.0 mm 1.35 in34.3 mm
01:47 AM 24.8°F-4.0°C 13.3°F-10.4°C 61% 6.0 mph WNW9.7 kmh WNW 17.0 mph27.4 kmh 29.95 in1014.2 mb 1.35 in34.3 mm 0.00 in0.0 mm 1.35 in34.3 mm
01:48 AM 24.6°F-4.1°C 13.1°F-10.5°C 61% 10.0 mph NW16.1 kmh NW 17.0 mph27.4 kmh 29.95 in1014.2 mb 1.35 in34.3 mm 0.00 in0.0 mm 1.35 in34.3 mm
01:49 AM 24.6°F-4.1°C 13.8°F-10.1°C 63% 6.0 mph NW9.7 kmh NW 17.0 mph27.4 kmh 29.95 in1014.2 mb 1.35 in34.3 mm 0.00 in0.0 mm 1.35 in34.3 mm
01:50 AM 24.6°F-4.1°C 13.8°F-10.1°C 63% 9.0 mph NNW14.5 kmh NNW 17.0 mph27.4 kmh 29.95 in1014.2 mb 1.35 in34.3 mm 0.00 in0.0 mm 1.35 in34.3 mm
01:51 AM 24.4°F-4.2°C 12.9°F-10.6°C 61% 11.0 mph 17.7 kmh 12.0 mph19.3 kmh 29.95 in1014.2 mb 1.35 in34.3 mm 0.00 in0.0 mm 1.35 in34.3 mm
01:52 AM 24.4°F-4.2°C 13.7°F-10.2°C 63% 8.0 mph W12.9 kmh W 12.0 mph19.3 kmh 29.95 in1014.2 mb 1.35 in34.3 mm 0.00 in0.0 mm 1.35 in34.3 mm
01:53 AM 24.4°F-4.2°C 13.7°F-10.2°C 63% 9.0 mph NNW14.5 kmh NNW 12.0 mph19.3 kmh 29.95 in1014.2 mb 1.35 in34.3 mm 0.00 in0.0 mm 1.35 in34.3 mm
01:54 AM 24.4°F-4.2°C 13.7°F-10.2°C 63% 9.0 mph NNW14.5 kmh NNW 12.0 mph19.3 kmh 29.95 in1014.2 mb 1.35 in34.3 mm 0.00 in0.0 mm 1.35 in34.3 mm
01:55 AM 24.4°F-4.2°C 14.4°F-9.8°C 65% 11.0 mph NW17.7 kmh NW 12.0 mph19.3 kmh 29.95 in1014.2 mb 1.35 in34.3 mm 0.00 in0.0 mm 1.35 in34.3 mm
01:56 AM 24.4°F-4.2°C 13.7°F-10.2°C 63% 6.0 mph NE9.7 kmh NE 11.0 mph17.7 kmh 29.95 in1014.2 mb 1.35 in34.3 mm 0.00 in0.0 mm 1.35 in34.3 mm
01:57 AM 24.4°F-4.2°C 12.5°F-10.8°C 60% 9.0 mph NNW14.5 kmh NNW 11.0 mph17.7 kmh 29.95 in1014.2 mb 1.35 in34.3 mm 0.00 in0.0 mm 1.35 in34.3 mm
01:58 AM 24.4°F-4.2°C 12.5°F-10.8°C 60% 9.0 mph NNW14.5 kmh NNW 11.0 mph17.7 kmh 29.95 in1014.2 mb 1.35 in34.3 mm 0.00 in0.0 mm 1.35 in34.3 mm
01:59 AM 24.2°F-4.3°C 12.7°F-10.7°C 61% 12.0 mph W19.3 kmh W 12.0 mph19.3 kmh 29.95 in1014.2 mb 1.35 in34.3 mm 0.00 in0.0 mm 1.35 in34.3 mm
02:00 AM 24.2°F-4.3°C 12.7°F-10.7°C 61% 10.0 mph NNW16.1 kmh NNW 12.0 mph19.3 kmh 29.95 in1014.2 mb 1.35 in34.3 mm 0.00 in0.0 mm 1.35 in34.3 mm
02:01 AM 24.2°F-4.3°C 13.5°F-10.3°C 63% 8.0 mph NNW12.9 kmh NNW 12.0 mph19.3 kmh 29.95 in1014.2 mb 1.35 in34.3 mm 0.00 in0.0 mm 1.35 in34.3 mm
02:02 AM 24.1°F-4.4°C 12.2°F-11.0°C 60% 9.0 mph NNE14.5 kmh NNE 16.0 mph25.7 kmh 29.95 in1014.2 mb 1.35 in34.3 mm 0.00 in0.0 mm 1.35 in34.3 mm
02:03 AM 24.1°F-4.4°C 12.2°F-11.0°C 60% 11.0 mph NNW17.7 kmh NNW 16.0 mph25.7 kmh 29.95 in1014.2 mb 1.35 in34.3 mm 0.00 in0.0 mm 1.35 in34.3 mm
02:04 AM 24.1°F-4.4°C 12.6°F-10.8°C 61% 9.0 mph NNW14.5 kmh NNW 16.0 mph25.7 kmh 29.95 in1014.2 mb 1.35 in34.3 mm 0.00 in0.0 mm 1.35 in34.3 mm
02:05 AM 24.1°F-4.4°C 12.6°F-10.8°C 61% 15.0 mph NW24.1 kmh NW 16.0 mph25.7 kmh 29.95 in1014.2 mb 1.35 in34.3 mm 0.00 in0.0 mm 1.35 in34.3 mm
02:06 AM 24.1°F-4.4°C 13.4°F-10.3°C 63% 13.0 mph NW20.9 kmh NW 16.0 mph25.7 kmh 29.95 in1014.2 mb 1.35 in34.3 mm 0.00 in0.0 mm 1.35 in34.3 mm
02:07 AM 24.2°F-4.3°C 13.5°F-10.3°C 63% 10.0 mph NNW16.1 kmh NNW 17.0 mph27.4 kmh 29.96 in1014.6 mb 1.35 in34.3 mm 0.00 in0.0 mm 1.35 in34.3 mm
02:08 AM 24.2°F-4.3°C 13.5°F-10.3°C 63% 16.0 mph NW25.7 kmh NW 17.0 mph27.4 kmh 29.95 in1014.2 mb 1.35 in34.3 mm 0.00 in0.0 mm 1.35 in34.3 mm
02:09 AM 24.2°F-4.3°C 13.5°F-10.3°C 63% 11.0 mph NW17.7 kmh NW 17.0 mph27.4 kmh 29.95 in1014.2 mb 1.35 in34.3 mm 0.00 in0.0 mm 1.35 in34.3 mm
02:10 AM 24.2°F-4.3°C 13.5°F-10.3°C 63% 10.0 mph NW16.1 kmh NW 17.0 mph27.4 kmh 29.95 in1014.2 mb 1.35 in34.3 mm 0.00 in0.0 mm 1.35 in34.3 mm
02:11 AM 24.2°F-4.3°C 13.5°F-10.3°C 63% 9.0 mph NW14.5 kmh NW 17.0 mph27.4 kmh 29.96 in1014.6 mb 1.35 in34.3 mm 0.00 in0.0 mm 1.35 in34.3 mm
02:12 AM 24.2°F-4.3°C 12.7°F-10.7°C 61% 5.0 mph NW8.0 kmh NW 17.0 mph27.4 kmh 29.95 in1014.2 mb 1.35 in34.3 mm 0.00 in0.0 mm 1.35 in34.3 mm
02:13 AM 24.2°F-4.3°C 12.7°F-10.7°C 61% 13.0 mph 20.9 kmh 17.0 mph27.4 kmh 29.96 in1014.6 mb 1.35 in34.3 mm 0.00 in0.0 mm 1.35 in34.3 mm
02:14 AM 23.8°F-4.6°C 12.3°F-10.9°C 61% 8.0 mph NW12.9 kmh NW 17.0 mph27.4 kmh 29.95 in1014.2 mb 1.35 in34.3 mm 0.00 in0.0 mm 1.35 in34.3 mm
02:15 AM 23.8°F-4.6°C 12.3°F-10.9°C 61% 7.0 mph NW11.3 kmh NW 17.0 mph27.4 kmh 29.96 in1014.6 mb 1.35 in34.3 mm 0.00 in0.0 mm 1.35 in34.3 mm
02:16 AM 23.8°F-4.6°C 13.1°F-10.5°C 63% 12.0 mph NW19.3 kmh NW 17.0 mph27.4 kmh 29.96 in1014.6 mb 1.35 in34.3 mm 0.00 in0.0 mm 1.35 in34.3 mm
02:17 AM 23.8°F-4.6°C 13.1°F-10.5°C 63% 9.0 mph NW14.5 kmh NW 16.0 mph25.7 kmh 29.96 in1014.6 mb 1.35 in34.3 mm 0.00 in0.0 mm 1.35 in34.3 mm
02:18 AM 23.8°F-4.6°C 13.8°F-10.1°C 65% 15.0 mph NW24.1 kmh NW 16.0 mph25.7 kmh 29.96 in1014.6 mb 1.35 in34.3 mm 0.00 in0.0 mm 1.35 in34.3 mm
02:19 AM 23.8°F-4.6°C 12.3°F-10.9°C 61% 11.0 mph NW17.7 kmh NW 16.0 mph25.7 kmh 29.96 in1014.6 mb 1.35 in34.3 mm 0.00 in0.0 mm 1.35 in34.3 mm
02:20 AM 23.8°F-4.6°C 12.3°F-10.9°C 61% 15.0 mph NW24.1 kmh NW 18.0 mph29.0 kmh 29.96 in1014.6 mb 1.35 in34.3 mm 0.00 in0.0 mm 1.35 in34.3 mm
02:21 AM 23.8°F-4.6°C 13.1°F-10.5°C 63% 5.0 mph NW8.0 kmh NW 18.0 mph29.0 kmh 29.96 in1014.6 mb 1.35 in34.3 mm 0.00 in0.0 mm 1.35 in34.3 mm
02:22 AM 23.8°F-4.6°C 14.1°F-9.9°C 66% 10.0 mph NW16.1 kmh NW 18.0 mph29.0 kmh 29.96 in1014.6 mb 1.35 in34.3 mm 0.00 in0.0 mm 1.35 in34.3 mm
02:23 AM 23.8°F-4.6°C 13.8°F-10.1°C 65% 7.0 mph NW11.3 kmh NW 18.0 mph29.0 kmh 29.96 in1014.6 mb 1.35 in34.3 mm 0.00 in0.0 mm 1.35 in34.3 mm
02:24 AM 23.8°F-4.6°C 13.8°F-10.1°C 65% 10.0 mph NW16.1 kmh NW 18.0 mph29.0 kmh 29.96 in1014.6 mb 1.35 in34.3 mm 0.00 in0.0 mm 1.35 in34.3 mm
02:25 AM 23.8°F-4.6°C 13.8°F-10.1°C 65% 9.0 mph NW14.5 kmh NW 18.0 mph29.0 kmh 29.96 in1014.6 mb 1.35 in34.3 mm 0.00 in0.0 mm 1.35 in34.3 mm
02:26 AM 23.8°F-4.6°C 13.8°F-10.1°C 65% 12.0 mph 19.3 kmh 18.0 mph29.0 kmh 29.96 in1014.6 mb 1.35 in34.3 mm 0.00 in0.0 mm 1.35 in34.3 mm
02:27 AM 23.7°F-4.6°C 13.0°F-10.6°C 63% 7.0 mph NW11.3 kmh NW 18.0 mph29.0 kmh 29.97 in1014.9 mb 1.35 in34.3 mm 0.00 in0.0 mm 1.35 in34.3 mm
02:28 AM 23.7°F-4.6°C 13.7°F-10.2°C 65% 6.0 mph NNW9.7 kmh NNW 18.0 mph29.0 kmh 29.97 in1014.9 mb 1.35 in34.3 mm 0.00 in0.0 mm 1.35 in34.3 mm
02:29 AM 23.4°F-4.8°C 12.7°F-10.7°C 63% 5.0 mph 8.0 kmh 18.0 mph29.0 kmh 29.96 in1014.6 mb 1.35 in34.3 mm 0.00 in0.0 mm 1.35 in34.3 mm
02:30 AM 23.4°F-4.8°C 12.7°F-10.7°C 63% 8.0 mph NNW12.9 kmh NNW 13.0 mph20.9 kmh 29.96 in1014.6 mb 1.35 in34.3 mm 0.00 in0.0 mm 1.35 in34.3 mm
02:31 AM 23.3°F-4.8°C 12.6°F-10.8°C 63% 7.0 mph NW11.3 kmh NW 12.0 mph19.3 kmh 29.97 in1014.9 mb 1.35 in34.3 mm 0.00 in0.0 mm 1.35 in34.3 mm
02:32 AM 23.3°F-4.8°C 12.6°F-10.8°C 63% 6.0 mph WNW9.7 kmh WNW 12.0 mph19.3 kmh 29.97 in1014.9 mb 1.35 in34.3 mm 0.00 in0.0 mm 1.35 in34.3 mm
02:33 AM 23.3°F-4.8°C 13.3°F-10.4°C 65% 12.0 mph WNW19.3 kmh WNW 12.0 mph19.3 kmh 29.97 in1014.9 mb 1.35 in34.3 mm 0.00 in0.0 mm 1.35 in34.3 mm
02:34 AM 23.3°F-4.8°C 12.6°F-10.8°C 63% 8.0 mph NNW12.9 kmh NNW 12.0 mph19.3 kmh 29.97 in1014.9 mb 1.35 in34.3 mm 0.00 in0.0 mm 1.35 in34.3 mm
02:35 AM 23.3°F-4.8°C 13.3°F-10.4°C 65% 6.0 mph NW9.7 kmh NW 12.0 mph19.3 kmh 29.96 in1014.6 mb 1.35 in34.3 mm 0.00 in0.0 mm 1.35 in34.3 mm
02:36 AM 23.3°F-4.8°C 13.3°F-10.4°C 65% 6.0 mph NNW9.7 kmh NNW 12.0 mph19.3 kmh 29.96 in1014.6 mb 1.35 in34.3 mm 0.00 in0.0 mm 1.35 in34.3 mm
02:37 AM 23.3°F-4.8°C 13.3°F-10.4°C 65% 13.0 mph WNW20.9 kmh WNW 13.0 mph20.9 kmh 29.97 in1014.9 mb 1.35 in34.3 mm 0.00 in0.0 mm 1.35 in34.3 mm
02:38 AM 23.2°F-4.9°C 12.5°F-10.8°C 63% 11.0 mph NW17.7 kmh NW 16.0 mph25.7 kmh 29.97 in1014.9 mb 1.35 in34.3 mm 0.00 in0.0 mm 1.35 in34.3 mm
02:39 AM 23.2°F-4.9°C 12.5°F-10.8°C 63% 8.0 mph NW12.9 kmh NW 16.0 mph25.7 kmh 29.97 in1014.9 mb 1.35 in34.3 mm 0.00 in0.0 mm 1.35 in34.3 mm
02:40 AM 22.9°F-5.1°C 12.2°F-11.0°C 63% 12.0 mph NW19.3 kmh NW 16.0 mph25.7 kmh 29.97 in1014.9 mb 1.35 in34.3 mm 0.00 in0.0 mm 1.35 in34.3 mm
02:41 AM 22.9°F-5.1°C 12.2°F-11.0°C 63% 12.0 mph NE19.3 kmh NE 16.0 mph25.7 kmh 29.97 in1014.9 mb 1.35 in34.3 mm 0.00 in0.0 mm 1.35 in34.3 mm
02:42 AM 22.9°F-5.1°C 12.9°F-10.6°C 65% 10.0 mph NW16.1 kmh NW 16.0 mph25.7 kmh 29.97 in1014.9 mb 1.35 in34.3 mm 0.00 in0.0 mm 1.35 in34.3 mm
02:43 AM 22.9°F-5.1°C 12.9°F-10.6°C 65% 13.0 mph NNW20.9 kmh NNW 16.0 mph25.7 kmh 29.98 in1015.2 mb 1.35 in34.3 mm 0.00 in0.0 mm 1.35 in34.3 mm
02:44 AM 22.9°F-5.1°C 12.2°F-11.0°C 63% 12.0 mph NNE19.3 kmh NNE 16.0 mph25.7 kmh 29.97 in1014.9 mb 1.35 in34.3 mm 0.00 in0.0 mm 1.35 in34.3 mm
02:45 AM 22.9°F-5.1°C 12.2°F-11.0°C 63% 8.0 mph NNE12.9 kmh NNE 16.0 mph25.7 kmh 29.97 in1014.9 mb 1.35 in34.3 mm 0.00 in0.0 mm 1.35 in34.3 mm
02:46 AM 22.7°F-5.2°C 12.0°F-11.1°C 63% 8.0 mph 12.9 kmh 16.0 mph25.7 kmh 29.97 in1014.9 mb 1.35 in34.3 mm 0.00 in0.0 mm 1.35 in34.3 mm
02:47 AM 22.5°F-5.3°C 11.8°F-11.2°C 63% 7.0 mph NW11.3 kmh NW 16.0 mph25.7 kmh 29.97 in1014.9 mb 1.35 in34.3 mm 0.00 in0.0 mm 1.35 in34.3 mm
02:48 AM 22.5°F-5.3°C 11.8°F-11.2°C 63% 6.0 mph NNW9.7 kmh NNW 14.0 mph22.5 kmh 29.97 in1014.9 mb 1.35 in34.3 mm 0.00 in0.0 mm 1.35 in34.3 mm
02:49 AM 22.5°F-5.3°C 11.8°F-11.2°C 63% 13.0 mph NNW20.9 kmh NNW 14.0 mph22.5 kmh 29.97 in1014.9 mb 1.35 in34.3 mm 0.00 in0.0 mm 1.35 in34.3 mm
02:50 AM 22.5°F-5.3°C 11.1°F-11.6°C 61% 6.0 mph NNW9.7 kmh NNW 13.0 mph20.9 kmh 29.97 in1014.9 mb 1.35 in34.3 mm 0.00 in0.0 mm 1.35 in34.3 mm
02:51 AM 22.5°F-5.3°C 11.8°F-11.2°C 63% 8.0 mph 12.9 kmh 13.0 mph20.9 kmh 29.97 in1014.9 mb 1.35 in34.3 mm 0.00 in0.0 mm 1.35 in34.3 mm
02:52 AM 22.5°F-5.3°C 11.8°F-11.2°C 63% 10.0 mph NW16.1 kmh NW 13.0 mph20.9 kmh 29.97 in1014.9 mb 1.35 in34.3 mm 0.00 in0.0 mm 1.35 in34.3 mm
02:53 AM 22.5°F-5.3°C 12.6°F-10.8°C 65% 6.0 mph WNW9.7 kmh WNW 13.0 mph20.9 kmh 29.97 in1014.9 mb 1.35 in34.3 mm 0.00 in0.0 mm 1.35 in34.3 mm
02:54 AM 22.5°F-5.3°C 12.6°F-10.8°C 65% 13.0 mph NW20.9 kmh NW 13.0 mph20.9 kmh 29.97 in1014.9 mb 1.35 in34.3 mm 0.00 in0.0 mm 1.35 in34.3 mm
02:55 AM 22.5°F-5.3°C 11.8°F-11.2°C 63% 14.0 mph NW22.5 kmh NW 14.0 mph22.5 kmh 29.97 in1014.9 mb 1.35 in34.3 mm 0.00 in0.0 mm 1.35 in34.3 mm
02:56 AM 22.5°F-5.3°C 12.6°F-10.8°C 65% 9.0 mph NNW14.5 kmh NNW 14.0 mph22.5 kmh 29.97 in1014.9 mb 1.35 in34.3 mm 0.00 in0.0 mm 1.35 in34.3 mm
02:57 AM 22.5°F-5.3°C 12.6°F-10.8°C 65% 8.0 mph WNW12.9 kmh WNW 14.0 mph22.5 kmh 29.97 in1014.9 mb 1.35 in34.3 mm 0.00 in0.0 mm 1.35 in34.3 mm
02:58 AM 22.5°F-5.3°C 11.8°F-11.2°C 63% 7.0 mph 11.3 kmh 14.0 mph22.5 kmh 29.97 in1014.9 mb 1.35 in34.3 mm 0.00 in0.0 mm 1.35 in34.3 mm
02:59 AM 22.5°F-5.3°C 12.6°F-10.8°C 65% 4.0 mph 6.4 kmh 14.0 mph22.5 kmh 29.97 in1014.9 mb 1.35 in34.3 mm 0.00 in0.0 mm 1.35 in34.3 mm
03:00 AM 22.5°F-5.3°C 12.6°F-10.8°C 65% 8.0 mph NW12.9 kmh NW 14.0 mph22.5 kmh 29.97 in1014.9 mb 1.35 in34.3 mm 0.00 in0.0 mm 1.35 in34.3 mm
03:01 AM 22.5°F-5.3°C 12.6°F-10.8°C 65% 7.0 mph NW11.3 kmh NW 14.0 mph22.5 kmh 29.97 in1014.9 mb 1.35 in34.3 mm 0.00 in0.0 mm 1.35 in34.3 mm
03:02 AM 22.5°F-5.3°C 12.6°F-10.8°C 65% 5.0 mph WNW8.0 kmh WNW 14.0 mph22.5 kmh 29.97 in1014.9 mb 1.35 in34.3 mm 0.00 in0.0 mm 1.35 in34.3 mm
03:03 AM 22.5°F-5.3°C 12.9°F-10.6°C 66% 6.0 mph 9.7 kmh 14.0 mph22.5 kmh 29.97 in1014.9 mb 1.35 in34.3 mm 0.00 in0.0 mm 1.35 in34.3 mm
03:04 AM 22.5°F-5.3°C 12.9°F-10.6°C 66% 7.0 mph NW11.3 kmh NW 14.0 mph22.5 kmh 29.97 in1014.9 mb 1.35 in34.3 mm 0.00 in0.0 mm 1.35 in34.3 mm
03:05 AM 22.5°F-5.3°C 11.8°F-11.2°C 63% 5.0 mph NW8.0 kmh NW 14.0 mph22.5 kmh 29.97 in1014.9 mb 1.35 in34.3 mm 0.00 in0.0 mm 1.35 in34.3 mm
03:06 AM 22.5°F-5.3°C 11.8°F-11.2°C 63% 6.0 mph NE9.7 kmh NE 10.0 mph16.1 kmh 29.97 in1014.9 mb 1.35 in34.3 mm 0.00 in0.0 mm 1.35 in34.3 mm
03:07 AM 22.3°F-5.4°C 11.7°F-11.3°C 63% 7.0 mph WNW11.3 kmh WNW 10.0 mph16.1 kmh 29.97 in1014.9 mb 1.35 in34.3 mm 0.00 in0.0 mm 1.35 in34.3 mm
03:08 AM 22.1°F-5.5°C 11.5°F-11.4°C 63% 9.0 mph NW14.5 kmh NW 10.0 mph16.1 kmh 29.97 in1014.9 mb 1.35 in34.3 mm 0.00 in0.0 mm 1.35 in34.3 mm
03:09 AM 22.1°F-5.5°C 11.5°F-11.4°C 63% 12.0 mph NW19.3 kmh NW 12.0 mph19.3 kmh 29.97 in1014.9 mb 1.35 in34.3 mm 0.00 in0.0 mm 1.35 in34.3 mm
03:10 AM 22.1°F-5.5°C 12.2°F-11.0°C 65% 5.0 mph NNW8.0 kmh NNW 12.0 mph19.3 kmh 29.97 in1014.9 mb 1.35 in34.3 mm 0.00 in0.0 mm 1.35 in34.3 mm
03:11 AM 22.3°F-5.4°C 12.4°F-10.9°C 65% 7.0 mph NW11.3 kmh NW 12.0 mph19.3 kmh 29.98 in1015.2 mb 1.35 in34.3 mm 0.00 in0.0 mm 1.35 in34.3 mm
03:12 AM 22.3°F-5.4°C 12.7°F-10.7°C 66% 6.0 mph 9.7 kmh 12.0 mph19.3 kmh 29.98 in1015.2 mb 1.35 in34.3 mm 0.00 in0.0 mm 1.35 in34.3 mm
03:13 AM 22.3°F-5.4°C 11.7°F-11.3°C 63% 6.0 mph NNW9.7 kmh NNW 12.0 mph19.3 kmh 29.97 in1014.9 mb 1.35 in34.3 mm 0.00 in0.0 mm 1.35 in34.3 mm
03:14 AM 22.1°F-5.5°C 11.5°F-11.4°C 63% 6.0 mph WNW9.7 kmh WNW 12.0 mph19.3 kmh 29.97 in1014.9 mb 1.35 in34.3 mm 0.00 in0.0 mm 1.35 in34.3 mm
03:15 AM 22.1°F-5.5°C 11.5°F-11.4°C 63% 8.0 mph NNW12.9 kmh NNW 12.0 mph19.3 kmh 29.97 in1014.9 mb 1.35 in34.3 mm 0.00 in0.0 mm 1.35 in34.3 mm
03:16 AM 22.1°F-5.5°C 11.5°F-11.4°C 63% 10.0 mph NW16.1 kmh NW 12.0 mph19.3 kmh 29.97 in1014.9 mb 1.35 in34.3 mm 0.00 in0.0 mm 1.35 in34.3 mm
03:17 AM 22.1°F-5.5°C 11.5°F-11.4°C 63% 10.0 mph NE16.1 kmh NE 12.0 mph19.3 kmh 29.98 in1015.2 mb 1.35 in34.3 mm 0.00 in0.0 mm 1.35 in34.3 mm
03:18 AM 21.9°F-5.6°C 10.2°F-12.1°C 60% 10.0 mph NW16.1 kmh NW 12.0 mph19.3 kmh 29.98 in1015.2 mb 1.35 in34.3 mm 0.00 in0.0 mm 1.35 in34.3 mm
03:19 AM 21.9°F-5.6°C 10.2°F-12.1°C 60% 8.0 mph NNW12.9 kmh NNW 13.0 mph20.9 kmh 29.97 in1014.9 mb 1.35 in34.3 mm 0.00 in0.0 mm 1.35 in34.3 mm
03:20 AM 21.9°F-5.6°C 11.3°F-11.5°C 63% 8.0 mph NNW12.9 kmh NNW 13.0 mph20.9 kmh 29.97 in1014.9 mb 1.35 in34.3 mm 0.00 in0.0 mm 1.35 in34.3 mm
03:21 AM 21.9°F-5.6°C 11.3°F-11.5°C 63% 11.0 mph NW17.7 kmh NW 13.0 mph20.9 kmh 29.97 in1014.9 mb 1.35 in34.3 mm 0.00 in0.0 mm 1.35 in34.3 mm
03:22 AM 21.9°F-5.6°C 10.5°F-11.9°C 61% 7.0 mph NNW11.3 kmh NNW 13.0 mph20.9 kmh 29.97 in1014.9 mb 1.35 in34.3 mm 0.00 in0.0 mm 1.35 in34.3 mm
03:23 AM 21.9°F-5.6°C 10.5°F-11.9°C 61% 8.0 mph NNE12.9 kmh NNE 13.0 mph20.9 kmh 29.97 in1014.9 mb 1.35 in34.3 mm 0.00 in0.0 mm 1.35 in34.3 mm
03:24 AM 21.9°F-5.6°C 10.5°F-11.9°C 61% 6.0 mph NW9.7 kmh NW 13.0 mph20.9 kmh 29.97 in1014.9 mb 1.35 in34.3 mm 0.00 in0.0 mm 1.35 in34.3 mm
03:25 AM 21.9°F-5.6°C 10.5°F-11.9°C 61% 12.0 mph WNW19.3 kmh WNW 13.0 mph20.9 kmh 29.98 in1015.2 mb 1.35 in34.3 mm 0.00 in0.0 mm 1.35 in34.3 mm
03:26 AM 21.9°F-5.6°C 10.5°F-11.9°C 61% 7.0 mph NNW11.3 kmh NNW 13.0 mph20.9 kmh 29.98 in1015.2 mb 1.35 in34.3 mm 0.00 in0.0 mm 1.35 in34.3 mm
03:27 AM 21.7°F-5.7°C 10.0°F-12.2°C 60% 10.0 mph NNE16.1 kmh NNE 13.0 mph20.9 kmh 29.97 in1014.9 mb 1.35 in34.3 mm 0.00 in0.0 mm 1.35 in34.3 mm
03:28 AM 21.7°F-5.7°C 9.6°F-12.4°C 59% 6.0 mph NW9.7 kmh NW 13.0 mph20.9 kmh 29.97 in1014.9 mb 1.35 in34.3 mm 0.00 in0.0 mm 1.35 in34.3 mm
03:29 AM 21.7°F-5.7°C 9.6°F-12.4°C 59% 7.0 mph NNW11.3 kmh NNW 12.0 mph19.3 kmh 29.97 in1014.9 mb 1.35 in34.3 mm 0.00 in0.0 mm 1.35 in34.3 mm
03:30 AM 21.6°F-5.8°C 10.3°F-12.1°C 61% 10.0 mph NW16.1 kmh NW 12.0 mph19.3 kmh 29.97 in1014.9 mb 1.35 in34.3 mm 0.00 in0.0 mm 1.35 in34.3 mm
03:31 AM 21.7°F-5.7°C 11.1°F-11.6°C 63% 7.0 mph NW11.3 kmh NW 12.0 mph19.3 kmh 29.97 in1014.9 mb 1.35 in34.3 mm 0.00 in0.0 mm 1.35 in34.3 mm
03:32 AM 21.7°F-5.7°C 11.1°F-11.6°C 63% 9.0 mph NW14.5 kmh NW 12.0 mph19.3 kmh 29.97 in1014.9 mb 1.35 in34.3 mm 0.00 in0.0 mm 1.35 in34.3 mm
03:33 AM 21.7°F-5.7°C 10.0°F-12.2°C 60% 10.0 mph WNW16.1 kmh WNW 12.0 mph19.3 kmh 29.97 in1014.9 mb 1.35 in34.3 mm 0.00 in0.0 mm 1.35 in34.3 mm
03:34 AM 21.7°F-5.7°C 10.0°F-12.2°C 60% 10.0 mph NW16.1 kmh NW 12.0 mph19.3 kmh 29.97 in1014.9 mb 1.35 in34.3 mm 0.00 in0.0 mm 1.35 in34.3 mm
03:35 AM 21.7°F-5.7°C 10.0°F-12.2°C 60% 5.0 mph NNW8.0 kmh NNW 12.0 mph19.3 kmh 29.98 in1015.2 mb 1.35 in34.3 mm 0.00 in0.0 mm 1.35 in34.3 mm
03:36 AM 21.7°F-5.7°C 9.6°F-12.4°C 59% 8.0 mph 12.9 kmh 10.0 mph16.1 kmh 29.97 in1014.9 mb 1.35 in34.3 mm 0.00 in0.0 mm 1.35 in34.3 mm
03:37 AM 21.7°F-5.7°C 9.6°F-12.4°C 59% 8.0 mph NW12.9 kmh NW 10.0 mph16.1 kmh 29.97 in1014.9 mb 1.35 in34.3 mm 0.00 in0.0 mm 1.35 in34.3 mm
03:38 AM 21.7°F-5.7°C 10.4°F-12.0°C 61% 6.0 mph NE9.7 kmh NE 10.0 mph16.1 kmh 29.97 in1014.9 mb 1.35 in34.3 mm 0.00 in0.0 mm 1.35 in34.3 mm
03:39 AM 21.7°F-5.7°C 10.0°F-12.2°C 60% 7.0 mph WNW11.3 kmh WNW 10.0 mph16.1 kmh 29.97 in1014.9 mb 1.35 in34.3 mm 0.00 in0.0 mm 1.35 in34.3 mm
03:40 AM 21.7°F-5.7°C 10.4°F-12.0°C 61% 8.0 mph NNW12.9 kmh NNW 10.0 mph16.1 kmh 29.97 in1014.9 mb 1.35 in34.3 mm 0.00 in0.0 mm 1.35 in34.3 mm
03:41 AM 21.7°F-5.7°C 10.0°F-12.2°C 60% 7.0 mph NE11.3 kmh NE 10.0 mph16.1 kmh 29.98 in1015.2 mb 1.35 in34.3 mm 0.00 in0.0 mm 1.35 in34.3 mm
03:42 AM 21.3°F-5.9°C 8.0°F-13.3°C 56% 12.0 mph WNW19.3 kmh WNW 15.0 mph24.1 kmh 29.97 in1014.9 mb 1.35 in34.3 mm 0.00 in0.0 mm 1.35 in34.3 mm
03:43 AM 21.3°F-5.9°C 8.0°F-13.3°C 56% 10.0 mph NW16.1 kmh NW 15.0 mph24.1 kmh 29.97 in1014.9 mb 1.35 in34.3 mm 0.00 in0.0 mm 1.35 in34.3 mm
03:44 AM 21.3°F-5.9°C 8.0°F-13.3°C 56% 9.0 mph NW14.5 kmh NW 15.0 mph24.1 kmh 29.97 in1014.9 mb 1.35 in34.3 mm 0.00 in0.0 mm 1.35 in34.3 mm
03:45 AM 21.3°F-5.9°C 9.2°F-12.7°C 59% 6.0 mph 9.7 kmh 15.0 mph24.1 kmh 29.97 in1014.9 mb 1.35 in34.3 mm 0.00 in0.0 mm 1.35 in34.3 mm
03:46 AM 21.3°F-5.9°C 8.0°F-13.3°C 56% 9.0 mph NW14.5 kmh NW 15.0 mph24.1 kmh 29.97 in1014.9 mb 1.35 in34.3 mm 0.00 in0.0 mm 1.35 in34.3 mm
03:47 AM 21.2°F-6.0°C 7.9°F-13.4°C 56% 15.0 mph NW24.1 kmh NW 15.0 mph24.1 kmh 29.97 in1014.9 mb 1.35 in34.3 mm 0.00 in0.0 mm 1.35 in34.3 mm
03:48 AM 21.2°F-6.0°C 8.7°F-12.9°C 58% 10.0 mph WNW16.1 kmh WNW 15.0 mph24.1 kmh 29.97 in1014.9 mb 1.35 in34.3 mm 0.00 in0.0 mm 1.35 in34.3 mm
03:49 AM 21.2°F-6.0°C 9.1°F-12.7°C 59% 6.0 mph 9.7 kmh 15.0 mph24.1 kmh 29.97 in1014.9 mb 1.35 in34.3 mm 0.00 in0.0 mm 1.35 in34.3 mm
03:50 AM 21.2°F-6.0°C 8.7°F-12.9°C 58% 10.0 mph NNW16.1 kmh NNW 15.0 mph24.1 kmh 29.97 in1014.9 mb 1.35 in34.3 mm 0.00 in0.0 mm 1.35 in34.3 mm
03:51 AM 21.2°F-6.0°C 8.7°F-12.9°C 58% 9.0 mph NNE14.5 kmh NNE 15.0 mph24.1 kmh 29.98 in1015.2 mb 1.35 in34.3 mm 0.00 in0.0 mm 1.35 in34.3 mm
03:52 AM 21.2°F-6.0°C 9.1°F-12.7°C 59% 7.0 mph NW11.3 kmh NW 15.0 mph24.1 kmh 29.98 in1015.2 mb 1.35 in34.3 mm 0.00 in0.0 mm 1.35 in34.3 mm
03:54 AM 21.2°F-6.0°C 9.1°F-12.7°C 59% 5.0 mph NNW8.0 kmh NNW 15.0 mph24.1 kmh 29.97 in1014.9 mb 1.35 in34.3 mm 0.00 in0.0 mm 1.35 in34.3 mm
03:55 AM 21.2°F-6.0°C 8.7°F-12.9°C 58% 7.0 mph NW11.3 kmh NW 15.0 mph24.1 kmh 29.98 in1015.2 mb 1.35 in34.3 mm 0.00 in0.0 mm 1.35 in34.3 mm
03:56 AM 21.2°F-6.0°C 8.7°F-12.9°C 58% 11.0 mph 17.7 kmh 15.0 mph24.1 kmh 29.98 in1015.2 mb 1.35 in34.3 mm 0.00 in0.0 mm 1.35 in34.3 mm
03:57 AM 21.2°F-6.0°C 7.9°F-13.4°C 56% 6.0 mph 9.7 kmh 14.0 mph22.5 kmh 29.98 in1015.2 mb 1.35 in34.3 mm 0.00 in0.0 mm 1.35 in34.3 mm
03:58 AM 20.9°F-6.2°C 7.3°F-13.7°C 55% 10.0 mph NW16.1 kmh NW 14.0 mph22.5 kmh 29.98 in1015.2 mb 1.35 in34.3 mm 0.00 in0.0 mm 1.35 in34.3 mm
03:59 AM 20.9°F-6.2°C 7.7°F-13.5°C 56% 8.0 mph NW12.9 kmh NW 14.0 mph22.5 kmh 29.98 in1015.2 mb 1.35 in34.3 mm 0.00 in0.0 mm 1.35 in34.3 mm
04:00 AM 20.9°F-6.2°C 7.7°F-13.5°C 56% 8.0 mph NW12.9 kmh NW 14.0 mph22.5 kmh 29.98 in1015.2 mb 1.35 in34.3 mm 0.00 in0.0 mm 1.35 in34.3 mm
04:01 AM 21.2°F-6.0°C 9.1°F-12.7°C 59% 10.0 mph NNW16.1 kmh NNW 14.0 mph22.5 kmh 29.98 in1015.2 mb 1.35 in34.3 mm 0.00 in0.0 mm 1.35 in34.3 mm
04:02 AM 21.2°F-6.0°C 7.9°F-13.4°C 56% 9.0 mph NW14.5 kmh NW 14.0 mph22.5 kmh 29.97 in1014.9 mb 1.35 in34.3 mm 0.00 in0.0 mm 1.35 in34.3 mm
04:03 AM 20.9°F-6.2°C 7.3°F-13.7°C 55% 7.0 mph WNW11.3 kmh WNW 12.0 mph19.3 kmh 29.98 in1015.2 mb 1.35 in34.3 mm 0.00 in0.0 mm 1.35 in34.3 mm
04:04 AM 20.7°F-6.3°C 7.5°F-13.6°C 56% 9.0 mph NW14.5 kmh NW 12.0 mph19.3 kmh 29.98 in1015.2 mb 1.35 in34.3 mm 0.00 in0.0 mm 1.35 in34.3 mm
04:05 AM 20.7°F-6.3°C 7.5°F-13.6°C 56% 9.0 mph NNW14.5 kmh NNW 12.0 mph19.3 kmh 29.98 in1015.2 mb 1.35 in34.3 mm 0.00 in0.0 mm 1.35 in34.3 mm
04:06 AM 20.7°F-6.3°C 8.3°F-13.2°C 58% 8.0 mph NW12.9 kmh NW 12.0 mph19.3 kmh 29.98 in1015.2 mb 1.35 in34.3 mm 0.00 in0.0 mm 1.35 in34.3 mm
04:07 AM 20.7°F-6.3°C 8.3°F-13.2°C 58% 10.0 mph NW16.1 kmh NW 12.0 mph19.3 kmh 29.98 in1015.2 mb 1.35 in34.3 mm 0.00 in0.0 mm 1.35 in34.3 mm
04:08 AM 20.7°F-6.3°C 7.1°F-13.8°C 55% 11.0 mph NNW17.7 kmh NNW 12.0 mph19.3 kmh 29.98 in1015.2 mb 1.35 in34.3 mm 0.00 in0.0 mm 1.35 in34.3 mm
04:09 AM 20.7°F-6.3°C 7.1°F-13.8°C 55% 12.0 mph NNW19.3 kmh NNW 12.0 mph19.3 kmh 29.98 in1015.2 mb 1.35 in34.3 mm 0.00 in0.0 mm 1.35 in34.3 mm
04:10 AM 20.7°F-6.3°C 7.5°F-13.6°C 56% 8.0 mph NW12.9 kmh NW 12.0 mph19.3 kmh 29.98 in1015.2 mb 1.35 in34.3 mm 0.00 in0.0 mm 1.35 in34.3 mm
04:11 AM 20.7°F-6.3°C 8.3°F-13.2°C 58% 9.0 mph NW14.5 kmh NW 12.0 mph19.3 kmh 29.98 in1015.2 mb 1.35 in34.3 mm 0.00 in0.0 mm 1.35 in34.3 mm
04:12 AM 20.7°F-6.3°C 8.7°F-12.9°C 59% 5.0 mph 8.0 kmh 12.0 mph19.3 kmh 29.98 in1015.2 mb 1.35 in34.3 mm 0.00 in0.0 mm 1.35 in34.3 mm
04:13 AM 20.7°F-6.3°C 8.3°F-13.2°C 58% 10.0 mph NW16.1 kmh NW 12.0 mph19.3 kmh 29.98 in1015.2 mb 1.35 in34.3 mm 0.00 in0.0 mm 1.35 in34.3 mm
04:14 AM 20.7°F-6.3°C 8.7°F-12.9°C 59% 8.0 mph NW12.9 kmh NW 12.0 mph19.3 kmh 29.98 in1015.2 mb 1.35 in34.3 mm 0.00 in0.0 mm 1.35 in34.3 mm
04:15 AM 20.7°F-6.3°C 8.7°F-12.9°C 59% 11.0 mph NNW17.7 kmh NNW 12.0 mph19.3 kmh 29.98 in1015.2 mb 1.35 in34.3 mm 0.00 in0.0 mm 1.35 in34.3 mm
04:16 AM 20.7°F-6.3°C 7.1°F-13.8°C 55% 11.0 mph NW17.7 kmh NW 12.0 mph19.3 kmh 29.98 in1015.2 mb 1.35 in34.3 mm 0.00 in0.0 mm 1.35 in34.3 mm
04:17 AM 20.7°F-6.3°C 7.1°F-13.8°C 55% 6.0 mph NW9.7 kmh NW 12.0 mph19.3 kmh 29.98 in1015.2 mb 1.35 in34.3 mm 0.00 in0.0 mm 1.35 in34.3 mm
04:18 AM 20.7°F-6.3°C 7.5°F-13.6°C 56% 9.0 mph NW14.5 kmh NW 12.0 mph19.3 kmh 29.98 in1015.2 mb 1.35 in34.3 mm 0.00 in0.0 mm 1.35 in34.3 mm
04:19 AM 20.7°F-6.3°C 7.1°F-13.8°C 55% 5.0 mph NNW8.0 kmh NNW 12.0 mph19.3 kmh 29.98 in1015.2 mb 1.35 in34.3 mm 0.00 in0.0 mm 1.35 in34.3 mm
04:20 AM 20.7°F-6.3°C 7.1°F-13.8°C 55% 9.0 mph NNW14.5 kmh NNW 12.0 mph19.3 kmh 29.98 in1015.2 mb 1.35 in34.3 mm 0.00 in0.0 mm 1.35 in34.3 mm
04:21 AM 20.7°F-6.3°C 7.1°F-13.8°C 55% 7.0 mph NW11.3 kmh NW 12.0 mph19.3 kmh 29.98 in1015.2 mb 1.35 in34.3 mm 0.00 in0.0 mm 1.35 in34.3 mm
04:22 AM 20.7°F-6.3°C 8.3°F-13.2°C 58% 11.0 mph NW17.7 kmh NW 12.0 mph19.3 kmh 29.98 in1015.2 mb 1.35 in34.3 mm 0.00 in0.0 mm 1.35 in34.3 mm
04:23 AM 20.7°F-6.3°C 8.7°F-12.9°C 59% 4.0 mph NNW6.4 kmh NNW 12.0 mph19.3 kmh 29.98 in1015.2 mb 1.35 in34.3 mm 0.00 in0.0 mm 1.35 in34.3 mm
04:24 AM 20.7°F-6.3°C 8.3°F-13.2°C 58% 13.0 mph NW20.9 kmh NW 15.0 mph24.1 kmh 29.98 in1015.2 mb 1.35 in34.3 mm 0.00 in0.0 mm 1.35 in34.3 mm
04:25 AM 20.4°F-6.4°C 7.2°F-13.8°C 56% 9.0 mph NW14.5 kmh NW 15.0 mph24.1 kmh 29.98 in1015.2 mb 1.35 in34.3 mm 0.00 in0.0 mm 1.35 in34.3 mm
04:26 AM 20.4°F-6.4°C 7.2°F-13.8°C 56% 10.0 mph NNE16.1 kmh NNE 15.0 mph24.1 kmh 29.98 in1015.2 mb 1.35 in34.3 mm 0.00 in0.0 mm 1.35 in34.3 mm
04:27 AM 20.4°F-6.4°C 7.2°F-13.8°C 56% 11.0 mph 17.7 kmh 15.0 mph24.1 kmh 29.98 in1015.2 mb 1.35 in34.3 mm 0.00 in0.0 mm 1.35 in34.3 mm
04:28 AM 20.4°F-6.4°C 8.0°F-13.3°C 58% 10.0 mph NNW16.1 kmh NNW 15.0 mph24.1 kmh 29.98 in1015.2 mb 1.35 in34.3 mm 0.00 in0.0 mm 1.35 in34.3 mm
04:29 AM 20.4°F-6.4°C 8.0°F-13.3°C 58% 9.0 mph 14.5 kmh 15.0 mph24.1 kmh 29.99 in1015.6 mb 1.35 in34.3 mm 0.00 in0.0 mm 1.35 in34.3 mm
04:30 AM 20.4°F-6.4°C 7.2°F-13.8°C 56% 9.0 mph NW14.5 kmh NW 15.0 mph24.1 kmh 29.99 in1015.6 mb 1.35 in34.3 mm 0.00 in0.0 mm 1.35 in34.3 mm
04:31 AM 20.4°F-6.4°C 7.2°F-13.8°C 56% 10.0 mph NNW16.1 kmh NNW 15.0 mph24.1 kmh 29.98 in1015.2 mb 1.35 in34.3 mm 0.00 in0.0 mm 1.35 in34.3 mm
04:32 AM 20.4°F-6.4°C 8.0°F-13.3°C 58% 8.0 mph NW12.9 kmh NW 15.0 mph24.1 kmh 29.98 in1015.2 mb 1.35 in34.3 mm 0.00 in0.0 mm 1.35 in34.3 mm
04:33 AM 20.4°F-6.4°C 7.2°F-13.8°C 56% 11.0 mph NW17.7 kmh NW 15.0 mph24.1 kmh 29.99 in1015.6 mb 1.35 in34.3 mm 0.00 in0.0 mm 1.35 in34.3 mm
04:34 AM 20.4°F-6.4°C 8.0°F-13.3°C 58% 5.0 mph NW8.0 kmh NW 11.0 mph17.7 kmh 29.98 in1015.2 mb 1.35 in34.3 mm 0.00 in0.0 mm 1.35 in34.3 mm
04:35 AM 20.4°F-6.4°C 8.0°F-13.3°C 58% 11.0 mph WNW17.7 kmh WNW 11.0 mph17.7 kmh 29.98 in1015.2 mb 1.35 in34.3 mm 0.00 in0.0 mm 1.35 in34.3 mm
04:36 AM 20.4°F-6.4°C 6.8°F-14.0°C 55% 11.0 mph NW17.7 kmh NW 11.0 mph17.7 kmh 29.98 in1015.2 mb 1.35 in34.3 mm 0.00 in0.0 mm 1.35 in34.3 mm
04:37 AM 20.4°F-6.4°C 6.8°F-14.0°C 55% 10.0 mph NW16.1 kmh NW 11.0 mph17.7 kmh 29.98 in1015.2 mb 1.35 in34.3 mm 0.00 in0.0 mm 1.35 in34.3 mm
04:38 AM 20.4°F-6.4°C 6.8°F-14.0°C 55% 15.0 mph WNW24.1 kmh WNW 15.0 mph24.1 kmh 29.98 in1015.2 mb 1.35 in34.3 mm 0.00 in0.0 mm 1.35 in34.3 mm
04:39 AM 20.4°F-6.4°C 6.8°F-14.0°C 55% 10.0 mph WNW16.1 kmh WNW 15.0 mph24.1 kmh 29.98 in1015.2 mb 1.35 in34.3 mm 0.00 in0.0 mm 1.35 in34.3 mm
04:40 AM 20.2°F-6.6°C 6.6°F-14.1°C 55% 7.0 mph NW11.3 kmh NW 15.0 mph24.1 kmh 29.98 in1015.2 mb 1.35 in34.3 mm 0.00 in0.0 mm 1.35 in34.3 mm
04:41 AM 20.2°F-6.6°C 7.0°F-13.9°C 56% 9.0 mph NW14.5 kmh NW 15.0 mph24.1 kmh 29.98 in1015.2 mb 1.35 in34.3 mm 0.00 in0.0 mm 1.35 in34.3 mm
04:42 AM 20.2°F-6.6°C 7.0°F-13.9°C 56% 5.0 mph NW8.0 kmh NW 15.0 mph24.1 kmh 29.98 in1015.2 mb 1.35 in34.3 mm 0.00 in0.0 mm 1.35 in34.3 mm
04:43 AM 20.2°F-6.6°C 6.6°F-14.1°C 55% 11.0 mph NW17.7 kmh NW 15.0 mph24.1 kmh 29.98 in1015.2 mb 1.35 in34.3 mm 0.00 in0.0 mm 1.35 in34.3 mm
04:44 AM 20.2°F-6.6°C 6.6°F-14.1°C 55% 4.0 mph S6.4 kmh S 15.0 mph24.1 kmh 29.98 in1015.2 mb 1.35 in34.3 mm 0.00 in0.0 mm 1.35 in34.3 mm
04:45 AM 20.0°F-6.7°C 6.4°F-14.2°C 55% 7.0 mph NW11.3 kmh NW 15.0 mph24.1 kmh 29.98 in1015.2 mb 1.35 in34.3 mm 0.00 in0.0 mm 1.35 in34.3 mm
04:46 AM 20.0°F-6.7°C 6.4°F-14.2°C 55% 11.0 mph NW17.7 kmh NW 15.0 mph24.1 kmh 29.98 in1015.2 mb 1.35 in34.3 mm 0.00 in0.0 mm 1.35 in34.3 mm
04:47 AM 20.0°F-6.7°C 6.4°F-14.2°C 55% 10.0 mph NW16.1 kmh NW 15.0 mph24.1 kmh 29.99 in1015.6 mb 1.35 in34.3 mm 0.00 in0.0 mm 1.35 in34.3 mm
04:48 AM 20.0°F-6.7°C 6.0°F-14.4°C 54% 12.0 mph NNW19.3 kmh NNW 15.0 mph24.1 kmh 29.98 in1015.2 mb 1.35 in34.3 mm 0.00 in0.0 mm 1.35 in34.3 mm
04:49 AM 20.0°F-6.7°C 6.4°F-14.2°C 55% 8.0 mph NW12.9 kmh NW 15.0 mph24.1 kmh 29.99 in1015.6 mb 1.35 in34.3 mm 0.00 in0.0 mm 1.35 in34.3 mm
04:50 AM 20.0°F-6.7°C 7.6°F-13.6°C 58% 7.0 mph NNW11.3 kmh NNW 15.0 mph24.1 kmh 29.99 in1015.6 mb 1.35 in34.3 mm 0.00 in0.0 mm 1.35 in34.3 mm
04:51 AM 20.0°F-6.7°C 6.4°F-14.2°C 55% 15.0 mph NW24.1 kmh NW 15.0 mph24.1 kmh 29.99 in1015.6 mb 1.35 in34.3 mm 0.00 in0.0 mm 1.35 in34.3 mm
04:52 AM 20.0°F-6.7°C 6.4°F-14.2°C 55% 10.0 mph WNW16.1 kmh WNW 15.0 mph24.1 kmh 29.99 in1015.6 mb 1.35 in34.3 mm 0.00 in0.0 mm 1.35 in34.3 mm
04:53 AM 20.0°F-6.7°C 6.4°F-14.2°C 55% 9.0 mph NW14.5 kmh NW 15.0 mph24.1 kmh 29.99 in1015.6 mb 1.35 in34.3 mm 0.00 in0.0 mm 1.35 in34.3 mm
04:54 AM 20.0°F-6.7°C 6.4°F-14.2°C 55% 9.0 mph NW14.5 kmh NW 15.0 mph24.1 kmh 29.99 in1015.6 mb 1.35 in34.3 mm 0.00 in0.0 mm 1.35 in34.3 mm
04:55 AM 19.8°F-6.8°C 5.8°F-14.6°C 54% 10.0 mph NW16.1 kmh NW 15.0 mph24.1 kmh 30.00 in1015.9 mb 1.35 in34.3 mm 0.00 in0.0 mm 1.35 in34.3 mm
04:56 AM 19.8°F-6.8°C 6.2°F-14.3°C 55% 6.0 mph ENE9.7 kmh ENE 15.0 mph24.1 kmh 29.99 in1015.6 mb 1.35 in34.3 mm 0.00 in0.0 mm 1.35 in34.3 mm
04:57 AM 19.8°F-6.8°C 6.6°F-14.1°C 56% 11.0 mph NW17.7 kmh NW 15.0 mph24.1 kmh 30.00 in1015.9 mb 1.35 in34.3 mm 0.00 in0.0 mm 1.35 in34.3 mm
04:58 AM 19.8°F-6.8°C 6.6°F-14.1°C 56% 8.0 mph NW12.9 kmh NW 15.0 mph24.1 kmh 29.99 in1015.6 mb 1.35 in34.3 mm 0.00 in0.0 mm 1.35 in34.3 mm
04:59 AM 19.8°F-6.8°C 6.6°F-14.1°C 56% 10.0 mph NW16.1 kmh NW 15.0 mph24.1 kmh 29.99 in1015.6 mb 1.35 in34.3 mm 0.00 in0.0 mm 1.35 in34.3 mm
05:00 AM 19.8°F-6.8°C 6.2°F-14.3°C 55% 7.0 mph NNW11.3 kmh NNW 15.0 mph24.1 kmh 29.99 in1015.6 mb 1.35 in34.3 mm 0.00 in0.0 mm 1.35 in34.3 mm
05:01 AM 19.8°F-6.8°C 6.6°F-14.1°C 56% 8.0 mph WNW12.9 kmh WNW 12.0 mph19.3 kmh 29.99 in1015.6 mb 1.35 in34.3 mm 0.00 in0.0 mm 1.35 in34.3 mm
05:02 AM 19.8°F-6.8°C 7.8°F-13.4°C 59% 8.0 mph NW12.9 kmh NW 11.0 mph17.7 kmh 29.99 in1015.6 mb 1.35 in34.3 mm 0.00 in0.0 mm 1.35 in34.3 mm
05:03 AM 19.8°F-6.8°C 7.4°F-13.7°C 58% 12.0 mph NNW19.3 kmh NNW 12.0 mph19.3 kmh 29.99 in1015.6 mb 1.35 in34.3 mm 0.00 in0.0 mm 1.35 in34.3 mm
05:04 AM 19.8°F-6.8°C 7.4°F-13.7°C 58% 10.0 mph NNW16.1 kmh NNW 12.0 mph19.3 kmh 29.99 in1015.6 mb 1.35 in34.3 mm 0.00 in0.0 mm 1.35 in34.3 mm
05:05 AM 19.8°F-6.8°C 7.4°F-13.7°C 58% 13.0 mph NW20.9 kmh NW 13.0 mph20.9 kmh 29.99 in1015.6 mb 1.35 in34.3 mm 0.00 in0.0 mm 1.35 in34.3 mm
05:06 AM 19.8°F-6.8°C 6.2°F-14.3°C 55% 8.0 mph NW12.9 kmh NW 13.0 mph20.9 kmh 30.00 in1015.9 mb 1.35 in34.3 mm 0.00 in0.0 mm 1.35 in34.3 mm
05:07 AM 19.8°F-6.8°C 6.6°F-14.1°C 56% 12.0 mph NW19.3 kmh NW 13.0 mph20.9 kmh 30.00 in1015.9 mb 1.35 in34.3 mm 0.00 in0.0 mm 1.35 in34.3 mm
05:08 AM 19.8°F-6.8°C 6.2°F-14.3°C 55% 13.0 mph NW20.9 kmh NW 13.0 mph20.9 kmh 30.00 in1015.9 mb 1.35 in34.3 mm 0.00 in0.0 mm 1.35 in34.3 mm
05:09 AM 19.8°F-6.8°C 6.2°F-14.3°C 55% 12.0 mph WNW19.3 kmh WNW 13.0 mph20.9 kmh 30.00 in1015.9 mb 1.35 in34.3 mm 0.00 in0.0 mm 1.35 in34.3 mm
05:10 AM 19.8°F-6.8°C 5.8°F-14.6°C 54% 9.0 mph NW14.5 kmh NW 13.0 mph20.9 kmh 30.00 in1015.9 mb 1.35 in34.3 mm 0.00 in0.0 mm 1.35 in34.3 mm
05:11 AM 19.8°F-6.8°C 6.2°F-14.3°C 55% 9.0 mph NNW14.5 kmh NNW 13.0 mph20.9 kmh 30.00 in1015.9 mb 1.35 in34.3 mm 0.00 in0.0 mm 1.35 in34.3 mm
05:12 AM 19.8°F-6.8°C 6.2°F-14.3°C 55% 8.0 mph NW12.9 kmh NW 13.0 mph20.9 kmh 30.00 in1015.9 mb 1.35 in34.3 mm 0.00 in0.0 mm 1.35 in34.3 mm
05:13 AM 19.7°F-6.8°C 6.1°F-14.4°C 55% 16.0 mph WNW25.7 kmh WNW 16.0 mph25.7 kmh 30.00 in1015.9 mb 1.35 in34.3 mm 0.00 in0.0 mm 1.35 in34.3 mm
05:14 AM 19.7°F-6.8°C 6.1°F-14.4°C 55% 12.0 mph WNW19.3 kmh WNW 16.0 mph25.7 kmh 30.00 in1015.9 mb 1.35 in34.3 mm 0.00 in0.0 mm 1.35 in34.3 mm
05:15 AM 19.7°F-6.8°C 6.1°F-14.4°C 55% 13.0 mph NW20.9 kmh NW 16.0 mph25.7 kmh 30.00 in1015.9 mb 1.35 in34.3 mm 0.00 in0.0 mm 1.35 in34.3 mm
05:16 AM 19.7°F-6.8°C 6.5°F-14.2°C 56% 9.0 mph NNW14.5 kmh NNW 16.0 mph25.7 kmh 30.00 in1015.9 mb 1.35 in34.3 mm 0.00 in0.0 mm 1.35 in34.3 mm
05:17 AM 19.7°F-6.8°C 6.1°F-14.4°C 55% 9.0 mph WNW14.5 kmh WNW 16.0 mph25.7 kmh 30.00 in1015.9 mb 1.35 in34.3 mm 0.00 in0.0 mm 1.35 in34.3 mm
05:18 AM 19.7°F-6.8°C 6.5°F-14.2°C 56% 13.0 mph WNW20.9 kmh WNW 16.0 mph25.7 kmh 30.00 in1015.9 mb 1.35 in34.3 mm 0.00 in0.0 mm 1.35 in34.3 mm
05:19 AM 19.7°F-6.8°C 6.1°F-14.4°C 55% 11.0 mph NW17.7 kmh NW 16.0 mph25.7 kmh 30.01 in1016.3 mb 1.35 in34.3 mm 0.00 in0.0 mm 1.35 in34.3 mm
05:20 AM 19.7°F-6.8°C 6.1°F-14.4°C 55% 10.0 mph NW16.1 kmh NW 16.0 mph25.7 kmh 30.00 in1015.9 mb 1.35 in34.3 mm 0.00 in0.0 mm 1.35 in34.3 mm
05:21 AM 19.7°F-6.8°C 7.3°F-13.7°C 58% 12.0 mph NNW19.3 kmh NNW 16.0 mph25.7 kmh 30.01 in1016.3 mb 1.35 in34.3 mm 0.00 in0.0 mm 1.35 in34.3 mm
05:22 AM 19.7°F-6.8°C 6.5°F-14.2°C 56% 12.0 mph NW19.3 kmh NW 16.0 mph25.7 kmh 30.00 in1015.9 mb 1.35 in34.3 mm 0.00 in0.0 mm 1.35 in34.3 mm
05:23 AM 19.7°F-6.8°C 6.1°F-14.4°C 55% 10.0 mph WNW16.1 kmh WNW 15.0 mph24.1 kmh 30.00 in1015.9 mb 1.35 in34.3 mm 0.00 in0.0 mm 1.35 in34.3 mm
05:24 AM 19.7°F-6.8°C 6.1°F-14.4°C 55% 10.0 mph NNW16.1 kmh NNW 15.0 mph24.1 kmh 30.00 in1015.9 mb 1.35 in34.3 mm 0.00 in0.0 mm 1.35 in34.3 mm
05:25 AM 19.6°F-6.9°C 6.0°F-14.4°C 55% 12.0 mph NW19.3 kmh NW 15.0 mph24.1 kmh 30.00 in1015.9 mb 1.35 in34.3 mm 0.00 in0.0 mm 1.35 in34.3 mm
05:26 AM 19.6°F-6.9°C 6.0°F-14.4°C 55% 13.0 mph WNW20.9 kmh WNW 15.0 mph24.1 kmh 30.00 in1015.9 mb 1.35 in34.3 mm 0.00 in0.0 mm 1.35 in34.3 mm
05:27 AM 19.6°F-6.9°C 6.0°F-14.4°C 55% 11.0 mph NNW17.7 kmh NNW 16.0 mph25.7 kmh 30.00 in1015.9 mb 1.35 in34.3 mm 0.00 in0.0 mm 1.35 in34.3 mm
05:28 AM 19.6°F-6.9°C 6.4°F-14.2°C 56% 9.0 mph NW14.5 kmh NW 16.0 mph25.7 kmh 30.00 in1015.9 mb 1.35 in34.3 mm 0.00 in0.0 mm 1.35 in34.3 mm
05:29 AM 19.6°F-6.9°C 6.0°F-14.4°C 55% 15.0 mph NW24.1 kmh NW 16.0 mph25.7 kmh 30.00 in1015.9 mb 1.35 in34.3 mm 0.00 in0.0 mm 1.35 in34.3 mm
05:30 AM 19.6°F-6.9°C 6.4°F-14.2°C 56% 16.0 mph NNW25.7 kmh NNW 16.0 mph25.7 kmh 30.00 in1015.9 mb 1.35 in34.3 mm 0.00 in0.0 mm 1.35 in34.3 mm
05:31 AM 19.6°F-6.9°C 6.0°F-14.4°C 55% 13.0 mph NNW20.9 kmh NNW 16.0 mph25.7 kmh 30.01 in1016.3 mb 1.35 in34.3 mm 0.00 in0.0 mm 1.35 in34.3 mm
05:32 AM 19.6°F-6.9°C 6.0°F-14.4°C 55% 11.0 mph WNW17.7 kmh WNW 16.0 mph25.7 kmh 30.00 in1015.9 mb 1.35 in34.3 mm 0.00 in0.0 mm 1.35 in34.3 mm
05:33 AM 19.6°F-6.9°C 6.4°F-14.2°C 56% 10.0 mph NW16.1 kmh NW 16.0 mph25.7 kmh 30.01 in1016.3 mb 1.35 in34.3 mm 0.00 in0.0 mm 1.35 in34.3 mm
05:34 AM 19.3°F-7.1°C 5.8°F-14.6°C 55% 11.0 mph NW17.7 kmh NW 16.0 mph25.7 kmh 30.01 in1016.3 mb 1.35 in34.3 mm 0.00 in0.0 mm 1.35 in34.3 mm
05:35 AM 19.3°F-7.1°C 5.8°F-14.6°C 55% 12.0 mph NW19.3 kmh NW 16.0 mph25.7 kmh 30.01 in1016.3 mb 1.35 in34.3 mm 0.00 in0.0 mm 1.35 in34.3 mm
05:36 AM 19.6°F-6.9°C 6.0°F-14.4°C 55% 13.0 mph NW20.9 kmh NW 16.0 mph25.7 kmh 30.01 in1016.3 mb 1.35 in34.3 mm 0.00 in0.0 mm 1.35 in34.3 mm
05:37 AM 19.6°F-6.9°C 6.4°F-14.2°C 56% 13.0 mph NW20.9 kmh NW 16.0 mph25.7 kmh 30.01 in1016.3 mb 1.35 in34.3 mm 0.00 in0.0 mm 1.35 in34.3 mm
05:38 AM 19.6°F-6.9°C 6.4°F-14.2°C 56% 13.0 mph NW20.9 kmh NW 16.0 mph25.7 kmh 30.01 in1016.3 mb 1.35 in34.3 mm 0.00 in0.0 mm 1.35 in34.3 mm
05:39 AM 19.6°F-6.9°C 6.0°F-14.4°C 55% 12.0 mph WNW19.3 kmh WNW 16.0 mph25.7 kmh 30.01 in1016.3 mb 1.35 in34.3 mm 0.00 in0.0 mm 1.35 in34.3 mm
05:40 AM 19.6°F-6.9°C 6.0°F-14.4°C 55% 9.0 mph NW14.5 kmh NW 16.0 mph25.7 kmh 30.01 in1016.3 mb 1.35 in34.3 mm 0.00 in0.0 mm 1.35 in34.3 mm
05:41 AM 19.6°F-6.9°C 7.2°F-13.8°C 58% 12.0 mph NW19.3 kmh NW 13.0 mph20.9 kmh 30.01 in1016.3 mb 1.35 in34.3 mm 0.00 in0.0 mm 1.35 in34.3 mm
05:42 AM 19.6°F-6.9°C 7.6°F-13.6°C 59% 12.0 mph NW19.3 kmh NW 13.0 mph20.9 kmh 30.01 in1016.3 mb 1.35 in34.3 mm 0.00 in0.0 mm 1.35 in34.3 mm
05:43 AM 19.6°F-6.9°C 7.2°F-13.8°C 58% 10.0 mph NW16.1 kmh NW 13.0 mph20.9 kmh 30.01 in1016.3 mb 1.35 in34.3 mm 0.00 in0.0 mm 1.35 in34.3 mm
05:44 AM 19.6°F-6.9°C 7.6°F-13.6°C 59% 10.0 mph WNW16.1 kmh WNW 13.0 mph20.9 kmh 30.01 in1016.3 mb 1.35 in34.3 mm 0.00 in0.0 mm 1.35 in34.3 mm
05:45 AM 19.6°F-6.9°C 6.4°F-14.2°C 56% 10.0 mph WNW16.1 kmh WNW 13.0 mph20.9 kmh 30.01 in1016.3 mb 1.35 in34.3 mm 0.00 in0.0 mm 1.35 in34.3 mm
05:46 AM 19.6°F-6.9°C 6.4°F-14.2°C 56% 7.0 mph NW11.3 kmh NW 13.0 mph20.9 kmh 30.01 in1016.3 mb 1.35 in34.3 mm 0.00 in0.0 mm 1.35 in34.3 mm
05:47 AM 19.6°F-6.9°C 7.2°F-13.8°C 58% 7.0 mph NW11.3 kmh NW 13.0 mph20.9 kmh 30.01 in1016.3 mb 1.35 in34.3 mm 0.00 in0.0 mm 1.35 in34.3 mm
05:48 AM 19.6°F-6.9°C 7.6°F-13.6°C 59% 9.0 mph NW14.5 kmh NW 13.0 mph20.9 kmh 30.01 in1016.3 mb 1.35 in34.3 mm 0.00 in0.0 mm 1.35 in34.3 mm
05:49 AM 19.3°F-7.1°C 6.2°F-14.3°C 56% 10.0 mph NW16.1 kmh NW 13.0 mph20.9 kmh 30.01 in1016.3 mb 1.35 in34.3 mm 0.00 in0.0 mm 1.35 in34.3 mm
05:50 AM 19.3°F-7.1°C 6.2°F-14.3°C 56% 11.0 mph NW17.7 kmh NW 15.0 mph24.1 kmh 30.01 in1016.3 mb 1.35 in34.3 mm 0.00 in0.0 mm 1.35 in34.3 mm
05:51 AM 19.3°F-7.1°C 5.8°F-14.6°C 55% 10.0 mph NNW16.1 kmh NNW 15.0 mph24.1 kmh 30.02 in1016.6 mb 1.35 in34.3 mm 0.00 in0.0 mm 1.35 in34.3 mm
05:52 AM 19.3°F-7.1°C 6.2°F-14.3°C 56% 8.0 mph NNW12.9 kmh NNW 15.0 mph24.1 kmh 30.02 in1016.6 mb 1.35 in34.3 mm 0.00 in0.0 mm 1.35 in34.3 mm
05:53 AM 19.3°F-7.1°C 6.9°F-13.9°C 58% 12.0 mph NW19.3 kmh NW 15.0 mph24.1 kmh 30.02 in1016.6 mb 1.35 in34.3 mm 0.00 in0.0 mm 1.35 in34.3 mm
05:54 AM 19.2°F-7.1°C 6.1°F-14.4°C 56% 9.0 mph NNE14.5 kmh NNE 15.0 mph24.1 kmh 30.02 in1016.6 mb 1.35 in34.3 mm 0.00 in0.0 mm 1.35 in34.3 mm
05:55 AM 19.2°F-7.1°C 6.9°F-13.9°C 58% 9.0 mph NNW14.5 kmh NNW 15.0 mph24.1 kmh 30.02 in1016.6 mb 1.35 in34.3 mm 0.00 in0.0 mm 1.35 in34.3 mm
05:56 AM 19.2°F-7.1°C 5.7°F-14.6°C 55% 11.0 mph NNW17.7 kmh NNW 15.0 mph24.1 kmh 30.02 in1016.6 mb 1.35 in34.3 mm 0.00 in0.0 mm 1.35 in34.3 mm
05:57 AM 19.2°F-7.1°C 5.7°F-14.6°C 55% 11.0 mph NNW17.7 kmh NNW 15.0 mph24.1 kmh 30.01 in1016.3 mb 1.35 in34.3 mm 0.00 in0.0 mm 1.35 in34.3 mm
05:58 AM 19.2°F-7.1°C 6.1°F-14.4°C 56% 9.0 mph WNW14.5 kmh WNW 15.0 mph24.1 kmh 30.01 in1016.3 mb 1.35 in34.3 mm 0.00 in0.0 mm 1.35 in34.3 mm
05:59 AM 19.2°F-7.1°C 6.9°F-13.9°C 58% 8.0 mph 12.9 kmh 15.0 mph24.1 kmh 30.02 in1016.6 mb 1.35 in34.3 mm 0.00 in0.0 mm 1.35 in34.3 mm
06:00 AM 19.2°F-7.1°C 7.2°F-13.8°C 59% 9.0 mph NW14.5 kmh NW 14.0 mph22.5 kmh 30.02 in1016.6 mb 1.35 in34.3 mm 0.00 in0.0 mm 1.35 in34.3 mm
06:01 AM 19.2°F-7.1°C 6.9°F-13.9°C 58% 7.0 mph NW11.3 kmh NW 14.0 mph22.5 kmh 30.02 in1016.6 mb 1.35 in34.3 mm 0.00 in0.0 mm 1.35 in34.3 mm
06:02 AM 19.2°F-7.1°C 6.9°F-13.9°C 58% 9.0 mph WNW14.5 kmh WNW 14.0 mph22.5 kmh 30.02 in1016.6 mb 1.35 in34.3 mm 0.00 in0.0 mm 1.35 in34.3 mm
06:03 AM 19.0°F-7.2°C 5.9°F-14.5°C 56% 10.0 mph NNW16.1 kmh NNW 14.0 mph22.5 kmh 30.02 in1016.6 mb 1.35 in34.3 mm 0.00 in0.0 mm 1.35 in34.3 mm
06:04 AM 19.0°F-7.2°C 5.9°F-14.5°C 56% 9.0 mph NW14.5 kmh NW 14.0 mph22.5 kmh 30.02 in1016.6 mb 1.35 in34.3 mm 0.00 in0.0 mm 1.35 in34.3 mm
06:05 AM 19.0°F-7.2°C 6.7°F-14.1°C 58% 7.0 mph NNW11.3 kmh NNW 14.0 mph22.5 kmh 30.02 in1016.6 mb 1.35 in34.3 mm 0.00 in0.0 mm 1.35 in34.3 mm
06:06 AM 19.0°F-7.2°C 6.7°F-14.1°C 58% 9.0 mph NNW14.5 kmh NNW 14.0 mph22.5 kmh 30.02 in1016.6 mb 1.35 in34.3 mm 0.00 in0.0 mm 1.35 in34.3 mm
06:07 AM 19.0°F-7.2°C 5.5°F-14.7°C 55% 8.0 mph NW12.9 kmh NW 11.0 mph17.7 kmh 30.02 in1016.6 mb 1.35 in34.3 mm 0.00 in0.0 mm 1.35 in34.3 mm
06:08 AM 19.0°F-7.2°C 7.0°F-13.9°C 59% 9.0 mph NW14.5 kmh NW 10.0 mph16.1 kmh 30.02 in1016.6 mb 1.35 in34.3 mm 0.00 in0.0 mm 1.35 in34.3 mm
06:09 AM 19.0°F-7.2°C 7.0°F-13.9°C 59% 7.0 mph NW11.3 kmh NW 10.0 mph16.1 kmh 30.02 in1016.6 mb 1.35 in34.3 mm 0.00 in0.0 mm 1.35 in34.3 mm
06:10 AM 19.0°F-7.2°C 7.0°F-13.9°C 59% 10.0 mph NW16.1 kmh NW 10.0 mph16.1 kmh 30.02 in1016.6 mb 1.35 in34.3 mm 0.00 in0.0 mm 1.35 in34.3 mm
06:11 AM 19.0°F-7.2°C 6.7°F-14.1°C 58% 11.0 mph NNW17.7 kmh NNW 11.0 mph17.7 kmh 30.02 in1016.6 mb 1.35 in34.3 mm 0.00 in0.0 mm 1.35 in34.3 mm
06:12 AM 19.0°F-7.2°C 5.5°F-14.7°C 55% 6.0 mph NW9.7 kmh NW 14.0 mph22.5 kmh 30.02 in1016.6 mb 1.35 in34.3 mm 0.00 in0.0 mm 1.35 in34.3 mm
06:13 AM 18.8°F-7.3°C 5.3°F-14.8°C 55% 9.0 mph NNW14.5 kmh NNW 14.0 mph22.5 kmh 30.02 in1016.6 mb 1.35 in34.3 mm 0.00 in0.0 mm 1.35 in34.3 mm
06:14 AM 18.8°F-7.3°C 6.5°F-14.2°C 58% 11.0 mph 17.7 kmh 14.0 mph22.5 kmh 30.02 in1016.6 mb 1.35 in34.3 mm 0.00 in0.0 mm 1.35 in34.3 mm
06:15 AM 18.8°F-7.3°C 5.3°F-14.8°C 55% 12.0 mph NW19.3 kmh NW 14.0 mph22.5 kmh 30.02 in1016.6 mb 1.35 in34.3 mm 0.00 in0.0 mm 1.35 in34.3 mm
06:16 AM 18.7°F-7.4°C 5.2°F-14.9°C 55% 7.0 mph NW11.3 kmh NW 14.0 mph22.5 kmh 30.02 in1016.6 mb 1.35 in34.3 mm 0.00 in0.0 mm 1.35 in34.3 mm
06:17 AM 18.7°F-7.4°C 5.6°F-14.7°C 56% 8.0 mph NW12.9 kmh NW 14.0 mph22.5 kmh 30.02 in1016.6 mb 1.35 in34.3 mm 0.00 in0.0 mm 1.35 in34.3 mm
06:18 AM 18.7°F-7.4°C 6.4°F-14.2°C 58% 12.0 mph NW19.3 kmh NW 14.0 mph22.5 kmh 30.02 in1016.6 mb 1.35 in34.3 mm 0.00 in0.0 mm 1.35 in34.3 mm
06:19 AM 18.7°F-7.4°C 6.4°F-14.2°C 58% 10.0 mph NW16.1 kmh NW 14.0 mph22.5 kmh 30.03 in1016.9 mb 1.35 in34.3 mm 0.00 in0.0 mm 1.35 in34.3 mm
06:20 AM 18.7°F-7.4°C 5.2°F-14.9°C 55% 9.0 mph NW14.5 kmh NW 14.0 mph22.5 kmh 30.03 in1016.9 mb 1.35 in34.3 mm 0.00 in0.0 mm 1.35 in34.3 mm
06:21 AM 18.7°F-7.4°C 5.2°F-14.9°C 55% 9.0 mph NW14.5 kmh NW 14.0 mph22.5 kmh 30.03 in1016.9 mb 1.35 in34.3 mm 0.00 in0.0 mm 1.35 in34.3 mm
06:22 AM 18.7°F-7.4°C 5.2°F-14.9°C 55% 10.0 mph NW16.1 kmh NW 12.0 mph19.3 kmh 30.02 in1016.6 mb 1.35 in34.3 mm 0.00 in0.0 mm 1.35 in34.3 mm
06:23 AM 18.7°F-7.4°C 6.4°F-14.2°C 58% 10.0 mph NW16.1 kmh NW 12.0 mph19.3 kmh 30.03 in1016.9 mb 1.35 in34.3 mm 0.00 in0.0 mm 1.35 in34.3 mm
06:24 AM 18.7°F-7.4°C 5.6°F-14.7°C 56% 10.0 mph WNW16.1 kmh WNW 12.0 mph19.3 kmh 30.03 in1016.9 mb 1.35 in34.3 mm 0.00 in0.0 mm 1.35 in34.3 mm
06:25 AM 18.7°F-7.4°C 5.2°F-14.9°C 55% 11.0 mph NW17.7 kmh NW 12.0 mph19.3 kmh 30.03 in1016.9 mb 1.35 in34.3 mm 0.00 in0.0 mm 1.35 in34.3 mm
06:26 AM 18.7°F-7.4°C 5.2°F-14.9°C 55% 8.0 mph NW12.9 kmh NW 12.0 mph19.3 kmh 30.03 in1016.9 mb 1.35 in34.3 mm 0.00 in0.0 mm 1.35 in34.3 mm
06:27 AM 18.7°F-7.4°C 5.6°F-14.7°C 56% 11.0 mph NW17.7 kmh NW 12.0 mph19.3 kmh 30.04 in1017.3 mb 1.35 in34.3 mm 0.00 in0.0 mm 1.35 in34.3 mm
06:28 AM 18.7°F-7.4°C 5.6°F-14.7°C 56% 8.0 mph NW12.9 kmh NW 12.0 mph19.3 kmh 30.03 in1016.9 mb 1.35 in34.3 mm 0.00 in0.0 mm 1.35 in34.3 mm
06:29 AM 18.7°F-7.4°C 5.6°F-14.7°C 56% 7.0 mph NW11.3 kmh NW 12.0 mph19.3 kmh 30.03 in1016.9 mb 1.35 in34.3 mm 0.00 in0.0 mm 1.35 in34.3 mm
06:30 AM 18.7°F-7.4°C 5.2°F-14.9°C 55% 7.0 mph NW11.3 kmh NW 12.0 mph19.3 kmh 30.03 in1016.9 mb 1.35 in34.3 mm 0.00 in0.0 mm 1.35 in34.3 mm
06:31 AM 18.7°F-7.4°C 5.2°F-14.9°C 55% 5.0 mph NW8.0 kmh NW 12.0 mph19.3 kmh 30.03 in1016.9 mb 1.35 in34.3 mm 0.00 in0.0 mm 1.35 in34.3 mm
06:32 AM 18.7°F-7.4°C 6.8°F-14.0°C 59% 10.0 mph NW16.1 kmh NW 12.0 mph19.3 kmh 30.03 in1016.9 mb 1.35 in34.3 mm 0.00 in0.0 mm 1.35 in34.3 mm
06:33 AM 18.7°F-7.4°C 5.6°F-14.7°C 56% 8.0 mph NNW12.9 kmh NNW 15.0 mph24.1 kmh 30.03 in1016.9 mb 1.35 in34.3 mm 0.00 in0.0 mm 1.35 in34.3 mm
06:34 AM 18.7°F-7.4°C 6.4°F-14.2°C 58% 10.0 mph NW16.1 kmh NW 15.0 mph24.1 kmh 30.03 in1016.9 mb 1.35 in34.3 mm 0.00 in0.0 mm 1.35 in34.3 mm
06:35 AM 18.7°F-7.4°C 5.2°F-14.9°C 55% 8.0 mph NW12.9 kmh NW 15.0 mph24.1 kmh 30.03 in1016.9 mb 1.35 in34.3 mm 0.00 in0.0 mm 1.35 in34.3 mm
06:36 AM 18.7°F-7.4°C 5.2°F-14.9°C 55% 10.0 mph NW16.1 kmh NW 15.0 mph24.1 kmh 30.03 in1016.9 mb 1.35 in34.3 mm 0.00 in0.0 mm 1.35 in34.3 mm
06:37 AM 18.7°F-7.4°C 5.6°F-14.7°C 56% 11.0 mph NW17.7 kmh NW 15.0 mph24.1 kmh 30.03 in1016.9 mb 1.35 in34.3 mm 0.00 in0.0 mm 1.35 in34.3 mm
06:38 AM 18.5°F-7.5°C 5.0°F-15.0°C 55% 8.0 mph NW12.9 kmh NW 15.0 mph24.1 kmh 30.03 in1016.9 mb 1.35 in34.3 mm 0.00 in0.0 mm 1.35 in34.3 mm
06:39 AM 18.2°F-7.7°C 4.7°F-15.2°C 55% 7.0 mph WNW11.3 kmh WNW 15.0 mph24.1 kmh 30.04 in1017.3 mb 1.35 in34.3 mm 0.00 in0.0 mm 1.35 in34.3 mm
06:40 AM 18.2°F-7.7°C 4.7°F-15.2°C 55% 10.0 mph NW16.1 kmh NW 15.0 mph24.1 kmh 30.03 in1016.9 mb 1.35 in34.3 mm 0.00 in0.0 mm 1.35 in34.3 mm
06:41 AM 18.2°F-7.7°C 4.7°F-15.2°C 55% 12.0 mph NW19.3 kmh NW 15.0 mph24.1 kmh 30.04 in1017.3 mb 1.35 in34.3 mm 0.00 in0.0 mm 1.35 in34.3 mm
06:42 AM 18.2°F-7.7°C 5.1°F-14.9°C 56% 11.0 mph NW17.7 kmh NW 15.0 mph24.1 kmh 30.03 in1016.9 mb 1.35 in34.3 mm 0.00 in0.0 mm 1.35 in34.3 mm
06:43 AM 18.2°F-7.7°C 5.1°F-14.9°C 56% 9.0 mph NNW14.5 kmh NNW 13.0 mph20.9 kmh 30.04 in1017.3 mb 1.35 in34.3 mm 0.00 in0.0 mm 1.35 in34.3 mm
06:44 AM 18.2°F-7.7°C 5.9°F-14.5°C 58% 13.0 mph NW20.9 kmh NW 13.0 mph20.9 kmh 30.03 in1016.9 mb 1.35 in34.3 mm 0.00 in0.0 mm 1.35 in34.3 mm
06:45 AM 18.2°F-7.7°C 4.7°F-15.2°C 55% 9.0 mph NW14.5 kmh NW 13.0 mph20.9 kmh 30.03 in1016.9 mb 1.35 in34.3 mm 0.00 in0.0 mm 1.35 in34.3 mm
06:46 AM 18.2°F-7.7°C 5.9°F-14.5°C 58% 12.0 mph NW19.3 kmh NW 13.0 mph20.9 kmh 30.03 in1016.9 mb 1.35 in34.3 mm 0.00 in0.0 mm 1.35 in34.3 mm
06:47 AM 18.5°F-7.5°C 6.6°F-14.1°C 59% 10.0 mph WNW16.1 kmh WNW 13.0 mph20.9 kmh 30.04 in1017.3 mb 1.35 in34.3 mm 0.00 in0.0 mm 1.35 in34.3 mm
06:48 AM 18.5°F-7.5°C 6.6°F-14.1°C 59% 9.0 mph NW14.5 kmh NW 13.0 mph20.9 kmh 30.04 in1017.3 mb 1.35 in34.3 mm 0.00 in0.0 mm 1.35 in34.3 mm
06:49 AM 18.5°F-7.5°C 6.2°F-14.3°C 58% 14.0 mph WNW22.5 kmh WNW 14.0 mph22.5 kmh 30.04 in1017.3 mb 1.35 in34.3 mm 0.00 in0.0 mm 1.35 in34.3 mm
06:50 AM 18.5°F-7.5°C 6.2°F-14.3°C 58% 12.0 mph WNW19.3 kmh WNW 14.0 mph22.5 kmh 30.04 in1017.3 mb 1.35 in34.3 mm 0.00 in0.0 mm 1.35 in34.3 mm
06:51 AM 18.5°F-7.5°C 6.2°F-14.3°C 58% 8.0 mph WNW12.9 kmh WNW 14.0 mph22.5 kmh 30.05 in1017.6 mb 1.35 in34.3 mm 0.00 in0.0 mm 1.35 in34.3 mm
06:52 AM 18.5°F-7.5°C 7.0°F-13.9°C 60% 8.0 mph NW12.9 kmh NW 14.0 mph22.5 kmh 30.04 in1017.3 mb 1.35 in34.3 mm 0.00 in0.0 mm 1.35 in34.3 mm
06:53 AM 18.5°F-7.5°C 7.3°F-13.7°C 61% 6.0 mph W9.7 kmh W 14.0 mph22.5 kmh 30.05 in1017.6 mb 1.35 in34.3 mm 0.00 in0.0 mm 1.35 in34.3 mm
06:54 AM 18.7°F-7.4°C 7.5°F-13.6°C 61% 9.0 mph NW14.5 kmh NW 14.0 mph22.5 kmh 30.05 in1017.6 mb 1.35 in34.3 mm 0.00 in0.0 mm 1.35 in34.3 mm
06:55 AM 18.7°F-7.4°C 5.6°F-14.7°C 56% 7.0 mph NW11.3 kmh NW 14.0 mph22.5 kmh 30.05 in1017.6 mb 1.35 in34.3 mm 0.00 in0.0 mm 1.35 in34.3 mm
06:56 AM 18.5°F-7.5°C 5.4°F-14.8°C 56% 8.0 mph NW12.9 kmh NW 14.0 mph22.5 kmh 30.04 in1017.3 mb 1.35 in34.3 mm 0.00 in0.0 mm 1.35 in34.3 mm
06:57 AM 18.5°F-7.5°C 5.4°F-14.8°C 56% 7.0 mph WNW11.3 kmh WNW 14.0 mph22.5 kmh 30.05 in1017.6 mb 1.35 in34.3 mm 0.00 in0.0 mm 1.35 in34.3 mm
06:58 AM 18.5°F-7.5°C 5.4°F-14.8°C 56% 7.0 mph NNW11.3 kmh NNW 14.0 mph22.5 kmh 30.04 in1017.3 mb 1.35 in34.3 mm 0.00 in0.0 mm 1.35 in34.3 mm
06:59 AM 18.5°F-7.5°C 7.0°F-13.9°C 60% 5.0 mph NW8.0 kmh NW 12.0 mph19.3 kmh 30.04 in1017.3 mb 1.35 in34.3 mm 0.00 in0.0 mm 1.35 in34.3 mm
07:00 AM 18.5°F-7.5°C 7.0°F-13.9°C 60% 6.0 mph NW9.7 kmh NW 12.0 mph19.3 kmh 30.04 in1017.3 mb 1.35 in34.3 mm 0.00 in0.0 mm 1.35 in34.3 mm
07:01 AM 18.5°F-7.5°C 7.3°F-13.7°C 61% 8.0 mph NW12.9 kmh NW 9.0 mph14.5 kmh 30.04 in1017.3 mb 1.35 in34.3 mm 0.00 in0.0 mm 1.35 in34.3 mm
07:02 AM 18.5°F-7.5°C 7.3°F-13.7°C 61% 8.0 mph NW12.9 kmh NW 9.0 mph14.5 kmh 30.05 in1017.6 mb 1.35 in34.3 mm 0.00 in0.0 mm 1.35 in34.3 mm
07:03 AM 18.5°F-7.5°C 6.6°F-14.1°C 59% 7.0 mph WNW11.3 kmh WNW 9.0 mph14.5 kmh 30.05 in1017.6 mb 1.35 in34.3 mm 0.00 in0.0 mm 1.35 in34.3 mm
07:04 AM 18.2°F-7.7°C 5.1°F-14.9°C 56% 8.0 mph NW12.9 kmh NW 9.0 mph14.5 kmh 30.05 in1017.6 mb 1.35 in34.3 mm 0.00 in0.0 mm 1.35 in34.3 mm
07:05 AM 18.2°F-7.7°C 5.9°F-14.5°C 58% 8.0 mph NW12.9 kmh NW 9.0 mph14.5 kmh 30.05 in1017.6 mb 1.35 in34.3 mm 0.00 in0.0 mm 1.35 in34.3 mm
07:06 AM 18.2°F-7.7°C 5.9°F-14.5°C 58% 8.0 mph NNW12.9 kmh NNW 10.0 mph16.1 kmh 30.05 in1017.6 mb 1.35 in34.3 mm 0.00 in0.0 mm 1.35 in34.3 mm
07:07 AM 18.2°F-7.7°C 5.9°F-14.5°C 58% 5.0 mph NW8.0 kmh NW 10.0 mph16.1 kmh 30.05 in1017.6 mb 1.35 in34.3 mm 0.00 in0.0 mm 1.35 in34.3 mm
07:08 AM 18.2°F-7.7°C 5.1°F-14.9°C 56% 7.0 mph WNW11.3 kmh WNW 10.0 mph16.1 kmh 30.05 in1017.6 mb 1.35 in34.3 mm 0.00 in0.0 mm 1.35 in34.3 mm
07:09 AM 18.1°F-7.7°C 5.0°F-15.0°C 56% 9.0 mph NW14.5 kmh NW 10.0 mph16.1 kmh 30.05 in1017.6 mb 1.35 in34.3 mm 0.00 in0.0 mm 1.35 in34.3 mm
07:10 AM 18.1°F-7.7°C 4.6°F-15.2°C 55% 6.0 mph WNW9.7 kmh WNW 10.0 mph16.1 kmh 30.05 in1017.6 mb 1.35 in34.3 mm 0.00 in0.0 mm 1.35 in34.3 mm
07:11 AM 17.9°F-7.8°C 4.4°F-15.3°C 55% 8.0 mph WNW12.9 kmh WNW 10.0 mph16.1 kmh 30.05 in1017.6 mb 1.35 in34.3 mm 0.00 in0.0 mm 1.35 in34.3 mm
07:12 AM 17.9°F-7.8°C 4.4°F-15.3°C 55% 9.0 mph WNW14.5 kmh WNW 10.0 mph16.1 kmh 30.05 in1017.6 mb 1.35 in34.3 mm 0.00 in0.0 mm 1.35 in34.3 mm
07:13 AM 17.9°F-7.8°C 4.8°F-15.1°C 56% 8.0 mph NW12.9 kmh NW 10.0 mph16.1 kmh 30.05 in1017.6 mb 1.35 in34.3 mm 0.00 in0.0 mm 1.35 in34.3 mm
07:14 AM 17.9°F-7.8°C 4.8°F-15.1°C 56% 7.0 mph NW11.3 kmh NW 10.0 mph16.1 kmh 30.04 in1017.3 mb 1.35 in34.3 mm 0.00 in0.0 mm 1.35 in34.3 mm
07:15 AM 17.9°F-7.8°C 4.8°F-15.1°C 56% 7.0 mph 11.3 kmh 11.0 mph17.7 kmh 30.05 in1017.6 mb 1.35 in34.3 mm 0.00 in0.0 mm 1.35 in34.3 mm
07:16 AM 18.1°F-7.7°C 6.6°F-14.1°C 60% 9.0 mph NNW14.5 kmh NNW 11.0 mph17.7 kmh 30.05 in1017.6 mb 1.35 in34.3 mm 0.00 in0.0 mm 1.35 in34.3 mm
07:17 AM 18.1°F-7.7°C 5.8°F-14.6°C 58% 9.0 mph NW14.5 kmh NW 11.0 mph17.7 kmh 30.05 in1017.6 mb 1.35 in34.3 mm 0.00 in0.0 mm 1.35 in34.3 mm
07:18 AM 18.1°F-7.7°C 5.0°F-15.0°C 56% 8.0 mph NW12.9 kmh NW 11.0 mph17.7 kmh 30.04 in1017.3 mb 1.35 in34.3 mm 0.00 in0.0 mm 1.35 in34.3 mm
07:19 AM 18.1°F-7.7°C 5.0°F-15.0°C 56% 9.0 mph NW14.5 kmh NW 11.0 mph17.7 kmh 30.04 in1017.3 mb 1.35 in34.3 mm 0.00 in0.0 mm 1.35 in34.3 mm
07:20 AM 17.9°F-7.8°C 4.4°F-15.3°C 55% 7.0 mph WNW11.3 kmh WNW 11.0 mph17.7 kmh 30.04 in1017.3 mb 1.35 in34.3 mm 0.00 in0.0 mm 1.35 in34.3 mm
07:21 AM 17.9°F-7.8°C 4.4°F-15.3°C 55% 9.0 mph NW14.5 kmh NW 11.0 mph17.7 kmh 30.05 in1017.6 mb 1.35 in34.3 mm 0.00 in0.0 mm 1.35 in34.3 mm
07:22 AM 17.9°F-7.8°C 4.4°F-15.3°C 55% 11.0 mph NW17.7 kmh NW 11.0 mph17.7 kmh 30.05 in1017.6 mb 1.35 in34.3 mm 0.00 in0.0 mm 1.35 in34.3 mm
07:23 AM 17.9°F-7.8°C 5.6°F-14.7°C 58% 7.0 mph NW11.3 kmh NW 11.0 mph17.7 kmh 30.05 in1017.6 mb 1.35 in34.3 mm 0.00 in0.0 mm 1.35 in34.3 mm
07:24 AM 18.1°F-7.7°C 6.6°F-14.1°C 60% 6.0 mph NW9.7 kmh NW 11.0 mph17.7 kmh 30.04 in1017.3 mb 1.35 in34.3 mm 0.00 in0.0 mm 1.35 in34.3 mm
07:25 AM 18.1°F-7.7°C 5.8°F-14.6°C 58% 5.0 mph WNW8.0 kmh WNW 11.0 mph17.7 kmh 30.05 in1017.6 mb 1.35 in34.3 mm 0.00 in0.0 mm 1.35 in34.3 mm
07:26 AM 18.1°F-7.7°C 5.8°F-14.6°C 58% 8.0 mph NNW12.9 kmh NNW 11.0 mph17.7 kmh 30.05 in1017.6 mb 1.35 in34.3 mm 0.00 in0.0 mm 1.35 in34.3 mm
07:27 AM 18.1°F-7.7°C 5.0°F-15.0°C 56% 6.0 mph NW9.7 kmh NW 11.0 mph17.7 kmh 30.05 in1017.6 mb 1.35 in34.3 mm 0.00 in0.0 mm 1.35 in34.3 mm
07:28 AM 18.1°F-7.7°C 5.0°F-15.0°C 56% 7.0 mph NW11.3 kmh NW 11.0 mph17.7 kmh 30.05 in1017.6 mb 1.35 in34.3 mm 0.00 in0.0 mm 1.35 in34.3 mm
07:29 AM 17.9°F-7.8°C 4.8°F-15.1°C 56% 6.0 mph NW9.7 kmh NW 11.0 mph17.7 kmh 30.05 in1017.6 mb 1.35 in34.3 mm 0.00 in0.0 mm 1.35 in34.3 mm
07:30 AM 17.9°F-7.8°C 6.0°F-14.4°C 59% 7.0 mph NW11.3 kmh NW 11.0 mph17.7 kmh 30.05 in1017.6 mb 1.35 in34.3 mm 0.00 in0.0 mm 1.35 in34.3 mm
07:31 AM 17.9°F-7.8°C 5.6°F-14.7°C 58% 6.0 mph WNW9.7 kmh WNW 11.0 mph17.7 kmh 30.05 in1017.6 mb 1.35 in34.3 mm 0.00 in0.0 mm 1.35 in34.3 mm
07:32 AM 17.9°F-7.8°C 5.6°F-14.7°C 58% 6.0 mph NW9.7 kmh NW 10.0 mph16.1 kmh 30.05 in1017.6 mb 1.35 in34.3 mm 0.00 in0.0 mm 1.35 in34.3 mm
07:33 AM 17.9°F-7.8°C 6.4°F-14.2°C 60% 7.0 mph NW11.3 kmh NW 8.0 mph12.9 kmh 30.05 in1017.6 mb 1.35 in34.3 mm 0.00 in0.0 mm 1.35 in34.3 mm
07:34 AM 17.9°F-7.8°C 6.0°F-14.4°C 59% 6.0 mph WNW9.7 kmh WNW 8.0 mph12.9 kmh 30.05 in1017.6 mb 1.35 in34.3 mm 0.00 in0.0 mm 1.35 in34.3 mm
07:35 AM 17.9°F-7.8°C 5.6°F-14.7°C 58% 7.0 mph NW11.3 kmh NW 8.0 mph12.9 kmh 30.05 in1017.6 mb 1.35 in34.3 mm 0.00 in0.0 mm 1.35 in34.3 mm
07:36 AM 17.9°F-7.8°C 5.6°F-14.7°C 58% 8.0 mph NW12.9 kmh NW 8.0 mph12.9 kmh 30.05 in1017.6 mb 1.35 in34.3 mm 0.00 in0.0 mm 1.35 in34.3 mm
07:37 AM 17.9°F-7.8°C 5.6°F-14.7°C 58% 5.0 mph NNW8.0 kmh NNW 8.0 mph12.9 kmh 30.05 in1017.6 mb 1.35 in34.3 mm 0.00 in0.0 mm 1.35 in34.3 mm
07:38 AM 17.9°F-7.8°C 6.0°F-14.4°C 59% 9.0 mph NW14.5 kmh NW 9.0 mph14.5 kmh 30.05 in1017.6 mb 1.35 in34.3 mm 0.00 in0.0 mm 1.35 in34.3 mm
07:39 AM 17.7°F-7.9°C 4.7°F-15.2°C 56% 6.0 mph NW9.7 kmh NW 9.0 mph14.5 kmh 30.05 in1017.6 mb 1.35 in34.3 mm 0.00 in0.0 mm 1.35 in34.3 mm
07:40 AM 17.7°F-7.9°C 5.4°F-14.8°C 58% 7.0 mph NW11.3 kmh NW 9.0 mph14.5 kmh 30.05 in1017.6 mb 1.35 in34.3 mm 0.00 in0.0 mm 1.35 in34.3 mm
07:41 AM 17.7°F-7.9°C 5.4°F-14.8°C 58% 6.0 mph WNW9.7 kmh WNW 9.0 mph14.5 kmh 30.05 in1017.6 mb 1.35 in34.3 mm 0.00 in0.0 mm 1.35 in34.3 mm
07:42 AM 17.7°F-7.9°C 5.4°F-14.8°C 58% 6.0 mph NW9.7 kmh NW 9.0 mph14.5 kmh 30.05 in1017.6 mb 1.35 in34.3 mm 0.00 in0.0 mm 1.35 in34.3 mm
07:43 AM 17.7°F-7.9°C 6.2°F-14.3°C 60% 5.0 mph WNW8.0 kmh WNW 9.0 mph14.5 kmh 30.05 in1017.6 mb 1.35 in34.3 mm 0.00 in0.0 mm 1.35 in34.3 mm
07:44 AM 17.7°F-7.9°C 5.8°F-14.6°C 59% 6.0 mph NW9.7 kmh NW 9.0 mph14.5 kmh 30.05 in1017.6 mb 1.35 in34.3 mm 0.00 in0.0 mm 1.35 in34.3 mm
07:45 AM 17.7°F-7.9°C 5.4°F-14.8°C 58% 5.0 mph NW8.0 kmh NW 9.0 mph14.5 kmh 30.05 in1017.6 mb 1.35 in34.3 mm 0.00 in0.0 mm 1.35 in34.3 mm
07:46 AM 17.7°F-7.9°C 6.2°F-14.3°C 60% 8.0 mph WNW12.9 kmh WNW 9.0 mph14.5 kmh 30.05 in1017.6 mb 1.35 in34.3 mm 0.00 in0.0 mm 1.35 in34.3 mm
07:47 AM 17.7°F-7.9°C 5.4°F-14.8°C 58% 8.0 mph NW12.9 kmh NW 9.0 mph14.5 kmh 30.05 in1017.6 mb 1.35 in34.3 mm 0.00 in0.0 mm 1.35 in34.3 mm
07:48 AM 17.7°F-7.9°C 5.8°F-14.6°C 59% 9.0 mph WNW14.5 kmh WNW 9.0 mph14.5 kmh 30.05 in1017.6 mb 1.35 in34.3 mm 0.00 in0.0 mm 1.35 in34.3 mm
07:49 AM 17.7°F-7.9°C 5.8°F-14.6°C 59% 7.0 mph WNW11.3 kmh WNW 9.0 mph14.5 kmh 30.05 in1017.6 mb 1.35 in34.3 mm 0.00 in0.0 mm 1.35 in34.3 mm
07:50 AM 17.7°F-7.9°C 5.8°F-14.6°C 59% 8.0 mph WNW12.9 kmh WNW 9.0 mph14.5 kmh 30.05 in1017.6 mb 1.35 in34.3 mm 0.00 in0.0 mm 1.35 in34.3 mm
07:51 AM 17.7°F-7.9°C 5.8°F-14.6°C 59% 8.0 mph NW12.9 kmh NW 9.0 mph14.5 kmh 30.05 in1017.6 mb 1.35 in34.3 mm 0.00 in0.0 mm 1.35 in34.3 mm
07:52 AM 17.9°F-7.8°C 6.4°F-14.2°C 60% 7.0 mph NNW11.3 kmh NNW 9.0 mph14.5 kmh 30.05 in1017.6 mb 1.35 in34.3 mm 0.00 in0.0 mm 1.35 in34.3 mm
07:53 AM 17.9°F-7.8°C 6.4°F-14.2°C 60% 8.0 mph NW12.9 kmh NW 9.0 mph14.5 kmh 30.06 in1017.9 mb 1.35 in34.3 mm 0.00 in0.0 mm 1.35 in34.3 mm
07:54 AM 17.9°F-7.8°C 6.0°F-14.4°C 59% 7.0 mph WNW11.3 kmh WNW 9.0 mph14.5 kmh 30.05 in1017.6 mb 1.35 in34.3 mm 0.00 in0.0 mm 1.35 in34.3 mm
07:55 AM 17.9°F-7.8°C 6.0°F-14.4°C 59% 9.0 mph NW14.5 kmh NW 10.0 mph16.1 kmh 30.06 in1017.9 mb 1.35 in34.3 mm 0.00 in0.0 mm 1.35 in34.3 mm
07:56 AM 17.9°F-7.8°C 5.6°F-14.7°C 58% 10.0 mph NW16.1 kmh NW 10.0 mph16.1 kmh 30.06 in1017.9 mb 1.35 in34.3 mm 0.00 in0.0 mm 1.35 in34.3 mm
07:57 AM 17.9°F-7.8°C 5.6°F-14.7°C 58% 10.0 mph NW16.1 kmh NW 10.0 mph16.1 kmh 30.06 in1017.9 mb 1.35 in34.3 mm 0.00 in0.0 mm 1.35 in34.3 mm
07:58 AM 17.7°F-7.9°C 4.7°F-15.2°C 56% 9.0 mph NW14.5 kmh NW 10.0 mph16.1 kmh 30.05 in1017.6 mb 1.35 in34.3 mm 0.00 in0.0 mm 1.35 in34.3 mm
07:59 AM 17.9°F-7.8°C 6.4°F-14.2°C 60% 6.0 mph WNW9.7 kmh WNW 11.0 mph17.7 kmh 30.06 in1017.9 mb 1.35 in34.3 mm 0.00 in0.0 mm 1.35 in34.3 mm
08:00 AM 18.1°F-7.7°C 6.9°F-13.9°C 61% 8.0 mph NW12.9 kmh NW 11.0 mph17.7 kmh 30.06 in1017.9 mb 1.35 in34.3 mm 0.00 in0.0 mm 1.35 in34.3 mm
08:01 AM 17.9°F-7.8°C 5.6°F-14.7°C 58% 9.0 mph NW14.5 kmh NW 11.0 mph17.7 kmh 30.06 in1017.9 mb 1.35 in34.3 mm 0.00 in0.0 mm 1.35 in34.3 mm
08:02 AM 17.9°F-7.8°C 6.0°F-14.4°C 59% 9.0 mph WNW14.5 kmh WNW 11.0 mph17.7 kmh 30.06 in1017.9 mb 1.35 in34.3 mm 0.00 in0.0 mm 1.35 in34.3 mm
08:03 AM 17.9°F-7.8°C 6.4°F-14.2°C 60% 11.0 mph NW17.7 kmh NW 11.0 mph17.7 kmh 30.06 in1017.9 mb 1.35 in34.3 mm 0.00 in0.0 mm 1.35 in34.3 mm
08:04 AM 17.9°F-7.8°C 6.0°F-14.4°C 59% 7.0 mph NW11.3 kmh NW 11.0 mph17.7 kmh 30.06 in1017.9 mb 1.35 in34.3 mm 0.00 in0.0 mm 1.35 in34.3 mm
08:05 AM 17.9°F-7.8°C 6.0°F-14.4°C 59% 7.0 mph W11.3 kmh W 11.0 mph17.7 kmh 30.06 in1017.9 mb 1.35 in34.3 mm 0.00 in0.0 mm 1.35 in34.3 mm
08:06 AM 17.9°F-7.8°C 6.0°F-14.4°C 59% 8.0 mph NW12.9 kmh NW 11.0 mph17.7 kmh 30.06 in1017.9 mb 1.35 in34.3 mm 0.00 in0.0 mm 1.35 in34.3 mm
08:07 AM 17.9°F-7.8°C 6.4°F-14.2°C 60% 7.0 mph WNW11.3 kmh WNW 11.0 mph17.7 kmh 30.06 in1017.9 mb 1.35 in34.3 mm 0.00 in0.0 mm 1.35 in34.3 mm
08:08 AM 17.9°F-7.8°C 6.0°F-14.4°C 59% 9.0 mph WNW14.5 kmh WNW 11.0 mph17.7 kmh 30.06 in1017.9 mb 1.35 in34.3 mm 0.00 in0.0 mm 1.35 in34.3 mm
08:09 AM 17.9°F-7.8°C 5.6°F-14.7°C 58% 7.0 mph NW11.3 kmh NW 11.0 mph17.7 kmh 30.07 in1018.3 mb 1.35 in34.3 mm 0.00 in0.0 mm 1.35 in34.3 mm
08:10 AM 17.9°F-7.8°C 4.8°F-15.1°C 56% 7.0 mph NW11.3 kmh NW 11.0 mph17.7 kmh 30.06 in1017.9 mb 1.35 in34.3 mm 0.00 in0.0 mm 1.35 in34.3 mm
08:11 AM 17.9°F-7.8°C 6.0°F-14.4°C 59% 9.0 mph NW14.5 kmh NW 11.0 mph17.7 kmh 30.06 in1017.9 mb 1.35 in34.3 mm 0.00 in0.0 mm 1.35 in34.3 mm
08:12 AM 17.9°F-7.8°C 6.0°F-14.4°C 59% 7.0 mph NW11.3 kmh NW 11.0 mph17.7 kmh 30.06 in1017.9 mb 1.35 in34.3 mm 0.00 in0.0 mm 1.35 in34.3 mm
08:13 AM 17.9°F-7.8°C 6.0°F-14.4°C 59% 7.0 mph WNW11.3 kmh WNW 9.0 mph14.5 kmh 30.06 in1017.9 mb 1.35 in34.3 mm 0.00 in0.0 mm 1.35 in34.3 mm
08:14 AM 18.1°F-7.7°C 6.6°F-14.1°C 60% 7.0 mph NW11.3 kmh NW 9.0 mph14.5 kmh 30.06 in1017.9 mb 1.35 in34.3 mm 0.00 in0.0 mm 1.35 in34.3 mm
08:15 AM 18.1°F-7.7°C 6.6°F-14.1°C 60% 9.0 mph NW14.5 kmh NW 9.0 mph14.5 kmh 30.07 in1018.3 mb 1.35 in34.3 mm 0.00 in0.0 mm 1.35 in34.3 mm
08:16 AM 18.1°F-7.7°C 6.9°F-13.9°C 61% 10.0 mph NW16.1 kmh NW 10.0 mph16.1 kmh 30.07 in1018.3 mb 1.35 in34.3 mm 0.00 in0.0 mm 1.35 in34.3 mm
08:17 AM 18.2°F-7.7°C 7.0°F-13.9°C 61% 9.0 mph NW14.5 kmh NW 10.0 mph16.1 kmh 30.07 in1018.3 mb 1.35 in34.3 mm 0.00 in0.0 mm 1.35 in34.3 mm
08:18 AM 18.2°F-7.7°C 7.0°F-13.9°C 61% 9.0 mph NW14.5 kmh NW 10.0 mph16.1 kmh 30.07 in1018.3 mb 1.35 in34.3 mm 0.00 in0.0 mm 1.35 in34.3 mm
08:19 AM 18.2°F-7.7°C 7.0°F-13.9°C 61% 10.0 mph WNW16.1 kmh WNW 10.0 mph16.1 kmh 30.07 in1018.3 mb 1.35 in34.3 mm 0.00 in0.0 mm 1.35 in34.3 mm
08:20 AM 18.2°F-7.7°C 6.7°F-14.1°C 60% 10.0 mph NW16.1 kmh NW 12.0 mph19.3 kmh 30.07 in1018.3 mb 1.35 in34.3 mm 0.00 in0.0 mm 1.35 in34.3 mm
08:21 AM 18.1°F-7.7°C 5.8°F-14.6°C 58% 10.0 mph NNW16.1 kmh NNW 12.0 mph19.3 kmh 30.07 in1018.3 mb 1.35 in34.3 mm 0.00 in0.0 mm 1.35 in34.3 mm
08:22 AM 18.1°F-7.7°C 5.8°F-14.6°C 58% 12.0 mph NW19.3 kmh NW 12.0 mph19.3 kmh 30.06 in1017.9 mb 1.35 in34.3 mm 0.00 in0.0 mm 1.35 in34.3 mm
08:23 AM 18.1°F-7.7°C 6.2°F-14.3°C 59% 12.0 mph NNW19.3 kmh NNW 13.0 mph20.9 kmh 30.07 in1018.3 mb 1.35 in34.3 mm 0.00 in0.0 mm 1.35 in34.3 mm
08:24 AM 18.1°F-7.7°C 6.2°F-14.3°C 59% 9.0 mph NW14.5 kmh NW 13.0 mph20.9 kmh 30.07 in1018.3 mb 1.35 in34.3 mm 0.00 in0.0 mm 1.35 in34.3 mm
08:25 AM 18.1°F-7.7°C 5.8°F-14.6°C 58% 12.0 mph WNW19.3 kmh WNW 16.0 mph25.7 kmh 30.07 in1018.3 mb 1.35 in34.3 mm 0.00 in0.0 mm 1.35 in34.3 mm
08:26 AM 18.1°F-7.7°C 5.8°F-14.6°C 58% 10.0 mph WNW16.1 kmh WNW 16.0 mph25.7 kmh 30.07 in1018.3 mb 1.35 in34.3 mm 0.00 in0.0 mm 1.35 in34.3 mm
08:27 AM 18.1°F-7.7°C 6.6°F-14.1°C 60% 13.0 mph WNW20.9 kmh WNW 16.0 mph25.7 kmh 30.07 in1018.3 mb 1.35 in34.3 mm 0.00 in0.0 mm 1.35 in34.3 mm
08:28 AM 18.2°F-7.7°C 7.0°F-13.9°C 61% 11.0 mph NW17.7 kmh NW 16.0 mph25.7 kmh 30.07 in1018.3 mb 1.35 in34.3 mm 0.00 in0.0 mm 1.35 in34.3 mm
08:29 AM 18.2°F-7.7°C 7.0°F-13.9°C 61% 14.0 mph NW22.5 kmh NW 16.0 mph25.7 kmh 30.08 in1018.6 mb 1.35 in34.3 mm 0.00 in0.0 mm 1.35 in34.3 mm
08:31 AM 18.2°F-7.7°C 6.3°F-14.3°C 59% 13.0 mph WNW20.9 kmh WNW 16.0 mph25.7 kmh 30.07 in1018.3 mb 1.35 in34.3 mm 0.00 in0.0 mm 1.35 in34.3 mm
08:32 AM 18.2°F-7.7°C 5.9°F-14.5°C 58% 17.0 mph NW27.4 kmh NW 17.0 mph27.4 kmh 30.07 in1018.3 mb 1.35 in34.3 mm 0.00 in0.0 mm 1.35 in34.3 mm
08:33 AM 18.2°F-7.7°C 5.9°F-14.5°C 58% 14.0 mph NW22.5 kmh NW 17.0 mph27.4 kmh 30.07 in1018.3 mb 1.35 in34.3 mm 0.00 in0.0 mm 1.35 in34.3 mm
08:34 AM 18.2°F-7.7°C 6.3°F-14.3°C 59% 18.0 mph WNW29.0 kmh WNW 18.0 mph29.0 kmh 30.07 in1018.3 mb 1.35 in34.3 mm 0.00 in0.0 mm 1.35 in34.3 mm
08:35 AM 18.2°F-7.7°C 5.9°F-14.5°C 58% 15.0 mph WNW24.1 kmh WNW 18.0 mph29.0 kmh 30.08 in1018.6 mb 1.35 in34.3 mm 0.00 in0.0 mm 1.35 in34.3 mm
08:36 AM 18.2°F-7.7°C 6.3°F-14.3°C 59% 11.0 mph NW17.7 kmh NW 18.0 mph29.0 kmh 30.07 in1018.3 mb 1.35 in34.3 mm 0.00 in0.0 mm 1.35 in34.3 mm
08:37 AM 18.5°F-7.5°C 7.0°F-13.9°C 60% 12.0 mph W19.3 kmh W 18.0 mph29.0 kmh 30.08 in1018.6 mb 1.35 in34.3 mm 0.00 in0.0 mm 1.35 in34.3 mm
08:38 AM 18.5°F-7.5°C 7.0°F-13.9°C 60% 8.0 mph NW12.9 kmh NW 18.0 mph29.0 kmh 30.08 in1018.6 mb 1.35 in34.3 mm 0.00 in0.0 mm 1.35 in34.3 mm
08:39 AM 18.5°F-7.5°C 6.6°F-14.1°C 59% 11.0 mph WNW17.7 kmh WNW 18.0 mph29.0 kmh 30.08 in1018.6 mb 1.35 in34.3 mm 0.00 in0.0 mm 1.35 in34.3 mm
08:40 AM 18.5°F-7.5°C 6.6°F-14.1°C 59% 13.0 mph NW20.9 kmh NW 18.0 mph29.0 kmh 30.07 in1018.3 mb 1.35 in34.3 mm 0.00 in0.0 mm 1.35 in34.3 mm
08:41 AM 18.5°F-7.5°C 6.6°F-14.1°C 59% 16.0 mph NW25.7 kmh NW 18.0 mph29.0 kmh 30.08 in1018.6 mb 1.35 in34.3 mm 0.00 in0.0 mm 1.35 in34.3 mm
08:42 AM 18.5°F-7.5°C 6.2°F-14.3°C 58% 12.0 mph WNW19.3 kmh WNW 18.0 mph29.0 kmh 30.08 in1018.6 mb 1.35 in34.3 mm 0.00 in0.0 mm 1.35 in34.3 mm
08:43 AM 18.5°F-7.5°C 7.0°F-13.9°C 60% 18.0 mph WNW29.0 kmh WNW 18.0 mph29.0 kmh 30.08 in1018.6 mb 1.35 in34.3 mm 0.00 in0.0 mm 1.35 in34.3 mm
08:44 AM 18.5°F-7.5°C 6.2°F-14.3°C 58% 11.0 mph NW17.7 kmh NW 18.0 mph29.0 kmh 30.08 in1018.6 mb 1.35 in34.3 mm 0.00 in0.0 mm 1.35 in34.3 mm
08:45 AM 18.5°F-7.5°C 5.0°F-15.0°C 55% 16.0 mph NW25.7 kmh NW 18.0 mph29.0 kmh 30.08 in1018.6 mb 1.35 in34.3 mm 0.00 in0.0 mm 1.35 in34.3 mm
08:46 AM 18.5°F-7.5°C 5.0°F-15.0°C 55% 9.0 mph NW14.5 kmh NW 18.0 mph29.0 kmh 30.08 in1018.6 mb 1.35 in34.3 mm 0.00 in0.0 mm 1.35 in34.3 mm
08:47 AM 18.5°F-7.5°C 7.0°F-13.9°C 60% 11.0 mph WNW17.7 kmh WNW 18.0 mph29.0 kmh 30.08 in1018.6 mb 1.35 in34.3 mm 0.00 in0.0 mm 1.35 in34.3 mm
08:48 AM 18.5°F-7.5°C 6.6°F-14.1°C 59% 7.0 mph NW11.3 kmh NW 18.0 mph29.0 kmh 30.08 in1018.6 mb 1.35 in34.3 mm 0.00 in0.0 mm 1.35 in34.3 mm
08:49 AM 18.5°F-7.5°C 6.6°F-14.1°C 59% 10.0 mph WNW16.1 kmh WNW 18.0 mph29.0 kmh 30.08 in1018.6 mb 1.35 in34.3 mm 0.00 in0.0 mm 1.35 in34.3 mm
08:50 AM 18.7°F-7.4°C 6.8°F-14.0°C 59% 10.0 mph W16.1 kmh W 18.0 mph29.0 kmh 30.08 in1018.6 mb 1.35 in34.3 mm 0.00 in0.0 mm 1.35 in34.3 mm
08:51 AM 18.7°F-7.4°C 6.4°F-14.2°C 58% 8.0 mph NW12.9 kmh NW 18.0 mph29.0 kmh 30.08 in1018.6 mb 1.35 in34.3 mm 0.00 in0.0 mm 1.35 in34.3 mm
08:52 AM 18.7°F-7.4°C 6.8°F-14.0°C 59% 16.0 mph WNW25.7 kmh WNW 18.0 mph29.0 kmh 30.08 in1018.6 mb 1.35 in34.3 mm 0.00 in0.0 mm 1.35 in34.3 mm
08:53 AM 18.7°F-7.4°C 6.8°F-14.0°C 59% 12.0 mph NW19.3 kmh NW 18.0 mph29.0 kmh 30.09 in1019.0 mb 1.35 in34.3 mm 0.00 in0.0 mm 1.35 in34.3 mm
08:54 AM 18.8°F-7.3°C 7.2°F-13.8°C 60% 13.0 mph NW20.9 kmh NW 18.0 mph29.0 kmh 30.08 in1018.6 mb 1.35 in34.3 mm 0.00 in0.0 mm 1.35 in34.3 mm
08:55 AM 19.0°F-7.2°C 7.8°F-13.4°C 61% 10.0 mph NW16.1 kmh NW 16.0 mph25.7 kmh 30.08 in1018.6 mb 1.35 in34.3 mm 0.00 in0.0 mm 1.35 in34.3 mm
08:56 AM 19.0°F-7.2°C 7.4°F-13.7°C 60% 11.0 mph NW17.7 kmh NW 16.0 mph25.7 kmh 30.08 in1018.6 mb 1.35 in34.3 mm 0.00 in0.0 mm 1.35 in34.3 mm
08:57 AM 19.0°F-7.2°C 7.4°F-13.7°C 60% 10.0 mph NW16.1 kmh NW 16.0 mph25.7 kmh 30.08 in1018.6 mb 1.35 in34.3 mm 0.00 in0.0 mm 1.35 in34.3 mm
08:58 AM 19.0°F-7.2°C 7.0°F-13.9°C 59% 12.0 mph NW19.3 kmh NW 16.0 mph25.7 kmh 30.08 in1018.6 mb 1.35 in34.3 mm 0.00 in0.0 mm 1.35 in34.3 mm
08:59 AM 19.2°F-7.1°C 7.6°F-13.6°C 60% 14.0 mph WNW22.5 kmh WNW 16.0 mph25.7 kmh 30.08 in1018.6 mb 1.35 in34.3 mm 0.00 in0.0 mm 1.35 in34.3 mm
09:00 AM 19.2°F-7.1°C 8.0°F-13.3°C 61% 12.0 mph NNW19.3 kmh NNW 16.0 mph25.7 kmh 30.08 in1018.6 mb 1.35 in34.3 mm 0.00 in0.0 mm 1.35 in34.3 mm
09:01 AM 19.2°F-7.1°C 7.2°F-13.8°C 59% 18.0 mph NW29.0 kmh NW 18.0 mph29.0 kmh 30.09 in1019.0 mb 1.35 in34.3 mm 0.00 in0.0 mm 1.35 in34.3 mm
09:02 AM 19.2°F-7.1°C 7.2°F-13.8°C 59% 16.0 mph NW25.7 kmh NW 18.0 mph29.0 kmh 30.09 in1019.0 mb 1.35 in34.3 mm 0.00 in0.0 mm 1.35 in34.3 mm
09:03 AM 19.2°F-7.1°C 7.2°F-13.8°C 59% 11.0 mph NW17.7 kmh NW 18.0 mph29.0 kmh 30.09 in1019.0 mb 1.35 in34.3 mm 0.00 in0.0 mm 1.35 in34.3 mm
09:04 AM 19.2°F-7.1°C 7.2°F-13.8°C 59% 13.0 mph NW20.9 kmh NW 18.0 mph29.0 kmh 30.09 in1019.0 mb 1.35 in34.3 mm 0.00 in0.0 mm 1.35 in34.3 mm
09:05 AM 19.2°F-7.1°C 8.0°F-13.3°C 61% 10.0 mph NW16.1 kmh NW 18.0 mph29.0 kmh 30.09 in1019.0 mb 1.35 in34.3 mm 0.00 in0.0 mm 1.35 in34.3 mm
09:06 AM 19.2°F-7.1°C 7.2°F-13.8°C 59% 15.0 mph NW24.1 kmh NW 18.0 mph29.0 kmh 30.09 in1019.0 mb 1.35 in34.3 mm 0.00 in0.0 mm 1.35 in34.3 mm
09:07 AM 19.0°F-7.2°C 5.5°F-14.7°C 55% 11.0 mph NW17.7 kmh NW 18.0 mph29.0 kmh 30.09 in1019.0 mb 1.35 in34.3 mm 0.00 in0.0 mm 1.35 in34.3 mm
09:08 AM 19.0°F-7.2°C 5.5°F-14.7°C 55% 12.0 mph NW19.3 kmh NW 18.0 mph29.0 kmh 30.09 in1019.0 mb 1.35 in34.3 mm 0.00 in0.0 mm 1.35 in34.3 mm
09:09 AM 19.0°F-7.2°C 5.9°F-14.5°C 56% 17.0 mph NW27.4 kmh NW 18.0 mph29.0 kmh 30.09 in1019.0 mb 1.35 in34.3 mm 0.00 in0.0 mm 1.35 in34.3 mm
09:10 AM 19.0°F-7.2°C 5.9°F-14.5°C 56% 12.0 mph WNW19.3 kmh WNW 18.0 mph29.0 kmh 30.09 in1019.0 mb 1.35 in34.3 mm 0.00 in0.0 mm 1.35 in34.3 mm
09:11 AM 19.0°F-7.2°C 6.7°F-14.1°C 58% 20.0 mph NW32.2 kmh NW 20.0 mph32.2 kmh 30.09 in1019.0 mb 1.35 in34.3 mm 0.00 in0.0 mm 1.35 in34.3 mm
09:12 AM 19.0°F-7.2°C 5.5°F-14.7°C 55% 14.0 mph NW22.5 kmh NW 20.0 mph32.2 kmh 30.08 in1018.6 mb 1.35 in34.3 mm 0.00 in0.0 mm 1.35 in34.3 mm
09:13 AM 19.0°F-7.2°C 5.5°F-14.7°C 55% 11.0 mph WNW17.7 kmh WNW 20.0 mph32.2 kmh 30.09 in1019.0 mb 1.35 in34.3 mm 0.00 in0.0 mm 1.35 in34.3 mm
09:14 AM 19.0°F-7.2°C 5.5°F-14.7°C 55% 11.0 mph WNW17.7 kmh WNW 20.0 mph32.2 kmh 30.09 in1019.0 mb 1.35 in34.3 mm 0.00 in0.0 mm 1.35 in34.3 mm
09:15 AM 19.0°F-7.2°C 5.5°F-14.7°C 55% 15.0 mph NNW24.1 kmh NNW 20.0 mph32.2 kmh 30.09 in1019.0 mb 1.35 in34.3 mm 0.00 in0.0 mm 1.35 in34.3 mm
09:16 AM 19.2°F-7.1°C 5.7°F-14.6°C 55% 12.0 mph WNW19.3 kmh WNW 20.0 mph32.2 kmh 30.09 in1019.0 mb 1.35 in34.3 mm 0.00 in0.0 mm 1.35 in34.3 mm
09:17 AM 19.2°F-7.1°C 5.2°F-14.9°C 54% 17.0 mph NW27.4 kmh NW 21.0 mph33.8 kmh 30.09 in1019.0 mb 1.35 in34.3 mm 0.00 in0.0 mm 1.35 in34.3 mm
09:18 AM 19.3°F-7.1°C 5.8°F-14.6°C 55% 18.0 mph WNW29.0 kmh WNW 21.0 mph33.8 kmh 30.09 in1019.0 mb 1.35 in34.3 mm 0.00 in0.0 mm 1.35 in34.3 mm
09:19 AM 19.6°F-6.9°C 6.0°F-14.4°C 55% 18.0 mph NW29.0 kmh NW 21.0 mph33.8 kmh 30.09 in1019.0 mb 1.35 in34.3 mm 0.00 in0.0 mm 1.35 in34.3 mm
09:20 AM 19.6°F-6.9°C 6.0°F-14.4°C 55% 16.0 mph WNW25.7 kmh WNW 21.0 mph33.8 kmh 30.09 in1019.0 mb 1.35 in34.3 mm 0.00 in0.0 mm 1.35 in34.3 mm
09:21 AM 19.7°F-6.8°C 6.5°F-14.2°C 56% 10.0 mph WNW16.1 kmh WNW 21.0 mph33.8 kmh 30.09 in1019.0 mb 1.35 in34.3 mm 0.00 in0.0 mm 1.35 in34.3 mm
09:22 AM 19.8°F-6.8°C 7.4°F-13.7°C 58% 12.0 mph WNW19.3 kmh WNW 21.0 mph33.8 kmh 30.09 in1019.0 mb 1.35 in34.3 mm 0.00 in0.0 mm 1.35 in34.3 mm
09:23 AM 20.0°F-6.7°C 8.0°F-13.3°C 59% 15.0 mph NW24.1 kmh NW 21.0 mph33.8 kmh 30.09 in1019.0 mb 1.35 in34.3 mm 0.00 in0.0 mm 1.35 in34.3 mm
09:24 AM 20.0°F-6.7°C 6.4°F-14.2°C 55% 11.0 mph NW17.7 kmh NW 21.0 mph33.8 kmh 30.09 in1019.0 mb 1.35 in34.3 mm 0.00 in0.0 mm 1.35 in34.3 mm
09:25 AM 20.0°F-6.7°C 6.4°F-14.2°C 55% 10.0 mph 16.1 kmh 21.0 mph33.8 kmh 30.09 in1019.0 mb 1.35 in34.3 mm 0.00 in0.0 mm 1.35 in34.3 mm
09:26 AM 20.0°F-6.7°C 6.4°F-14.2°C 55% 7.0 mph WNW11.3 kmh WNW 21.0 mph33.8 kmh 30.09 in1019.0 mb 1.35 in34.3 mm 0.00 in0.0 mm 1.35 in34.3 mm
09:27 AM 20.0°F-6.7°C 6.4°F-14.2°C 55% 13.0 mph NW20.9 kmh NW 18.0 mph29.0 kmh 30.09 in1019.0 mb 1.35 in34.3 mm 0.00 in0.0 mm 1.35 in34.3 mm
09:28 AM 20.2°F-6.6°C 7.0°F-13.9°C 56% 13.0 mph NW20.9 kmh NW 18.0 mph29.0 kmh 30.09 in1019.0 mb 1.35 in34.3 mm 0.00 in0.0 mm 1.35 in34.3 mm
09:29 AM 20.2°F-6.6°C 6.6°F-14.1°C 55% 17.0 mph WNW27.4 kmh WNW 18.0 mph29.0 kmh 30.09 in1019.0 mb 1.35 in34.3 mm 0.00 in0.0 mm 1.35 in34.3 mm
09:30 AM 20.2°F-6.6°C 6.6°F-14.1°C 55% 12.0 mph NW19.3 kmh NW 18.0 mph29.0 kmh 30.09 in1019.0 mb 1.35 in34.3 mm 0.00 in0.0 mm 1.35 in34.3 mm
09:31 AM 20.2°F-6.6°C 7.0°F-13.9°C 56% 15.0 mph NW24.1 kmh NW 18.0 mph29.0 kmh 30.09 in1019.0 mb 1.35 in34.3 mm 0.00 in0.0 mm 1.35 in34.3 mm
09:32 AM 20.2°F-6.6°C 7.0°F-13.9°C 56% 11.0 mph NW17.7 kmh NW 18.0 mph29.0 kmh 30.09 in1019.0 mb 1.35 in34.3 mm 0.00 in0.0 mm 1.35 in34.3 mm
09:33 AM 20.2°F-6.6°C 6.6°F-14.1°C 55% 16.0 mph WNW25.7 kmh WNW 18.0 mph29.0 kmh 30.09 in1019.0 mb 1.35 in34.3 mm 0.00 in0.0 mm 1.35 in34.3 mm
09:34 AM 20.2°F-6.6°C 6.6°F-14.1°C 55% 15.0 mph WNW24.1 kmh WNW 18.0 mph29.0 kmh 30.09 in1019.0 mb 1.35 in34.3 mm 0.00 in0.0 mm 1.35 in34.3 mm
09:35 AM 20.2°F-6.6°C 6.6°F-14.1°C 55% 16.0 mph WNW25.7 kmh WNW 18.0 mph29.0 kmh 30.10 in1019.3 mb 1.35 in34.3 mm 0.00 in0.0 mm 1.35 in34.3 mm
09:36 AM 20.2°F-6.6°C 6.6°F-14.1°C 55% 11.0 mph WNW17.7 kmh WNW 18.0 mph29.0 kmh 30.10 in1019.3 mb 1.35 in34.3 mm 0.00 in0.0 mm 1.35 in34.3 mm
09:37 AM 20.2°F-6.6°C 6.6°F-14.1°C 55% 17.0 mph NW27.4 kmh NW 18.0 mph29.0 kmh 30.10 in1019.3 mb 1.35 in34.3 mm 0.00 in0.0 mm 1.35 in34.3 mm
09:38 AM 20.2°F-6.6°C 7.0°F-13.9°C 56% 19.0 mph NW30.6 kmh NW 19.0 mph30.6 kmh 30.09 in1019.0 mb 1.35 in34.3 mm 0.00 in0.0 mm 1.35 in34.3 mm
09:39 AM 20.2°F-6.6°C 6.6°F-14.1°C 55% 12.0 mph NW19.3 kmh NW 19.0 mph30.6 kmh 30.09 in1019.0 mb 1.35 in34.3 mm 0.00 in0.0 mm 1.35 in34.3 mm
09:40 AM 20.2°F-6.6°C 6.6°F-14.1°C 55% 11.0 mph NNW17.7 kmh NNW 19.0 mph30.6 kmh 30.09 in1019.0 mb 1.35 in34.3 mm 0.00 in0.0 mm 1.35 in34.3 mm
09:41 AM 20.2°F-6.6°C 6.6°F-14.1°C 55% 15.0 mph WNW24.1 kmh WNW 19.0 mph30.6 kmh 30.09 in1019.0 mb 1.35 in34.3 mm 0.00 in0.0 mm 1.35 in34.3 mm
09:42 AM 20.4°F-6.4°C 7.2°F-13.8°C 56% 16.0 mph NW25.7 kmh NW 19.0 mph30.6 kmh 30.09 in1019.0 mb 1.35 in34.3 mm 0.00 in0.0 mm 1.35 in34.3 mm
09:43 AM 20.4°F-6.4°C 6.8°F-14.0°C 55% 14.0 mph WNW22.5 kmh WNW 19.0 mph30.6 kmh 30.09 in1019.0 mb 1.35 in34.3 mm 0.00 in0.0 mm 1.35 in34.3 mm
09:44 AM 20.4°F-6.4°C 7.2°F-13.8°C 56% 14.0 mph NW22.5 kmh NW 19.0 mph30.6 kmh 30.09 in1019.0 mb 1.35 in34.3 mm 0.00 in0.0 mm 1.35 in34.3 mm
09:45 AM 20.4°F-6.4°C 6.8°F-14.0°C 55% 13.0 mph W20.9 kmh W 19.0 mph30.6 kmh 30.10 in1019.3 mb 1.35 in34.3 mm 0.00 in0.0 mm 1.35 in34.3 mm
09:46 AM 20.4°F-6.4°C 6.4°F-14.2°C 54% 10.0 mph WNW16.1 kmh WNW 19.0 mph30.6 kmh 30.09 in1019.0 mb 1.35 in34.3 mm 0.00 in0.0 mm 1.35 in34.3 mm
09:47 AM 20.7°F-6.3°C 7.5°F-13.6°C 56% 11.0 mph WNW17.7 kmh WNW 19.0 mph30.6 kmh 30.09 in1019.0 mb 1.35 in34.3 mm 0.00 in0.0 mm 1.35 in34.3 mm
09:48 AM 20.7°F-6.3°C 8.3°F-13.2°C 58% 11.0 mph WNW17.7 kmh WNW 19.0 mph30.6 kmh 30.09 in1019.0 mb 1.35 in34.3 mm 0.00 in0.0 mm 1.35 in34.3 mm
09:49 AM 20.9°F-6.2°C 8.8°F-12.9°C 59% 12.0 mph NW19.3 kmh NW 18.0 mph29.0 kmh 30.09 in1019.0 mb 1.35 in34.3 mm 0.00 in0.0 mm 1.35 in34.3 mm
09:50 AM 20.9°F-6.2°C 8.5°F-13.1°C 58% 11.0 mph NE17.7 kmh NE 18.0 mph29.0 kmh 30.09 in1019.0 mb 1.35 in34.3 mm 0.00 in0.0 mm 1.35 in34.3 mm
09:51 AM 20.9°F-6.2°C 7.3°F-13.7°C 55% 12.0 mph NW19.3 kmh NW 18.0 mph29.0 kmh 30.09 in1019.0 mb 1.35 in34.3 mm 0.00 in0.0 mm 1.35 in34.3 mm
09:52 AM 20.7°F-6.3°C 6.2°F-14.3°C 53% 12.0 mph WNW19.3 kmh WNW 17.0 mph27.4 kmh 30.09 in1019.0 mb 1.35 in34.3 mm 0.00 in0.0 mm 1.35 in34.3 mm
09:53 AM 20.7°F-6.3°C 6.6°F-14.1°C 54% 10.0 mph NW16.1 kmh NW 17.0 mph27.4 kmh 30.10 in1019.3 mb 1.35 in34.3 mm 0.00 in0.0 mm 1.35 in34.3 mm
09:54 AM 20.7°F-6.3°C 6.2°F-14.3°C 53% 9.0 mph WNW14.5 kmh WNW 17.0 mph27.4 kmh 30.09 in1019.0 mb 1.35 in34.3 mm 0.00 in0.0 mm 1.35 in34.3 mm
09:55 AM 20.7°F-6.3°C 5.4°F-14.8°C 51% 11.0 mph WNW17.7 kmh WNW 15.0 mph24.1 kmh 30.09 in1019.0 mb 1.35 in34.3 mm 0.00 in0.0 mm 1.35 in34.3 mm
09:56 AM 20.9°F-6.2°C 6.8°F-14.0°C 54% 10.0 mph WNW16.1 kmh WNW 15.0 mph24.1 kmh 30.09 in1019.0 mb 1.35 in34.3 mm 0.00 in0.0 mm 1.35 in34.3 mm
09:57 AM 21.2°F-6.0°C 7.1°F-13.8°C 54% 8.0 mph NW12.9 kmh NW 15.0 mph24.1 kmh 30.10 in1019.3 mb 1.35 in34.3 mm 0.00 in0.0 mm 1.35 in34.3 mm
09:58 AM 21.2°F-6.0°C 5.8°F-14.6°C 51% 12.0 mph WNW19.3 kmh WNW 15.0 mph24.1 kmh 30.09 in1019.0 mb 1.35 in34.3 mm 0.00 in0.0 mm 1.35 in34.3 mm
09:59 AM 21.2°F-6.0°C 6.7°F-14.1°C 53% 10.0 mph WNW16.1 kmh WNW 15.0 mph24.1 kmh 30.10 in1019.3 mb 1.35 in34.3 mm 0.00 in0.0 mm 1.35 in34.3 mm
10:00 AM 21.2°F-6.0°C 6.7°F-14.1°C 53% 16.0 mph WNW25.7 kmh WNW 17.0 mph27.4 kmh 30.09 in1019.0 mb 1.35 in34.3 mm 0.00 in0.0 mm 1.35 in34.3 mm
10:01 AM 20.9°F-6.2°C 5.5°F-14.7°C 51% 13.0 mph WNW20.9 kmh WNW 17.0 mph27.4 kmh 30.10 in1019.3 mb 1.35 in34.3 mm 0.00 in0.0 mm 1.35 in34.3 mm
10:02 AM 20.9°F-6.2°C 5.1°F-14.9°C 50% 12.0 mph W19.3 kmh W 17.0 mph27.4 kmh 30.09 in1019.0 mb 1.35 in34.3 mm 0.00 in0.0 mm 1.35 in34.3 mm
10:03 AM 20.9°F-6.2°C 5.5°F-14.7°C 51% 14.0 mph WNW22.5 kmh WNW 17.0 mph27.4 kmh 30.10 in1019.3 mb 1.35 in34.3 mm 0.00 in0.0 mm 1.35 in34.3 mm
10:04 AM 20.9°F-6.2°C 6.4°F-14.2°C 53% 16.0 mph NW25.7 kmh NW 17.0 mph27.4 kmh 30.10 in1019.3 mb 1.35 in34.3 mm 0.00 in0.0 mm 1.35 in34.3 mm
10:05 AM 20.7°F-6.3°C 4.9°F-15.1°C 50% 12.0 mph NW19.3 kmh NW 17.0 mph27.4 kmh 30.10 in1019.3 mb 1.35 in34.3 mm 0.00 in0.0 mm 1.35 in34.3 mm
10:06 AM 20.7°F-6.3°C 4.9°F-15.1°C 50% 12.0 mph WNW19.3 kmh WNW 17.0 mph27.4 kmh 30.10 in1019.3 mb 1.35 in34.3 mm 0.00 in0.0 mm 1.35 in34.3 mm
10:07 AM 20.7°F-6.3°C 4.9°F-15.1°C 50% 10.0 mph NW16.1 kmh NW 17.0 mph27.4 kmh 30.10 in1019.3 mb 1.35 in34.3 mm 0.00 in0.0 mm 1.35 in34.3 mm
10:08 AM 20.7°F-6.3°C 4.9°F-15.1°C 50% 10.0 mph W16.1 kmh W 17.0 mph27.4 kmh 30.09 in1019.0 mb 1.35 in34.3 mm 0.00 in0.0 mm 1.35 in34.3 mm
10:09 AM 20.9°F-6.2°C 5.5°F-14.7°C 51% 15.0 mph NW24.1 kmh NW 17.0 mph27.4 kmh 30.10 in1019.3 mb 1.35 in34.3 mm 0.00 in0.0 mm 1.35 in34.3 mm
10:10 AM 20.9°F-6.2°C 5.1°F-14.9°C 50% 11.0 mph NW17.7 kmh NW 17.0 mph27.4 kmh 30.10 in1019.3 mb 1.35 in34.3 mm 0.00 in0.0 mm 1.35 in34.3 mm
10:11 AM 20.9°F-6.2°C 5.5°F-14.7°C 51% 13.0 mph WNW20.9 kmh WNW 17.0 mph27.4 kmh 30.10 in1019.3 mb 1.35 in34.3 mm 0.00 in0.0 mm 1.35 in34.3 mm
10:12 AM 21.2°F-6.0°C 7.5°F-13.6°C 55% 13.0 mph WNW20.9 kmh WNW 17.0 mph27.4 kmh 30.10 in1019.3 mb 1.35 in34.3 mm 0.00 in0.0 mm 1.35 in34.3 mm
10:13 AM 21.2°F-6.0°C 7.1°F-13.8°C 54% 10.0 mph NW16.1 kmh NW 17.0 mph27.4 kmh 30.10 in1019.3 mb 1.35 in34.3 mm 0.00 in0.0 mm 1.35 in34.3 mm
10:14 AM 21.2°F-6.0°C 5.8°F-14.6°C 51% 10.0 mph WNW16.1 kmh WNW 16.0 mph25.7 kmh 30.10 in1019.3 mb 1.35 in34.3 mm 0.00 in0.0 mm 1.35 in34.3 mm
10:15 AM 21.2°F-6.0°C 5.8°F-14.6°C 51% 15.0 mph NW24.1 kmh NW 16.0 mph25.7 kmh 30.10 in1019.3 mb 1.35 in34.3 mm 0.00 in0.0 mm 1.35 in34.3 mm
10:16 AM 21.3°F-5.9°C 7.2°F-13.8°C 54% 12.0 mph NW19.3 kmh NW 15.0 mph24.1 kmh 30.10 in1019.3 mb 1.35 in34.3 mm 0.00 in0.0 mm 1.35 in34.3 mm
10:17 AM 21.3°F-5.9°C 6.8°F-14.0°C 53% 11.0 mph ENE17.7 kmh ENE 15.0 mph24.1 kmh 30.09 in1019.0 mb 1.35 in34.3 mm 0.00 in0.0 mm 1.35 in34.3 mm
10:18 AM 21.3°F-5.9°C 6.8°F-14.0°C 53% 7.0 mph NNW11.3 kmh NNW 15.0 mph24.1 kmh 30.09 in1019.0 mb 1.35 in34.3 mm 0.00 in0.0 mm 1.35 in34.3 mm
10:19 AM 21.7°F-5.7°C 7.2°F-13.8°C 53% 9.0 mph NNW14.5 kmh NNW 15.0 mph24.1 kmh 30.09 in1019.0 mb 1.35 in34.3 mm 0.00 in0.0 mm 1.35 in34.3 mm
10:20 AM 21.7°F-5.7°C 7.2°F-13.8°C 53% 16.0 mph NW25.7 kmh NW 16.0 mph25.7 kmh 30.10 in1019.3 mb 1.35 in34.3 mm 0.00 in0.0 mm 1.35 in34.3 mm
10:21 AM 21.7°F-5.7°C 6.3°F-14.3°C 51% 10.0 mph NW16.1 kmh NW 17.0 mph27.4 kmh 30.09 in1019.0 mb 1.35 in34.3 mm 0.00 in0.0 mm 1.35 in34.3 mm
10:22 AM 21.6°F-5.8°C 5.7°F-14.6°C 50% 8.0 mph NW12.9 kmh NW 17.0 mph27.4 kmh 30.10 in1019.3 mb 1.35 in34.3 mm 0.00 in0.0 mm 1.35 in34.3 mm
10:23 AM 21.6°F-5.8°C 5.7°F-14.6°C 50% 10.0 mph WNW16.1 kmh WNW 17.0 mph27.4 kmh 30.09 in1019.0 mb 1.35 in34.3 mm 0.00 in0.0 mm 1.35 in34.3 mm
10:24 AM 21.7°F-5.7°C 6.3°F-14.3°C 51% 10.0 mph WNW16.1 kmh WNW 17.0 mph27.4 kmh 30.10 in1019.3 mb 1.35 in34.3 mm 0.00 in0.0 mm 1.35 in34.3 mm
10:25 AM 21.7°F-5.7°C 5.8°F-14.6°C 50% 12.0 mph WNW19.3 kmh WNW 17.0 mph27.4 kmh 30.09 in1019.0 mb 1.35 in34.3 mm 0.00 in0.0 mm 1.35 in34.3 mm
10:26 AM 21.6°F-5.8°C 5.3°F-14.8°C 49% 8.0 mph NW12.9 kmh NW 17.0 mph27.4 kmh 30.09 in1019.0 mb 1.35 in34.3 mm 0.00 in0.0 mm 1.35 in34.3 mm
10:27 AM 21.6°F-5.8°C 5.7°F-14.6°C 50% 9.0 mph WNW14.5 kmh WNW 17.0 mph27.4 kmh 30.09 in1019.0 mb 1.35 in34.3 mm 0.00 in0.0 mm 1.35 in34.3 mm
10:28 AM 21.7°F-5.7°C 6.3°F-14.3°C 51% 10.0 mph NW16.1 kmh NW 17.0 mph27.4 kmh 30.09 in1019.0 mb 1.35 in34.3 mm 0.00 in0.0 mm 1.35 in34.3 mm
10:29 AM 21.7°F-5.7°C 5.8°F-14.6°C 50% 11.0 mph NW17.7 kmh NW 17.0 mph27.4 kmh 30.09 in1019.0 mb 1.35 in34.3 mm 0.00 in0.0 mm 1.35 in34.3 mm
10:30 AM 21.7°F-5.7°C 4.9°F-15.1°C 48% 13.0 mph NNW20.9 kmh NNW 17.0 mph27.4 kmh 30.09 in1019.0 mb 1.35 in34.3 mm 0.00 in0.0 mm 1.35 in34.3 mm
10:31 AM 21.7°F-5.7°C 4.9°F-15.1°C 48% 11.0 mph W17.7 kmh W 14.0 mph22.5 kmh 30.09 in1019.0 mb 1.35 in34.3 mm 0.00 in0.0 mm 1.35 in34.3 mm
10:32 AM 21.7°F-5.7°C 6.3°F-14.3°C 51% 15.0 mph NW24.1 kmh NW 15.0 mph24.1 kmh 30.09 in1019.0 mb 1.35 in34.3 mm 0.00 in0.0 mm 1.35 in34.3 mm
10:33 AM 21.7°F-5.7°C 6.3°F-14.3°C 51% 13.0 mph NW20.9 kmh NW 15.0 mph24.1 kmh 30.09 in1019.0 mb 1.35 in34.3 mm 0.00 in0.0 mm 1.35 in34.3 mm
10:34 AM 21.6°F-5.8°C 5.3°F-14.8°C 49% 9.0 mph WNW14.5 kmh WNW 15.0 mph24.1 kmh 30.09 in1019.0 mb 1.35 in34.3 mm 0.00 in0.0 mm 1.35 in34.3 mm
10:35 AM 21.6°F-5.8°C 4.8°F-15.1°C 48% 10.0 mph NW16.1 kmh NW 15.0 mph24.1 kmh 30.09 in1019.0 mb 1.35 in34.3 mm 0.00 in0.0 mm 1.35 in34.3 mm
10:36 AM 21.6°F-5.8°C 5.3°F-14.8°C 49% 9.0 mph WNW14.5 kmh WNW 15.0 mph24.1 kmh 30.09 in1019.0 mb 1.35 in34.3 mm 0.00 in0.0 mm 1.35 in34.3 mm
10:37 AM 21.7°F-5.7°C 5.8°F-14.6°C 50% 7.0 mph NW11.3 kmh NW 15.0 mph24.1 kmh 30.09 in1019.0 mb 1.35 in34.3 mm 0.00 in0.0 mm 1.35 in34.3 mm
10:38 AM 21.9°F-5.6°C 7.3°F-13.7°C 53% 11.0 mph NW17.7 kmh NW 15.0 mph24.1 kmh 30.09 in1019.0 mb 1.35 in34.3 mm 0.00 in0.0 mm 1.35 in34.3 mm
10:39 AM 21.9°F-5.6°C 6.0°F-14.4°C 50% 10.0 mph WNW16.1 kmh WNW 15.0 mph24.1 kmh 30.09 in1019.0 mb 1.35 in34.3 mm 0.00 in0.0 mm 1.35 in34.3 mm
10:40 AM 21.9°F-5.6°C 6.0°F-14.4°C 50% 9.0 mph WNW14.5 kmh WNW 15.0 mph24.1 kmh 30.09 in1019.0 mb 1.35 in34.3 mm 0.00 in0.0 mm 1.35 in34.3 mm
10:41 AM 22.1°F-5.5°C 8.0°F-13.3°C 54% 9.0 mph WNW14.5 kmh WNW 15.0 mph24.1 kmh 30.09 in1019.0 mb 1.35 in34.3 mm 0.00 in0.0 mm 1.35 in34.3 mm
10:42 AM 22.1°F-5.5°C 6.2°F-14.3°C 50% 8.0 mph NW12.9 kmh NW 13.0 mph20.9 kmh 30.09 in1019.0 mb 1.35 in34.3 mm 0.00 in0.0 mm 1.35 in34.3 mm
10:43 AM 22.3°F-5.4°C 6.4°F-14.2°C 50% 8.0 mph WNW12.9 kmh WNW 13.0 mph20.9 kmh 30.10 in1019.3 mb 1.35 in34.3 mm 0.00 in0.0 mm 1.35 in34.3 mm
10:44 AM 22.3°F-5.4°C 5.9°F-14.5°C 49% 8.0 mph W12.9 kmh W 12.0 mph19.3 kmh 30.10 in1019.3 mb 1.35 in34.3 mm 0.00 in0.0 mm 1.35 in34.3 mm
10:45 AM 22.3°F-5.4°C 5.9°F-14.5°C 49% 8.0 mph NW12.9 kmh NW 12.0 mph19.3 kmh 30.10 in1019.3 mb 1.35 in34.3 mm 0.00 in0.0 mm 1.35 in34.3 mm
10:46 AM 22.5°F-5.3°C 6.6°F-14.1°C 50% 10.0 mph WNW16.1 kmh WNW 12.0 mph19.3 kmh 30.09 in1019.0 mb 1.35 in34.3 mm 0.00 in0.0 mm 1.35 in34.3 mm
10:47 AM 22.5°F-5.3°C 6.6°F-14.1°C 50% 10.0 mph NW16.1 kmh NW 12.0 mph19.3 kmh 30.09 in1019.0 mb 1.35 in34.3 mm 0.00 in0.0 mm 1.35 in34.3 mm
10:48 AM 22.5°F-5.3°C 6.6°F-14.1°C 50% 12.0 mph NW19.3 kmh NW 15.0 mph24.1 kmh 30.10 in1019.3 mb 1.35 in34.3 mm 0.00 in0.0 mm 1.35 in34.3 mm
10:49 AM 22.3°F-5.4°C 6.4°F-14.2°C 50% 11.0 mph WNW17.7 kmh WNW 15.0 mph24.1 kmh 30.10 in1019.3 mb 1.35 in34.3 mm 0.00 in0.0 mm 1.35 in34.3 mm
10:50 AM 22.1°F-5.5°C 5.3°F-14.8°C 48% 9.0 mph WNW14.5 kmh WNW 15.0 mph24.1 kmh 30.10 in1019.3 mb 1.35 in34.3 mm 0.00 in0.0 mm 1.35 in34.3 mm
10:51 AM 22.1°F-5.5°C 6.2°F-14.3°C 50% 8.0 mph WNW12.9 kmh WNW 15.0 mph24.1 kmh 30.10 in1019.3 mb 1.35 in34.3 mm 0.00 in0.0 mm 1.35 in34.3 mm
10:52 AM 22.1°F-5.5°C 6.2°F-14.3°C 50% 12.0 mph W19.3 kmh W 15.0 mph24.1 kmh 30.10 in1019.3 mb 1.35 in34.3 mm 0.00 in0.0 mm 1.35 in34.3 mm
10:53 AM 22.3°F-5.4°C 6.8°F-14.0°C 51% 8.0 mph WNW12.9 kmh WNW 15.0 mph24.1 kmh 30.09 in1019.0 mb 1.35 in34.3 mm 0.00 in0.0 mm 1.35 in34.3 mm
10:54 AM 22.5°F-5.3°C 7.0°F-13.9°C 51% 8.0 mph WNW12.9 kmh WNW 15.0 mph24.1 kmh 30.10 in1019.3 mb 1.35 in34.3 mm 0.00 in0.0 mm 1.35 in34.3 mm
10:55 AM 22.5°F-5.3°C 7.9°F-13.4°C 53% 12.0 mph NW19.3 kmh NW 15.0 mph24.1 kmh 30.09 in1019.0 mb 1.35 in34.3 mm 0.00 in0.0 mm 1.35 in34.3 mm
10:56 AM 22.5°F-5.3°C 7.0°F-13.9°C 51% 13.0 mph WNW20.9 kmh WNW 16.0 mph25.7 kmh 30.09 in1019.0 mb 1.35 in34.3 mm 0.00 in0.0 mm 1.35 in34.3 mm
10:57 AM 22.5°F-5.3°C 7.0°F-13.9°C 51% 11.0 mph WNW17.7 kmh WNW 16.0 mph25.7 kmh 30.10 in1019.3 mb 1.35 in34.3 mm 0.00 in0.0 mm 1.35 in34.3 mm
10:58 AM 22.1°F-5.5°C 5.8°F-14.6°C 49% 11.0 mph NW17.7 kmh NW 16.0 mph25.7 kmh 30.10 in1019.3 mb 1.35 in34.3 mm 0.00 in0.0 mm 1.35 in34.3 mm
10:59 AM 22.1°F-5.5°C 5.8°F-14.6°C 49% 11.0 mph NW17.7 kmh NW 16.0 mph25.7 kmh 30.09 in1019.0 mb 1.35 in34.3 mm 0.00 in0.0 mm 1.35 in34.3 mm
11:00 AM 22.1°F-5.5°C 6.7°F-14.1°C 51% 16.0 mph NW25.7 kmh NW 16.0 mph25.7 kmh 30.09 in1019.0 mb 1.35 in34.3 mm 0.00 in0.0 mm 1.35 in34.3 mm
11:01 AM 22.1°F-5.5°C 6.2°F-14.3°C 50% 7.0 mph WNW11.3 kmh WNW 16.0 mph25.7 kmh 30.09 in1019.0 mb 1.35 in34.3 mm 0.00 in0.0 mm 1.35 in34.3 mm
11:02 AM 22.1°F-5.5°C 6.2°F-14.3°C 50% 11.0 mph NW17.7 kmh NW 16.0 mph25.7 kmh 30.09 in1019.0 mb 1.35 in34.3 mm 0.00 in0.0 mm 1.35 in34.3 mm
11:03 AM 22.3°F-5.4°C 6.4°F-14.2°C 50% 7.0 mph NE11.3 kmh NE 16.0 mph25.7 kmh 30.09 in1019.0 mb 1.35 in34.3 mm 0.00 in0.0 mm 1.35 in34.3 mm
11:04 AM 22.3°F-5.4°C 5.9°F-14.5°C 49% 12.0 mph NW19.3 kmh NW 16.0 mph25.7 kmh 30.09 in1019.0 mb 1.35 in34.3 mm 0.00 in0.0 mm 1.35 in34.3 mm
11:05 AM 22.3°F-5.4°C 5.9°F-14.5°C 49% 13.0 mph NNW20.9 kmh NNW 16.0 mph25.7 kmh 30.09 in1019.0 mb 1.35 in34.3 mm 0.00 in0.0 mm 1.35 in34.3 mm
11:06 AM 22.5°F-5.3°C 6.6°F-14.1°C 50% 9.0 mph NW14.5 kmh NW 16.0 mph25.7 kmh 30.09 in1019.0 mb 1.35 in34.3 mm 0.00 in0.0 mm 1.35 in34.3 mm
11:07 AM 22.5°F-5.3°C 6.6°F-14.1°C 50% 10.0 mph NW16.1 kmh NW 16.0 mph25.7 kmh 30.09 in1019.0 mb 1.35 in34.3 mm 0.00 in0.0 mm 1.35 in34.3 mm
11:08 AM 22.5°F-5.3°C 6.6°F-14.1°C 50% 11.0 mph NW17.7 kmh NW 16.0 mph25.7 kmh 30.09 in1019.0 mb 1.35 in34.3 mm 0.00 in0.0 mm 1.35 in34.3 mm
11:09 AM 22.5°F-5.3°C 7.0°F-13.9°C 51% 11.0 mph 17.7 kmh 16.0 mph25.7 kmh 30.09 in1019.0 mb 1.35 in34.3 mm 0.00 in0.0 mm 1.35 in34.3 mm
11:10 AM 22.5°F-5.3°C 5.7°F-14.6°C 48% 6.0 mph 9.7 kmh 15.0 mph24.1 kmh 30.10 in1019.3 mb 1.35 in34.3 mm 0.00 in0.0 mm 1.35 in34.3 mm
11:11 AM 22.5°F-5.3°C 6.1°F-14.4°C 49% 8.0 mph W12.9 kmh W 15.0 mph24.1 kmh 30.09 in1019.0 mb 1.35 in34.3 mm 0.00 in0.0 mm 1.35 in34.3 mm
11:12 AM 22.5°F-5.3°C 5.7°F-14.6°C 48% 5.0 mph NW8.0 kmh NW 15.0 mph24.1 kmh 30.10 in1019.3 mb 1.35 in34.3 mm 0.00 in0.0 mm 1.35 in34.3 mm
11:13 AM 22.5°F-5.3°C 6.1°F-14.4°C 49% 13.0 mph NNW20.9 kmh NNW 15.0 mph24.1 kmh 30.09 in1019.0 mb 1.35 in34.3 mm 0.00 in0.0 mm 1.35 in34.3 mm
11:14 AM 22.5°F-5.3°C 5.7°F-14.6°C 48% 6.0 mph WNW9.7 kmh WNW 14.0 mph22.5 kmh 30.10 in1019.3 mb 1.35 in34.3 mm 0.00 in0.0 mm 1.35 in34.3 mm
11:15 AM 22.5°F-5.3°C 5.7°F-14.6°C 48% 12.0 mph NW19.3 kmh NW 13.0 mph20.9 kmh 30.10 in1019.3 mb 1.35 in34.3 mm 0.00 in0.0 mm 1.35 in34.3 mm
11:16 AM 22.5°F-5.3°C 5.7°F-14.6°C 48% 6.0 mph W9.7 kmh W 13.0 mph20.9 kmh 30.10 in1019.3 mb 1.35 in34.3 mm 0.00 in0.0 mm 1.35 in34.3 mm
11:17 AM 22.7°F-5.2°C 6.3°F-14.3°C 49% 6.0 mph WNW9.7 kmh WNW 13.0 mph20.9 kmh 30.09 in1019.0 mb 1.35 in34.3 mm 0.00 in0.0 mm 1.35 in34.3 mm
11:18 AM 22.9°F-5.1°C 6.0°F-14.4°C 48% 8.0 mph NW12.9 kmh NW 13.0 mph20.9 kmh 30.09 in1019.0 mb 1.35 in34.3 mm 0.00 in0.0 mm 1.35 in34.3 mm
11:19 AM 22.9°F-5.1°C 6.5°F-14.2°C 49% 10.0 mph NW16.1 kmh NW 13.0 mph20.9 kmh 30.09 in1019.0 mb 1.35 in34.3 mm 0.00 in0.0 mm 1.35 in34.3 mm
11:20 AM 22.7°F-5.2°C 6.3°F-14.3°C 49% 12.0 mph 19.3 kmh 18.0 mph29.0 kmh 30.09 in1019.0 mb 1.35 in34.3 mm 0.00 in0.0 mm 1.35 in34.3 mm
11:21 AM 22.7°F-5.2°C 6.8°F-14.0°C 50% 12.0 mph W19.3 kmh W 18.0 mph29.0 kmh 30.09 in1019.0 mb 1.35 in34.3 mm 0.00 in0.0 mm 1.35 in34.3 mm
11:22 AM 22.7°F-5.2°C 5.8°F-14.6°C 48% 12.0 mph WNW19.3 kmh WNW 18.0 mph29.0 kmh 30.09 in1019.0 mb 1.35 in34.3 mm 0.00 in0.0 mm 1.35 in34.3 mm
11:23 AM 22.7°F-5.2°C 4.9°F-15.1°C 46% 9.0 mph W14.5 kmh W 18.0 mph29.0 kmh 30.09 in1019.0 mb 1.35 in34.3 mm 0.00 in0.0 mm 1.35 in34.3 mm
11:24 AM 22.7°F-5.2°C 5.8°F-14.6°C 48% 12.0 mph WNW19.3 kmh WNW 18.0 mph29.0 kmh 30.09 in1019.0 mb 1.35 in34.3 mm 0.00 in0.0 mm 1.35 in34.3 mm
11:25 AM 22.9°F-5.1°C 7.4°F-13.7°C 51% 13.0 mph WNW20.9 kmh WNW 18.0 mph29.0 kmh 30.10 in1019.3 mb 1.35 in34.3 mm 0.00 in0.0 mm 1.35 in34.3 mm
11:26 AM 22.5°F-5.3°C 6.1°F-14.4°C 49% 10.0 mph NW16.1 kmh NW 18.0 mph29.0 kmh 30.10 in1019.3 mb 1.35 in34.3 mm 0.00 in0.0 mm 1.35 in34.3 mm
11:27 AM 22.5°F-5.3°C 5.7°F-14.6°C 48% 8.0 mph NW12.9 kmh NW 18.0 mph29.0 kmh 30.10 in1019.3 mb 1.35 in34.3 mm 0.00 in0.0 mm 1.35 in34.3 mm
11:28 AM 22.5°F-5.3°C 5.7°F-14.6°C 48% 10.0 mph 16.1 kmh 18.0 mph29.0 kmh 30.09 in1019.0 mb 1.35 in34.3 mm 0.00 in0.0 mm 1.35 in34.3 mm
11:29 AM 22.5°F-5.3°C 6.1°F-14.4°C 49% 11.0 mph NW17.7 kmh NW 18.0 mph29.0 kmh 30.09 in1019.0 mb 1.35 in34.3 mm 0.00 in0.0 mm 1.35 in34.3 mm
11:30 AM 22.9°F-5.1°C 7.0°F-13.9°C 50% 7.0 mph NNW11.3 kmh NNW 14.0 mph22.5 kmh 30.09 in1019.0 mb 1.35 in34.3 mm 0.00 in0.0 mm 1.35 in34.3 mm
11:31 AM 22.9°F-5.1°C 6.5°F-14.2°C 49% 7.0 mph NNE11.3 kmh NNE 14.0 mph22.5 kmh 30.09 in1019.0 mb 1.35 in34.3 mm 0.00 in0.0 mm 1.35 in34.3 mm
11:32 AM 23.2°F-4.9°C 6.8°F-14.0°C 49% 15.0 mph WNW24.1 kmh WNW 16.0 mph25.7 kmh 30.09 in1019.0 mb 1.35 in34.3 mm 0.00 in0.0 mm 1.35 in34.3 mm
11:33 AM 23.2°F-4.9°C 5.3°F-14.8°C 46% 10.0 mph NW16.1 kmh NW 16.0 mph25.7 kmh 30.09 in1019.0 mb 1.35 in34.3 mm 0.00 in0.0 mm 1.35 in34.3 mm
11:34 AM 22.9°F-5.1°C 4.6°F-15.2°C 45% 10.0 mph 16.1 kmh 16.0 mph25.7 kmh 30.09 in1019.0 mb 1.35 in34.3 mm 0.00 in0.0 mm 1.35 in34.3 mm
11:35 AM 22.9°F-5.1°C 5.1°F-14.9°C 46% 8.0 mph NNW12.9 kmh NNW 16.0 mph25.7 kmh 30.08 in1018.6 mb 1.35 in34.3 mm 0.00 in0.0 mm 1.35 in34.3 mm
11:36 AM 23.2°F-4.9°C 5.3°F-14.8°C 46% 9.0 mph WNW14.5 kmh WNW 16.0 mph25.7 kmh 30.09 in1019.0 mb 1.35 in34.3 mm 0.00 in0.0 mm 1.35 in34.3 mm
11:37 AM 23.3°F-4.8°C 6.4°F-14.2°C 48% 11.0 mph NNW17.7 kmh NNW 16.0 mph25.7 kmh 30.08 in1018.6 mb 1.35 in34.3 mm 0.00 in0.0 mm 1.35 in34.3 mm
11:38 AM 23.3°F-4.8°C 6.4°F-14.2°C 48% 13.0 mph NW20.9 kmh NW 17.0 mph27.4 kmh 30.09 in1019.0 mb 1.35 in34.3 mm 0.00 in0.0 mm 1.35 in34.3 mm
11:39 AM 23.3°F-4.8°C 4.9°F-15.1°C 45% 8.0 mph WNW12.9 kmh WNW 17.0 mph27.4 kmh 30.09 in1019.0 mb 1.35 in34.3 mm 0.00 in0.0 mm 1.35 in34.3 mm
11:40 AM 23.4°F-4.8°C 6.5°F-14.2°C 48% 11.0 mph E17.7 kmh E 17.0 mph27.4 kmh 30.09 in1019.0 mb 1.35 in34.3 mm 0.00 in0.0 mm 1.35 in34.3 mm
11:41 AM 23.4°F-4.8°C 6.5°F-14.2°C 48% 12.0 mph NW19.3 kmh NW 17.0 mph27.4 kmh 30.09 in1019.0 mb 1.35 in34.3 mm 0.00 in0.0 mm 1.35 in34.3 mm
11:42 AM 23.2°F-4.9°C 5.3°F-14.8°C 46% 12.0 mph W19.3 kmh W 17.0 mph27.4 kmh 30.09 in1019.0 mb 1.35 in34.3 mm 0.00 in0.0 mm 1.35 in34.3 mm
11:43 AM 23.2°F-4.9°C 6.3°F-14.3°C 48% 10.0 mph WNW16.1 kmh WNW 17.0 mph27.4 kmh 30.09 in1019.0 mb 1.35 in34.3 mm 0.00 in0.0 mm 1.35 in34.3 mm
11:44 AM 23.2°F-4.9°C 5.3°F-14.8°C 46% 12.0 mph WNW19.3 kmh WNW 17.0 mph27.4 kmh 30.09 in1019.0 mb 1.35 in34.3 mm 0.00 in0.0 mm 1.35 in34.3 mm
11:45 AM 23.2°F-4.9°C 4.9°F-15.1°C 45% 12.0 mph WNW19.3 kmh WNW 17.0 mph27.4 kmh 30.09 in1019.0 mb 1.35 in34.3 mm 0.00 in0.0 mm 1.35 in34.3 mm
11:46 AM 23.2°F-4.9°C 4.9°F-15.1°C 45% 12.0 mph NW19.3 kmh NW 17.0 mph27.4 kmh 30.09 in1019.0 mb 1.35 in34.3 mm 0.00 in0.0 mm 1.35 in34.3 mm
11:47 AM 23.2°F-4.9°C 5.3°F-14.8°C 46% 14.0 mph NW22.5 kmh NW 17.0 mph27.4 kmh 30.09 in1019.0 mb 1.35 in34.3 mm 0.00 in0.0 mm 1.35 in34.3 mm
11:48 AM 23.2°F-4.9°C 6.3°F-14.3°C 48% 13.0 mph W20.9 kmh W 14.0 mph22.5 kmh 30.09 in1019.0 mb 1.35 in34.3 mm 0.00 in0.0 mm 1.35 in34.3 mm
11:49 AM 23.4°F-4.8°C 7.0°F-13.9°C 49% 9.0 mph NW14.5 kmh NW 14.0 mph22.5 kmh 30.09 in1019.0 mb 1.35 in34.3 mm 0.00 in0.0 mm 1.35 in34.3 mm
11:50 AM 23.4°F-4.8°C 6.5°F-14.2°C 48% 8.0 mph W12.9 kmh W 14.0 mph22.5 kmh 30.09 in1019.0 mb 1.35 in34.3 mm 0.00 in0.0 mm 1.35 in34.3 mm
11:51 AM 23.7°F-4.6°C 5.3°F-14.8°C 45% 7.0 mph WNW11.3 kmh WNW 14.0 mph22.5 kmh 30.08 in1018.6 mb 1.35 in34.3 mm 0.00 in0.0 mm 1.35 in34.3 mm
11:52 AM 23.7°F-4.6°C 5.8°F-14.6°C 46% 12.0 mph WNW19.3 kmh WNW 14.0 mph22.5 kmh 30.08 in1018.6 mb 1.35 in34.3 mm 0.00 in0.0 mm 1.35 in34.3 mm
11:53 AM 23.7°F-4.6°C 5.3°F-14.8°C 45% 11.0 mph NW17.7 kmh NW 14.0 mph22.5 kmh 30.09 in1019.0 mb 1.35 in34.3 mm 0.00 in0.0 mm 1.35 in34.3 mm
11:54 AM 23.7°F-4.6°C 4.8°F-15.1°C 44% 9.0 mph WNW14.5 kmh WNW 14.0 mph22.5 kmh 30.09 in1019.0 mb 1.35 in34.3 mm 0.00 in0.0 mm 1.35 in34.3 mm
11:55 AM 23.7°F-4.6°C 4.8°F-15.1°C 44% 15.0 mph WNW24.1 kmh WNW 15.0 mph24.1 kmh 30.09 in1019.0 mb 1.35 in34.3 mm 0.00 in0.0 mm 1.35 in34.3 mm
11:56 AM 23.4°F-4.8°C 4.5°F-15.3°C 44% 10.0 mph NW16.1 kmh NW 15.0 mph24.1 kmh 30.09 in1019.0 mb 1.35 in34.3 mm 0.00 in0.0 mm 1.35 in34.3 mm
11:57 AM 23.2°F-4.9°C 4.3°F-15.4°C 44% 10.0 mph NNW16.1 kmh NNW 15.0 mph24.1 kmh 30.08 in1018.6 mb 1.35 in34.3 mm 0.00 in0.0 mm 1.35 in34.3 mm
11:58 AM 23.2°F-4.9°C 4.9°F-15.1°C 45% 12.0 mph NW19.3 kmh NW 15.0 mph24.1 kmh 30.08 in1018.6 mb 1.35 in34.3 mm 0.00 in0.0 mm 1.35 in34.3 mm
11:59 AM 23.2°F-4.9°C 4.9°F-15.1°C 45% 10.0 mph NW16.1 kmh NW 15.0 mph24.1 kmh 30.08 in1018.6 mb 1.35 in34.3 mm 0.00 in0.0 mm 1.35 in34.3 mm
12:00 PM 22.9°F-5.1°C 4.1°F-15.5°C 44% 5.0 mph W8.0 kmh W 15.0 mph24.1 kmh 30.08 in1018.6 mb 1.35 in34.3 mm 0.00 in0.0 mm 1.35 in34.3 mm
12:01 PM 22.9°F-5.1°C 5.1°F-14.9°C 46% 7.0 mph WNW11.3 kmh WNW 15.0 mph24.1 kmh 30.08 in1018.6 mb 1.35 in34.3 mm 0.00 in0.0 mm 1.35 in34.3 mm
12:02 PM 23.2°F-4.9°C 6.8°F-14.0°C 49% 7.0 mph NNW11.3 kmh NNW 15.0 mph24.1 kmh 30.08 in1018.6 mb 1.35 in34.3 mm 0.00 in0.0 mm 1.35 in34.3 mm
12:03 PM 23.3°F-4.8°C 6.4°F-14.2°C 48% 8.0 mph NNW12.9 kmh NNW 15.0 mph24.1 kmh 30.08 in1018.6 mb 1.35 in34.3 mm 0.00 in0.0 mm 1.35 in34.3 mm
12:04 PM 23.3°F-4.8°C 6.4°F-14.2°C 48% 11.0 mph NW17.7 kmh NW 15.0 mph24.1 kmh 30.08 in1018.6 mb 1.35 in34.3 mm 0.00 in0.0 mm 1.35 in34.3 mm
12:05 PM 23.3°F-4.8°C 4.9°F-15.1°C 45% 15.0 mph NW24.1 kmh NW 15.0 mph24.1 kmh 30.08 in1018.6 mb 1.35 in34.3 mm 0.00 in0.0 mm 1.35 in34.3 mm
12:06 PM 23.4°F-4.8°C 5.0°F-15.0°C 45% 9.0 mph NW14.5 kmh NW 15.0 mph24.1 kmh 30.08 in1018.6 mb 1.35 in34.3 mm 0.00 in0.0 mm 1.35 in34.3 mm
12:07 PM 23.4°F-4.8°C 5.5°F-14.7°C 46% 12.0 mph WNW19.3 kmh WNW 15.0 mph24.1 kmh 30.08 in1018.6 mb 1.35 in34.3 mm 0.00 in0.0 mm 1.35 in34.3 mm
12:08 PM 23.3°F-4.8°C 4.9°F-15.1°C 45% 5.0 mph 8.0 kmh 15.0 mph24.1 kmh 30.08 in1018.6 mb 1.35 in34.3 mm 0.00 in0.0 mm 1.35 in34.3 mm
12:09 PM 23.2°F-4.9°C 4.9°F-15.1°C 45% 11.0 mph WNW17.7 kmh WNW 15.0 mph24.1 kmh 30.08 in1018.6 mb 1.35 in34.3 mm 0.00 in0.0 mm 1.35 in34.3 mm
12:10 PM 23.2°F-4.9°C 2.8°F-16.2°C 41% 8.0 mph WNW12.9 kmh WNW 15.0 mph24.1 kmh 30.08 in1018.6 mb 1.35 in34.3 mm 0.00 in0.0 mm 1.35 in34.3 mm
12:11 PM 23.2°F-4.9°C 1.7°F-16.8°C 39% 7.0 mph WNW11.3 kmh WNW 15.0 mph24.1 kmh 30.08 in1018.6 mb 1.35 in34.3 mm 0.00 in0.0 mm 1.35 in34.3 mm
12:12 PM 23.2°F-4.9°C 2.2°F-16.6°C 40% 9.0 mph NW14.5 kmh NW 15.0 mph24.1 kmh 30.08 in1018.6 mb 1.35 in34.3 mm 0.00 in0.0 mm 1.35 in34.3 mm
12:13 PM 23.4°F-4.8°C 4.5°F-15.3°C 44% 9.0 mph NW14.5 kmh NW 15.0 mph24.1 kmh 30.08 in1018.6 mb 1.35 in34.3 mm 0.00 in0.0 mm 1.35 in34.3 mm
12:14 PM 23.4°F-4.8°C 5.0°F-15.0°C 45% 12.0 mph WNW19.3 kmh WNW 15.0 mph24.1 kmh 30.08 in1018.6 mb 1.35 in34.3 mm 0.00 in0.0 mm 1.35 in34.3 mm
12:15 PM 23.4°F-4.8°C 4.5°F-15.3°C 44% 9.0 mph NW14.5 kmh NW 14.0 mph22.5 kmh 30.08 in1018.6 mb 1.35 in34.3 mm 0.00 in0.0 mm 1.35 in34.3 mm
12:16 PM 23.7°F-4.6°C 5.8°F-14.6°C 46% 6.0 mph NW9.7 kmh NW 13.0 mph20.9 kmh 30.08 in1018.6 mb 1.35 in34.3 mm 0.00 in0.0 mm 1.35 in34.3 mm
12:17 PM 23.8°F-4.6°C 7.3°F-13.7°C 49% 7.0 mph NW11.3 kmh NW 13.0 mph20.9 kmh 30.08 in1018.6 mb 1.35 in34.3 mm 0.00 in0.0 mm 1.35 in34.3 mm
12:18 PM 24.1°F-4.4°C 5.7°F-14.6°C 45% 6.0 mph NW9.7 kmh NW 13.0 mph20.9 kmh 30.08 in1018.6 mb 1.35 in34.3 mm 0.00 in0.0 mm 1.35 in34.3 mm
12:19 PM 24.1°F-4.4°C 4.7°F-15.2°C 43% 4.0 mph NW6.4 kmh NW 12.0 mph19.3 kmh 30.08 in1018.6 mb 1.35 in34.3 mm 0.00 in0.0 mm 1.35 in34.3 mm
12:20 PM 23.8°F-4.6°C 2.8°F-16.2°C 40% 4.0 mph WNW6.4 kmh WNW 12.0 mph19.3 kmh 30.08 in1018.6 mb 1.35 in34.3 mm 0.00 in0.0 mm 1.35 in34.3 mm
12:21 PM 24.2°F-4.3°C 5.3°F-14.8°C 44% 7.0 mph WSW11.3 kmh WSW 12.0 mph19.3 kmh 30.07 in1018.3 mb 1.35 in34.3 mm 0.00 in0.0 mm 1.35 in34.3 mm
12:22 PM 24.2°F-4.3°C 5.3°F-14.8°C 44% 6.0 mph WNW9.7 kmh WNW 12.0 mph19.3 kmh 30.08 in1018.6 mb 1.35 in34.3 mm 0.00 in0.0 mm 1.35 in34.3 mm
12:23 PM 24.6°F-4.1°C 5.1°F-14.9°C 43% 5.0 mph NW8.0 kmh NW 12.0 mph19.3 kmh 30.07 in1018.3 mb 1.35 in34.3 mm 0.00 in0.0 mm 1.35 in34.3 mm
12:24 PM 24.8°F-4.0°C 5.8°F-14.6°C 44% 6.0 mph W9.7 kmh W 12.0 mph19.3 kmh 30.08 in1018.6 mb 1.35 in34.3 mm 0.00 in0.0 mm 1.35 in34.3 mm
12:25 PM 25.0°F-3.9°C 5.5°F-14.7°C 43% 9.0 mph W14.5 kmh W 9.0 mph14.5 kmh 30.08 in1018.6 mb 1.35 in34.3 mm 0.00 in0.0 mm 1.35 in34.3 mm
12:26 PM 25.1°F-3.8°C 5.6°F-14.7°C 43% 13.0 mph WNW20.9 kmh WNW 13.0 mph20.9 kmh 30.08 in1018.6 mb 1.35 in34.3 mm 0.00 in0.0 mm 1.35 in34.3 mm
12:27 PM 25.1°F-3.8°C 5.6°F-14.7°C 43% 13.0 mph NW20.9 kmh NW 13.0 mph20.9 kmh 30.07 in1018.3 mb 1.35 in34.3 mm 0.00 in0.0 mm 1.35 in34.3 mm
12:28 PM 25.1°F-3.8°C 6.1°F-14.4°C 44% 10.0 mph WNW16.1 kmh WNW 16.0 mph25.7 kmh 30.08 in1018.6 mb 1.35 in34.3 mm 0.00 in0.0 mm 1.35 in34.3 mm
12:29 PM 25.1°F-3.8°C 6.6°F-14.1°C 45% 13.0 mph NW20.9 kmh NW 16.0 mph25.7 kmh 30.08 in1018.6 mb 1.35 in34.3 mm 0.00 in0.0 mm 1.35 in34.3 mm
12:30 PM 24.8°F-4.0°C 6.3°F-14.3°C 45% 10.0 mph WNW16.1 kmh WNW 16.0 mph25.7 kmh 30.08 in1018.6 mb 1.35 in34.3 mm 0.00 in0.0 mm 1.35 in34.3 mm
12:31 PM 24.8°F-4.0°C 6.3°F-14.3°C 45% 9.0 mph WNW14.5 kmh WNW 16.0 mph25.7 kmh 30.08 in1018.6 mb 1.35 in34.3 mm 0.00 in0.0 mm 1.35 in34.3 mm
12:32 PM 24.4°F-4.2°C 4.9°F-15.1°C 43% 10.0 mph WNW16.1 kmh WNW 16.0 mph25.7 kmh 30.08 in1018.6 mb 1.35 in34.3 mm 0.00 in0.0 mm 1.35 in34.3 mm
12:33 PM 24.2°F-4.3°C 5.8°F-14.6°C 45% 13.0 mph 20.9 kmh 16.0 mph25.7 kmh 30.08 in1018.6 mb 1.35 in34.3 mm 0.00 in0.0 mm 1.35 in34.3 mm
12:34 PM 24.1°F-4.4°C 5.7°F-14.6°C 45% 12.0 mph NW19.3 kmh NW 16.0 mph25.7 kmh 30.08 in1018.6 mb 1.35 in34.3 mm 0.00 in0.0 mm 1.35 in34.3 mm
12:35 PM 24.1°F-4.4°C 5.7°F-14.6°C 45% 15.0 mph NNE24.1 kmh NNE 16.0 mph25.7 kmh 30.07 in1018.3 mb 1.35 in34.3 mm 0.00 in0.0 mm 1.35 in34.3 mm
12:36 PM 23.8°F-4.6°C 5.4°F-14.8°C 45% 13.0 mph NW20.9 kmh NW 16.0 mph25.7 kmh 30.07 in1018.3 mb 1.35 in34.3 mm 0.00 in0.0 mm 1.35 in34.3 mm
12:37 PM 23.8°F-4.6°C 5.4°F-14.8°C 45% 13.0 mph NW20.9 kmh NW 16.0 mph25.7 kmh 30.08 in1018.6 mb 1.35 in34.3 mm 0.00 in0.0 mm 1.35 in34.3 mm
12:38 PM 23.7°F-4.6°C 5.3°F-14.8°C 45% 10.0 mph NE16.1 kmh NE 16.0 mph25.7 kmh 30.08 in1018.6 mb 1.35 in34.3 mm 0.00 in0.0 mm 1.35 in34.3 mm
12:39 PM 23.7°F-4.6°C 5.3°F-14.8°C 45% 10.0 mph NW16.1 kmh NW 16.0 mph25.7 kmh 30.08 in1018.6 mb 1.35 in34.3 mm 0.00 in0.0 mm 1.35 in34.3 mm
12:40 PM 24.1°F-4.4°C 5.7°F-14.6°C 45% 13.0 mph NNW20.9 kmh NNW 16.0 mph25.7 kmh 30.08 in1018.6 mb 1.35 in34.3 mm 0.00 in0.0 mm 1.35 in34.3 mm
12:41 PM 24.1°F-4.4°C 4.7°F-15.2°C 43% 11.0 mph NW17.7 kmh NW 16.0 mph25.7 kmh 30.07 in1018.3 mb 1.35 in34.3 mm 0.00 in0.0 mm 1.35 in34.3 mm
12:42 PM 24.2°F-4.3°C 4.7°F-15.2°C 43% 13.0 mph WNW20.9 kmh WNW 16.0 mph25.7 kmh 30.08 in1018.6 mb 1.35 in34.3 mm 0.00 in0.0 mm 1.35 in34.3 mm
12:43 PM 24.1°F-4.4°C 3.6°F-15.8°C 41% 9.0 mph WNW14.5 kmh WNW 16.0 mph25.7 kmh 30.08 in1018.6 mb 1.35 in34.3 mm 0.00 in0.0 mm 1.35 in34.3 mm
12:44 PM 23.8°F-4.6°C 3.3°F-15.9°C 41% 12.0 mph NW19.3 kmh NW 16.0 mph25.7 kmh 30.08 in1018.6 mb 1.35 in34.3 mm 0.00 in0.0 mm 1.35 in34.3 mm
12:45 PM 23.7°F-4.6°C 4.3°F-15.4°C 43% 13.0 mph NW20.9 kmh NW 16.0 mph25.7 kmh 30.08 in1018.6 mb 1.35 in34.3 mm 0.00 in0.0 mm 1.35 in34.3 mm
12:46 PM 23.7°F-4.6°C 4.3°F-15.4°C 43% 8.0 mph WNW12.9 kmh WNW 15.0 mph24.1 kmh 30.08 in1018.6 mb 1.35 in34.3 mm 0.00 in0.0 mm 1.35 in34.3 mm
12:47 PM 23.8°F-4.6°C 4.4°F-15.3°C 43% 18.0 mph WNW29.0 kmh WNW 18.0 mph29.0 kmh 30.08 in1018.6 mb 1.35 in34.3 mm 0.00 in0.0 mm 1.35 in34.3 mm
12:48 PM 24.1°F-4.4°C 3.1°F-16.1°C 40% 12.0 mph W19.3 kmh W 18.0 mph29.0 kmh 30.08 in1018.6 mb 1.35 in34.3 mm 0.00 in0.0 mm 1.35 in34.3 mm
12:49 PM 24.1°F-4.4°C 3.6°F-15.8°C 41% 12.0 mph NW19.3 kmh NW 18.0 mph29.0 kmh 30.08 in1018.6 mb 1.35 in34.3 mm 0.00 in0.0 mm 1.35 in34.3 mm
12:50 PM 24.2°F-4.3°C 4.7°F-15.2°C 43% 9.0 mph NW14.5 kmh NW 18.0 mph29.0 kmh 30.08 in1018.6 mb 1.35 in34.3 mm 0.00 in0.0 mm 1.35 in34.3 mm
12:51 PM 24.2°F-4.3°C 4.7°F-15.2°C 43% 5.0 mph NNW8.0 kmh NNW 18.0 mph29.0 kmh 30.08 in1018.6 mb 1.35 in34.3 mm 0.00 in0.0 mm 1.35 in34.3 mm
12:52 PM 24.4°F-4.2°C 3.9°F-15.6°C 41% 8.0 mph NW12.9 kmh NW 18.0 mph29.0 kmh 30.08 in1018.6 mb 1.35 in34.3 mm 0.00 in0.0 mm 1.35 in34.3 mm
12:53 PM 24.8°F-4.0°C 4.2°F-15.4°C 41% 8.0 mph NNW12.9 kmh NNW 18.0 mph29.0 kmh 30.07 in1018.3 mb 1.35 in34.3 mm 0.00 in0.0 mm 1.35 in34.3 mm
12:54 PM 25.0°F-3.9°C 4.4°F-15.3°C 41% 9.0 mph NNW14.5 kmh NNW 18.0 mph29.0 kmh 30.08 in1018.6 mb 1.35 in34.3 mm 0.00 in0.0 mm 1.35 in34.3 mm
12:55 PM 25.1°F-3.8°C 4.5°F-15.3°C 41% 7.0 mph NNE11.3 kmh NNE 18.0 mph29.0 kmh 30.08 in1018.6 mb 1.35 in34.3 mm 0.00 in0.0 mm 1.35 in34.3 mm
12:56 PM 25.1°F-3.8°C 5.6°F-14.7°C 43% 16.0 mph WNW25.7 kmh WNW 18.0 mph29.0 kmh 30.08 in1018.6 mb 1.35 in34.3 mm 0.00 in0.0 mm 1.35 in34.3 mm
12:57 PM 25.1°F-3.8°C 6.1°F-14.4°C 44% 12.0 mph W19.3 kmh W 20.0 mph32.2 kmh 30.08 in1018.6 mb 1.35 in34.3 mm 0.00 in0.0 mm 1.35 in34.3 mm
12:58 PM 25.1°F-3.8°C 4.0°F-15.6°C 40% 12.0 mph W19.3 kmh W 20.0 mph32.2 kmh 30.08 in1018.6 mb 1.35 in34.3 mm 0.00 in0.0 mm 1.35 in34.3 mm
12:59 PM 25.2°F-3.8°C 6.2°F-14.3°C 44% 15.0 mph WNW24.1 kmh WNW 20.0 mph32.2 kmh 30.08 in1018.6 mb 1.35 in34.3 mm 0.00 in0.0 mm 1.35 in34.3 mm
01:00 PM 25.2°F-3.8°C 6.7°F-14.1°C 45% 13.0 mph WNW20.9 kmh WNW 20.0 mph32.2 kmh 30.08 in1018.6 mb 1.35 in34.3 mm 0.00 in0.0 mm 1.35 in34.3 mm
01:01 PM 25.1°F-3.8°C 4.5°F-15.3°C 41% 11.0 mph NW17.7 kmh NW 20.0 mph32.2 kmh 30.08 in1018.6 mb 1.35 in34.3 mm 0.00 in0.0 mm 1.35 in34.3 mm
01:02 PM 25.0°F-3.9°C 3.9°F-15.6°C 40% 10.0 mph WNW16.1 kmh WNW 20.0 mph32.2 kmh 30.08 in1018.6 mb 1.35 in34.3 mm 0.00 in0.0 mm 1.35 in34.3 mm
01:03 PM 25.0°F-3.9°C 3.9°F-15.6°C 40% 11.0 mph NW17.7 kmh NW 20.0 mph32.2 kmh 30.07 in1018.3 mb 1.35 in34.3 mm 0.00 in0.0 mm 1.35 in34.3 mm
01:04 PM 25.0°F-3.9°C 3.9°F-15.6°C 40% 9.0 mph NW14.5 kmh NW 20.0 mph32.2 kmh 30.07 in1018.3 mb 1.35 in34.3 mm 0.00 in0.0 mm 1.35 in34.3 mm
01:05 PM 25.0°F-3.9°C 3.9°F-15.6°C 40% 9.0 mph NNE14.5 kmh NNE 20.0 mph32.2 kmh 30.07 in1018.3 mb 1.35 in34.3 mm 0.00 in0.0 mm 1.35 in34.3 mm
01:06 PM 25.2°F-3.8°C 4.0°F-15.6°C 40% 7.0 mph WNW11.3 kmh WNW 20.0 mph32.2 kmh 30.07 in1018.3 mb 1.35 in34.3 mm 0.00 in0.0 mm 1.35 in34.3 mm
01:07 PM 25.7°F-3.5°C 4.5°F-15.3°C 40% 5.0 mph NW8.0 kmh NW 17.0 mph27.4 kmh 30.07 in1018.3 mb 1.35 in34.3 mm 0.00 in0.0 mm 1.35 in34.3 mm
01:08 PM 25.9°F-3.4°C 4.7°F-15.2°C 40% 7.0 mph WSW11.3 kmh WSW 17.0 mph27.4 kmh 30.07 in1018.3 mb 1.35 in34.3 mm 0.00 in0.0 mm 1.35 in34.3 mm
01:09 PM 26.1°F-3.3°C 4.9°F-15.1°C 40% 8.0 mph WNW12.9 kmh WNW 17.0 mph27.4 kmh 30.07 in1018.3 mb 1.35 in34.3 mm 0.00 in0.0 mm 1.35 in34.3 mm
01:10 PM 26.1°F-3.3°C 5.4°F-14.8°C 41% 15.0 mph W24.1 kmh W 16.0 mph25.7 kmh 30.07 in1018.3 mb 1.35 in34.3 mm 0.00 in0.0 mm 1.35 in34.3 mm
01:11 PM 25.9°F-3.4°C 5.2°F-14.9°C 41% 10.0 mph W16.1 kmh W 15.0 mph24.1 kmh 30.07 in1018.3 mb 1.35 in34.3 mm 0.00 in0.0 mm 1.35 in34.3 mm
01:12 PM 25.4°F-3.7°C 2.5°F-16.4°C 37% 7.0 mph WNW11.3 kmh WNW 15.0 mph24.1 kmh 30.08 in1018.6 mb 1.35 in34.3 mm 0.00 in0.0 mm 1.35 in34.3 mm
01:13 PM 25.2°F-3.8°C 4.0°F-15.6°C 40% 11.0 mph W17.7 kmh W 15.0 mph24.1 kmh 30.07 in1018.3 mb 1.35 in34.3 mm 0.00 in0.0 mm 1.35 in34.3 mm
01:14 PM 25.2°F-3.8°C 5.7°F-14.6°C 43% 11.0 mph W17.7 kmh W 15.0 mph24.1 kmh 30.07 in1018.3 mb 1.35 in34.3 mm 0.00 in0.0 mm 1.35 in34.3 mm
01:15 PM 25.4°F-3.7°C 6.9°F-13.9°C 45% 10.0 mph WNW16.1 kmh WNW 15.0 mph24.1 kmh 30.07 in1018.3 mb 1.35 in34.3 mm 0.00 in0.0 mm 1.35 in34.3 mm
01:16 PM 25.7°F-3.5°C 6.6°F-14.1°C 44% 18.0 mph NW29.0 kmh NW 18.0 mph29.0 kmh 30.07 in1018.3 mb 1.35 in34.3 mm 0.00 in0.0 mm 1.35 in34.3 mm
01:17 PM 25.2°F-3.8°C 5.7°F-14.6°C 43% 19.0 mph NW30.6 kmh NW 19.0 mph30.6 kmh 30.07 in1018.3 mb 1.35 in34.3 mm 0.00 in0.0 mm 1.35 in34.3 mm
01:18 PM 25.1°F-3.8°C 5.6°F-14.7°C 43% 15.0 mph WNW24.1 kmh WNW 19.0 mph30.6 kmh 30.07 in1018.3 mb 1.35 in34.3 mm 0.00 in0.0 mm 1.35 in34.3 mm
01:19 PM 25.0°F-3.9°C 5.5°F-14.7°C 43% 10.0 mph WNW16.1 kmh WNW 19.0 mph30.6 kmh 30.07 in1018.3 mb 1.35 in34.3 mm 0.00 in0.0 mm 1.35 in34.3 mm
01:20 PM 25.0°F-3.9°C 4.4°F-15.3°C 41% 15.0 mph W24.1 kmh W 19.0 mph30.6 kmh 30.07 in1018.3 mb 1.35 in34.3 mm 0.00 in0.0 mm 1.35 in34.3 mm
01:21 PM 25.2°F-3.8°C 4.6°F-15.2°C 41% 10.0 mph NW16.1 kmh NW 19.0 mph30.6 kmh 30.07 in1018.3 mb 1.35 in34.3 mm 0.00 in0.0 mm 1.35 in34.3 mm
01:22 PM 25.7°F-3.5°C 5.0°F-15.0°C 41% 9.0 mph WNW14.5 kmh WNW 19.0 mph30.6 kmh 30.07 in1018.3 mb 1.35 in34.3 mm 0.00 in0.0 mm 1.35 in34.3 mm
01:23 PM 25.9°F-3.4°C 4.7°F-15.2°C 40% 9.0 mph WNW14.5 kmh WNW 19.0 mph30.6 kmh 30.07 in1018.3 mb 1.35 in34.3 mm 0.00 in0.0 mm 1.35 in34.3 mm
01:24 PM 25.9°F-3.4°C 4.7°F-15.2°C 40% 9.0 mph WNW14.5 kmh WNW 19.0 mph30.6 kmh 30.07 in1018.3 mb 1.35 in34.3 mm 0.00 in0.0 mm 1.35 in34.3 mm
01:25 PM 26.2°F-3.2°C 4.9°F-15.1°C 40% 12.0 mph W19.3 kmh W 19.0 mph30.6 kmh 30.07 in1018.3 mb 1.35 in34.3 mm 0.00 in0.0 mm 1.35 in34.3 mm
01:26 PM 26.2°F-3.2°C 3.2°F-16.0°C 37% 10.0 mph W16.1 kmh W 19.0 mph30.6 kmh 30.08 in1018.6 mb 1.35 in34.3 mm 0.00 in0.0 mm 1.35 in34.3 mm
01:27 PM 26.2°F-3.2°C 4.4°F-15.3°C 39% 9.0 mph W14.5 kmh W 17.0 mph27.4 kmh 30.07 in1018.3 mb 1.35 in34.3 mm 0.00 in0.0 mm 1.35 in34.3 mm
01:28 PM 26.2°F-3.2°C 2.0°F-16.7°C 35% 8.0 mph W12.9 kmh W 17.0 mph27.4 kmh 30.07 in1018.3 mb 1.35 in34.3 mm 0.00 in0.0 mm 1.35 in34.3 mm
01:29 PM 26.1°F-3.3°C 1.9°F-16.7°C 35% 8.0 mph WNW12.9 kmh WNW 17.0 mph27.4 kmh 30.07 in1018.3 mb 1.35 in34.3 mm 0.00 in0.0 mm 1.35 in34.3 mm
01:30 PM 26.1°F-3.3°C 3.1°F-16.1°C 37% 11.0 mph NW17.7 kmh NW 17.0 mph27.4 kmh 30.07 in1018.3 mb 1.35 in34.3 mm 0.00 in0.0 mm 1.35 in34.3 mm
01:31 PM 25.9°F-3.4°C 4.1°F-15.5°C 39% 12.0 mph W19.3 kmh W 13.0 mph20.9 kmh 30.07 in1018.3 mb 1.35 in34.3 mm 0.00 in0.0 mm 1.35 in34.3 mm
01:32 PM 25.9°F-3.4°C 4.7°F-15.2°C 40% 16.0 mph NW25.7 kmh NW 16.0 mph25.7 kmh 30.07 in1018.3 mb 1.35 in34.3 mm 0.00 in0.0 mm 1.35 in34.3 mm
01:33 PM 25.4°F-3.7°C 4.8°F-15.1°C 41% 15.0 mph NW24.1 kmh NW 16.0 mph25.7 kmh 30.07 in1018.3 mb 1.35 in34.3 mm 0.00 in0.0 mm 1.35 in34.3 mm
01:34 PM 25.2°F-3.8°C 5.7°F-14.6°C 43% 15.0 mph NW24.1 kmh NW 16.0 mph25.7 kmh 30.07 in1018.3 mb 1.35 in34.3 mm 0.00 in0.0 mm 1.35 in34.3 mm
01:35 PM 25.0°F-3.9°C 3.9°F-15.6°C 40% 10.0 mph NNW16.1 kmh NNW 16.0 mph25.7 kmh 30.07 in1018.3 mb 1.35 in34.3 mm 0.00 in0.0 mm 1.35 in34.3 mm
01:36 PM 25.0°F-3.9°C 4.4°F-15.3°C 41% 7.0 mph WNW11.3 kmh WNW 16.0 mph25.7 kmh 30.07 in1018.3 mb 1.35 in34.3 mm 0.00 in0.0 mm 1.35 in34.3 mm
01:37 PM 25.0°F-3.9°C 3.9°F-15.6°C 40% 11.0 mph WNW17.7 kmh WNW 16.0 mph25.7 kmh 30.07 in1018.3 mb 1.35 in34.3 mm 0.00 in0.0 mm 1.35 in34.3 mm
01:38 PM 25.0°F-3.9°C 3.9°F-15.6°C 40% 16.0 mph NW25.7 kmh NW 16.0 mph25.7 kmh 30.07 in1018.3 mb 1.35 in34.3 mm 0.00 in0.0 mm 1.35 in34.3 mm
01:39 PM 25.0°F-3.9°C 4.4°F-15.3°C 41% 12.0 mph W19.3 kmh W 16.0 mph25.7 kmh 30.07 in1018.3 mb 1.35 in34.3 mm 0.00 in0.0 mm 1.35 in34.3 mm
01:40 PM 25.0°F-3.9°C 5.5°F-14.7°C 43% 11.0 mph WNW17.7 kmh WNW 16.0 mph25.7 kmh 30.07 in1018.3 mb 1.35 in34.3 mm 0.00 in0.0 mm 1.35 in34.3 mm
01:41 PM 25.0°F-3.9°C 5.5°F-14.7°C 43% 13.0 mph WNW20.9 kmh WNW 16.0 mph25.7 kmh 30.07 in1018.3 mb 1.35 in34.3 mm 0.00 in0.0 mm 1.35 in34.3 mm
01:42 PM 25.2°F-3.8°C 3.5°F-15.8°C 39% 13.0 mph NW20.9 kmh NW 16.0 mph25.7 kmh 30.07 in1018.3 mb 1.35 in34.3 mm 0.00 in0.0 mm 1.35 in34.3 mm
01:43 PM 25.4°F-3.7°C 2.5°F-16.4°C 37% 13.0 mph WNW20.9 kmh WNW 16.0 mph25.7 kmh 30.07 in1018.3 mb 1.35 in34.3 mm 0.00 in0.0 mm 1.35 in34.3 mm
01:44 PM 25.7°F-3.5°C 4.5°F-15.3°C 40% 12.0 mph WNW19.3 kmh WNW 16.0 mph25.7 kmh 30.07 in1018.3 mb 1.35 in34.3 mm 0.00 in0.0 mm 1.35 in34.3 mm
01:45 PM 25.9°F-3.4°C 3.0°F-16.1°C 37% 17.0 mph W27.4 kmh W 17.0 mph27.4 kmh 30.07 in1018.3 mb 1.35 in34.3 mm 0.00 in0.0 mm 1.35 in34.3 mm
01:46 PM 25.7°F-3.5°C 3.9°F-15.6°C 39% 13.0 mph W20.9 kmh W 17.0 mph27.4 kmh 30.07 in1018.3 mb 1.35 in34.3 mm 0.00 in0.0 mm 1.35 in34.3 mm
01:47 PM 25.4°F-3.7°C 2.5°F-16.4°C 37% 7.0 mph W11.3 kmh W 17.0 mph27.4 kmh 30.07 in1018.3 mb 1.35 in34.3 mm 0.00 in0.0 mm 1.35 in34.3 mm
01:48 PM 25.4°F-3.7°C 4.2°F-15.4°C 40% 12.0 mph WNW19.3 kmh WNW 17.0 mph27.4 kmh 30.06 in1017.9 mb 1.35 in34.3 mm 0.00 in0.0 mm 1.35 in34.3 mm
01:49 PM 25.4°F-3.7°C 3.7°F-15.7°C 39% 16.0 mph WNW25.7 kmh WNW 17.0 mph27.4 kmh 30.07 in1018.3 mb 1.35 in34.3 mm 0.00 in0.0 mm 1.35 in34.3 mm
01:50 PM 25.2°F-3.8°C 4.0°F-15.6°C 40% 16.0 mph NW25.7 kmh NW 17.0 mph27.4 kmh 30.07 in1018.3 mb 1.35 in34.3 mm 0.00 in0.0 mm 1.35 in34.3 mm
01:51 PM 25.2°F-3.8°C 4.0°F-15.6°C 40% 11.0 mph WNW17.7 kmh WNW 17.0 mph27.4 kmh 30.07 in1018.3 mb 1.35 in34.3 mm 0.00 in0.0 mm 1.35 in34.3 mm
01:52 PM 25.2°F-3.8°C 6.7°F-14.1°C 45% 15.0 mph W24.1 kmh W 17.0 mph27.4 kmh 30.07 in1018.3 mb 1.35 in34.3 mm 0.00 in0.0 mm 1.35 in34.3 mm
01:53 PM 25.2°F-3.8°C 5.7°F-14.6°C 43% 11.0 mph W17.7 kmh W 17.0 mph27.4 kmh 30.07 in1018.3 mb 1.35 in34.3 mm 0.00 in0.0 mm 1.35 in34.3 mm
01:54 PM 25.1°F-3.8°C 4.5°F-15.3°C 41% 15.0 mph WNW24.1 kmh WNW 17.0 mph27.4 kmh 30.07 in1018.3 mb 1.35 in34.3 mm 0.00 in0.0 mm 1.35 in34.3 mm
01:55 PM 25.0°F-3.9°C 6.0°F-14.4°C 44% 18.0 mph NW29.0 kmh NW 22.0 mph35.4 kmh 30.07 in1018.3 mb 1.35 in34.3 mm 0.00 in0.0 mm 1.35 in34.3 mm
01:56 PM 24.8°F-4.0°C 3.7°F-15.7°C 40% 13.0 mph W20.9 kmh W 22.0 mph35.4 kmh 30.07 in1018.3 mb 1.35 in34.3 mm 0.00 in0.0 mm 1.35 in34.3 mm
01:57 PM 24.8°F-4.0°C 3.7°F-15.7°C 40% 12.0 mph WNW19.3 kmh WNW 22.0 mph35.4 kmh 30.07 in1018.3 mb 1.35 in34.3 mm 0.00 in0.0 mm 1.35 in34.3 mm
01:58 PM 24.8°F-4.0°C 3.7°F-15.7°C 40% 14.0 mph NW22.5 kmh NW 22.0 mph35.4 kmh 30.07 in1018.3 mb 1.35 in34.3 mm 0.00 in0.0 mm 1.35 in34.3 mm
01:59 PM 25.0°F-3.9°C 3.9°F-15.6°C 40% 11.0 mph NW17.7 kmh NW 22.0 mph35.4 kmh 30.07 in1018.3 mb 1.35 in34.3 mm 0.00 in0.0 mm 1.35 in34.3 mm
02:00 PM 25.1°F-3.8°C 4.0°F-15.6°C 40% 9.0 mph NW14.5 kmh NW 22.0 mph35.4 kmh 30.07 in1018.3 mb 1.35 in34.3 mm 0.00 in0.0 mm 1.35 in34.3 mm
02:01 PM 25.2°F-3.8°C 4.6°F-15.2°C 41% 8.0 mph NW12.9 kmh NW 22.0 mph35.4 kmh 30.06 in1017.9 mb 1.35 in34.3 mm 0.00 in0.0 mm 1.35 in34.3 mm
02:02 PM 25.9°F-3.4°C 5.2°F-14.9°C 41% 13.0 mph NW20.9 kmh NW 22.0 mph35.4 kmh 30.07 in1018.3 mb 1.35 in34.3 mm 0.00 in0.0 mm 1.35 in34.3 mm
02:03 PM 26.1°F-3.3°C 4.9°F-15.1°C 40% 9.0 mph W14.5 kmh W 22.0 mph35.4 kmh 30.06 in1017.9 mb 1.35 in34.3 mm 0.00 in0.0 mm 1.35 in34.3 mm
02:04 PM 26.3°F-3.2°C 5.0°F-15.0°C 40% 9.0 mph W14.5 kmh W 22.0 mph35.4 kmh 30.07 in1018.3 mb 1.35 in34.3 mm 0.00 in0.0 mm 1.35 in34.3 mm
02:05 PM 26.6°F-3.0°C 5.3°F-14.8°C 40% 10.0 mph W16.1 kmh W 16.0 mph25.7 kmh 30.06 in1017.9 mb 1.35 in34.3 mm 0.00 in0.0 mm 1.35 in34.3 mm
02:06 PM 26.7°F-2.9°C 5.4°F-14.8°C 40% 11.0 mph W17.7 kmh W 16.0 mph25.7 kmh 30.07 in1018.3 mb 1.35 in34.3 mm 0.00 in0.0 mm 1.35 in34.3 mm
02:07 PM 27.0°F-2.8°C 5.1°F-14.9°C 39% 17.0 mph W27.4 kmh W 17.0 mph27.4 kmh 30.06 in1017.9 mb 1.35 in34.3 mm 0.00 in0.0 mm 1.35 in34.3 mm
02:08 PM 26.6°F-3.0°C 4.7°F-15.2°C 39% 9.0 mph W14.5 kmh W 17.0 mph27.4 kmh 30.06 in1017.9 mb 1.35 in34.3 mm 0.00 in0.0 mm 1.35 in34.3 mm
02:09 PM 26.2°F-3.2°C 6.6°F-14.1°C 43% 13.0 mph SW20.9 kmh SW 17.0 mph27.4 kmh 30.06 in1017.9 mb 1.35 in34.3 mm 0.00 in0.0 mm 1.35 in34.3 mm
02:10 PM 26.1°F-3.3°C 4.9°F-15.1°C 40% 11.0 mph W17.7 kmh W 17.0 mph27.4 kmh 30.06 in1017.9 mb 1.35 in34.3 mm 0.00 in0.0 mm 1.35 in34.3 mm
02:11 PM 26.2°F-3.2°C 3.2°F-16.0°C 37% 13.0 mph WNW20.9 kmh WNW 17.0 mph27.4 kmh 30.06 in1017.9 mb 1.35 in34.3 mm 0.00 in0.0 mm 1.35 in34.3 mm
02:12 PM 26.2°F-3.2°C 4.4°F-15.3°C 39% 11.0 mph WNW17.7 kmh WNW 17.0 mph27.4 kmh 30.06 in1017.9 mb 1.35 in34.3 mm 0.00 in0.0 mm 1.35 in34.3 mm
02:13 PM 26.2°F-3.2°C 4.9°F-15.1°C 40% 14.0 mph NW22.5 kmh NW 17.0 mph27.4 kmh 30.06 in1017.9 mb 1.35 in34.3 mm 0.00 in0.0 mm 1.35 in34.3 mm
02:14 PM 26.2°F-3.2°C 4.9°F-15.1°C 40% 16.0 mph NW25.7 kmh NW 17.0 mph27.4 kmh 30.06 in1017.9 mb 1.35 in34.3 mm 0.00 in0.0 mm 1.35 in34.3 mm
02:15 PM 26.1°F-3.3°C 4.3°F-15.4°C 39% 14.0 mph NW22.5 kmh NW 17.0 mph27.4 kmh 30.06 in1017.9 mb 1.35 in34.3 mm 0.00 in0.0 mm 1.35 in34.3 mm
02:16 PM 25.7°F-3.5°C 4.5°F-15.3°C 40% 14.0 mph NW22.5 kmh NW 17.0 mph27.4 kmh 30.06 in1017.9 mb 1.35 in34.3 mm 0.00 in0.0 mm 1.35 in34.3 mm
02:17 PM 25.7°F-3.5°C 4.5°F-15.3°C 40% 12.0 mph NW19.3 kmh NW 17.0 mph27.4 kmh 30.06 in1017.9 mb 1.35 in34.3 mm 0.00 in0.0 mm 1.35 in34.3 mm
02:18 PM 25.7°F-3.5°C 5.0°F-15.0°C 41% 12.0 mph NNW19.3 kmh NNW 17.0 mph27.4 kmh 30.06 in1017.9 mb 1.35 in34.3 mm 0.00 in0.0 mm 1.35 in34.3 mm
02:19 PM 25.7°F-3.5°C 4.5°F-15.3°C 40% 7.0 mph NW11.3 kmh NW 17.0 mph27.4 kmh 30.06 in1017.9 mb 1.35 in34.3 mm 0.00 in0.0 mm 1.35 in34.3 mm
02:20 PM 25.7°F-3.5°C 4.5°F-15.3°C 40% 4.0 mph W6.4 kmh W 17.0 mph27.4 kmh 30.06 in1017.9 mb 1.35 in34.3 mm 0.00 in0.0 mm 1.35 in34.3 mm
02:21 PM 25.7°F-3.5°C 5.0°F-15.0°C 41% 7.0 mph WNW11.3 kmh WNW 17.0 mph27.4 kmh 30.06 in1017.9 mb 1.35 in34.3 mm 0.00 in0.0 mm 1.35 in34.3 mm
02:22 PM 25.7°F-3.5°C 5.0°F-15.0°C 41% 7.0 mph W11.3 kmh W 17.0 mph27.4 kmh 30.06 in1017.9 mb 1.35 in34.3 mm 0.00 in0.0 mm 1.35 in34.3 mm
02:23 PM 25.9°F-3.4°C 6.8°F-14.0°C 44% 12.0 mph W19.3 kmh W 17.0 mph27.4 kmh 30.06 in1017.9 mb 1.35 in34.3 mm 0.00 in0.0 mm 1.35 in34.3 mm
02:24 PM 25.9°F-3.4°C 5.2°F-14.9°C 41% 16.0 mph W25.7 kmh W 16.0 mph25.7 kmh 30.06 in1017.9 mb 1.35 in34.3 mm 0.00 in0.0 mm 1.35 in34.3 mm
02:25 PM 25.9°F-3.4°C 6.8°F-14.0°C 44% 13.0 mph W20.9 kmh W 16.0 mph25.7 kmh 30.07 in1018.3 mb 1.35 in34.3 mm 0.00 in0.0 mm 1.35 in34.3 mm
02:26 PM 25.7°F-3.5°C 6.1°F-14.4°C 43% 10.0 mph W16.1 kmh W 16.0 mph25.7 kmh 30.07 in1018.3 mb 1.35 in34.3 mm 0.00 in0.0 mm 1.35 in34.3 mm
02:27 PM 25.7°F-3.5°C 6.1°F-14.4°C 43% 10.0 mph W16.1 kmh W 16.0 mph25.7 kmh 30.06 in1017.9 mb 1.35 in34.3 mm 0.00 in0.0 mm 1.35 in34.3 mm
02:28 PM 25.4°F-3.7°C 4.2°F-15.4°C 40% 6.0 mph W9.7 kmh W 16.0 mph25.7 kmh 30.06 in1017.9 mb 1.35 in34.3 mm 0.00 in0.0 mm 1.35 in34.3 mm
02:29 PM 25.2°F-3.8°C 4.0°F-15.6°C 40% 7.0 mph W11.3 kmh W 16.0 mph25.7 kmh 30.06 in1017.9 mb 1.35 in34.3 mm 0.00 in0.0 mm 1.35 in34.3 mm
02:30 PM 25.4°F-3.7°C 6.4°F-14.2°C 44% 12.0 mph WNW19.3 kmh WNW 16.0 mph25.7 kmh 30.06 in1017.9 mb 1.35 in34.3 mm 0.00 in0.0 mm 1.35 in34.3 mm
02:31 PM 25.2°F-3.8°C 4.6°F-15.2°C 41% 9.0 mph W14.5 kmh W 16.0 mph25.7 kmh 30.06 in1017.9 mb 1.35 in34.3 mm 0.00 in0.0 mm 1.35 in34.3 mm
02:32 PM 25.2°F-3.8°C 5.7°F-14.6°C 43% 11.0 mph WNW17.7 kmh WNW 16.0 mph25.7 kmh 30.06 in1017.9 mb 1.35 in34.3 mm 0.00 in0.0 mm 1.35 in34.3 mm
02:33 PM 25.1°F-3.8°C 6.6°F-14.1°C 45% 10.0 mph WNW16.1 kmh WNW 16.0 mph25.7 kmh 30.07 in1018.3 mb 1.35 in34.3 mm 0.00 in0.0 mm 1.35 in34.3 mm
02:34 PM 25.0°F-3.9°C 6.0°F-14.4°C 44% 9.0 mph WNW14.5 kmh WNW 16.0 mph25.7 kmh 30.07 in1018.3 mb 1.35 in34.3 mm 0.00 in0.0 mm 1.35 in34.3 mm
02:35 PM 24.8°F-4.0°C 5.8°F-14.6°C 44% 8.0 mph WNW12.9 kmh WNW 14.0 mph22.5 kmh 30.06 in1017.9 mb 1.35 in34.3 mm 0.00 in0.0 mm 1.35 in34.3 mm
02:36 PM 24.4°F-4.2°C 4.9°F-15.1°C 43% 4.0 mph W6.4 kmh W 14.0 mph22.5 kmh 30.06 in1017.9 mb 1.35 in34.3 mm 0.00 in0.0 mm 1.35 in34.3 mm
02:37 PM 24.4°F-4.2°C 3.9°F-15.6°C 41% 2.0 mph SW3.2 kmh SW 14.0 mph22.5 kmh 30.06 in1017.9 mb 1.35 in34.3 mm 0.00 in0.0 mm 1.35 in34.3 mm
02:38 PM 24.6°F-4.1°C 5.6°F-14.7°C 44% 2.0 mph SW3.2 kmh SW 14.0 mph22.5 kmh 30.06 in1017.9 mb 1.35 in34.3 mm 0.00 in0.0 mm 1.35 in34.3 mm
02:39 PM 25.0°F-3.9°C 5.5°F-14.7°C 43% 3.0 mph WNW4.8 kmh WNW 14.0 mph22.5 kmh 30.06 in1017.9 mb 1.35 in34.3 mm 0.00 in0.0 mm 1.35 in34.3 mm
02:40 PM 25.2°F-3.8°C 4.6°F-15.2°C 41% 7.0 mph WNW11.3 kmh WNW 14.0 mph22.5 kmh 30.06 in1017.9 mb 1.35 in34.3 mm 0.00 in0.0 mm 1.35 in34.3 mm
02:41 PM 26.1°F-3.3°C 6.5°F-14.2°C 43% 6.0 mph WNW9.7 kmh WNW 14.0 mph22.5 kmh 30.05 in1017.6 mb 1.35 in34.3 mm 0.00 in0.0 mm 1.35 in34.3 mm
02:42 PM 26.3°F-3.2°C 6.7°F-14.1°C 43% 7.0 mph NW11.3 kmh NW 14.0 mph22.5 kmh 30.05 in1017.6 mb 1.35 in34.3 mm 0.00 in0.0 mm 1.35 in34.3 mm
02:43 PM 26.7°F-2.9°C 6.0°F-14.4°C 41% 8.0 mph NW12.9 kmh NW 11.0 mph17.7 kmh 30.05 in1017.6 mb 1.35 in34.3 mm 0.00 in0.0 mm 1.35 in34.3 mm
02:44 PM 26.6°F-3.0°C 5.9°F-14.5°C 41% 7.0 mph W11.3 kmh W 9.0 mph14.5 kmh 30.05 in1017.6 mb 1.35 in34.3 mm 0.00 in0.0 mm 1.35 in34.3 mm
02:45 PM 26.2°F-3.2°C 4.9°F-15.1°C 40% 18.0 mph NW29.0 kmh NW 18.0 mph29.0 kmh 30.05 in1017.6 mb 1.35 in34.3 mm 0.00 in0.0 mm 1.35 in34.3 mm
02:46 PM 26.1°F-3.3°C 4.9°F-15.1°C 40% 15.0 mph NW24.1 kmh NW 18.0 mph29.0 kmh 30.06 in1017.9 mb 1.35 in34.3 mm 0.00 in0.0 mm 1.35 in34.3 mm
02:47 PM 25.7°F-3.5°C 3.9°F-15.6°C 39% 10.0 mph WNW16.1 kmh WNW 18.0 mph29.0 kmh 30.05 in1017.6 mb 1.35 in34.3 mm 0.00 in0.0 mm 1.35 in34.3 mm
02:48 PM 25.1°F-3.8°C 2.2°F-16.6°C 37% 8.0 mph WNW12.9 kmh WNW 18.0 mph29.0 kmh 30.06 in1017.9 mb 1.35 in34.3 mm 0.00 in0.0 mm 1.35 in34.3 mm
02:49 PM 25.1°F-3.8°C 4.0°F-15.6°C 40% 9.0 mph WNW14.5 kmh WNW 18.0 mph29.0 kmh 30.05 in1017.6 mb 1.35 in34.3 mm 0.00 in0.0 mm 1.35 in34.3 mm
02:50 PM 25.1°F-3.8°C 4.0°F-15.6°C 40% 8.0 mph WNW12.9 kmh WNW 18.0 mph29.0 kmh 30.05 in1017.6 mb 1.35 in34.3 mm 0.00 in0.0 mm 1.35 in34.3 mm
02:51 PM 25.0°F-3.9°C 3.3°F-15.9°C 39% 11.0 mph NW17.7 kmh NW 18.0 mph29.0 kmh 30.05 in1017.6 mb 1.35 in34.3 mm 0.00 in0.0 mm 1.35 in34.3 mm
02:52 PM 25.0°F-3.9°C 3.9°F-15.6°C 40% 21.0 mph NW33.8 kmh NW 24.0 mph38.6 kmh 30.06 in1017.9 mb 1.35 in34.3 mm 0.00 in0.0 mm 1.35 in34.3 mm
02:53 PM 24.8°F-4.0°C 3.7°F-15.7°C 40% 18.0 mph NW29.0 kmh NW 24.0 mph38.6 kmh 30.05 in1017.6 mb 1.35 in34.3 mm 0.00 in0.0 mm 1.35 in34.3 mm
02:54 PM 24.8°F-4.0°C 4.2°F-15.4°C 41% 15.0 mph NW24.1 kmh NW 24.0 mph38.6 kmh 30.05 in1017.6 mb 1.35 in34.3 mm 0.00 in0.0 mm 1.35 in34.3 mm
02:55 PM 24.8°F-4.0°C 5.3°F-14.8°C 43% 17.0 mph NW27.4 kmh NW 24.0 mph38.6 kmh 30.05 in1017.6 mb 1.35 in34.3 mm 0.00 in0.0 mm 1.35 in34.3 mm
02:56 PM 24.8°F-4.0°C 5.8°F-14.6°C 44% 16.0 mph NW25.7 kmh NW 24.0 mph38.6 kmh 30.05 in1017.6 mb 1.35 in34.3 mm 0.00 in0.0 mm 1.35 in34.3 mm
02:57 PM 24.8°F-4.0°C 6.3°F-14.3°C 45% 13.0 mph NW20.9 kmh NW 24.0 mph38.6 kmh 30.05 in1017.6 mb 1.35 in34.3 mm 0.00 in0.0 mm 1.35 in34.3 mm
02:58 PM 24.8°F-4.0°C 6.3°F-14.3°C 45% 12.0 mph NW19.3 kmh NW 24.0 mph38.6 kmh 30.05 in1017.6 mb 1.35 in34.3 mm 0.00 in0.0 mm 1.35 in34.3 mm
02:59 PM 24.8°F-4.0°C 5.8°F-14.6°C 44% 10.0 mph NW16.1 kmh NW 24.0 mph38.6 kmh 30.05 in1017.6 mb 1.35 in34.3 mm 0.00 in0.0 mm 1.35 in34.3 mm
03:00 PM 24.8°F-4.0°C 6.3°F-14.3°C 45% 10.0 mph NNW16.1 kmh NNW 24.0 mph38.6 kmh 30.05 in1017.6 mb 1.35 in34.3 mm 0.00 in0.0 mm 1.35 in34.3 mm
03:01 PM 24.8°F-4.0°C 5.8°F-14.6°C 44% 9.0 mph NW14.5 kmh NW 24.0 mph38.6 kmh 30.05 in1017.6 mb 1.35 in34.3 mm 0.00 in0.0 mm 1.35 in34.3 mm
03:02 PM 25.0°F-3.9°C 6.0°F-14.4°C 44% 12.0 mph NNW19.3 kmh NNW 19.0 mph30.6 kmh 30.05 in1017.6 mb 1.35 in34.3 mm 0.00 in0.0 mm 1.35 in34.3 mm
03:03 PM 25.0°F-3.9°C 4.4°F-15.3°C 41% 7.0 mph NNW11.3 kmh NNW 19.0 mph30.6 kmh 30.05 in1017.6 mb 1.35 in34.3 mm 0.00 in0.0 mm 1.35 in34.3 mm
03:04 PM 25.1°F-3.8°C 4.5°F-15.3°C 41% 10.0 mph NNW16.1 kmh NNW 19.0 mph30.6 kmh 30.05 in1017.6 mb 1.35 in34.3 mm 0.00 in0.0 mm 1.35 in34.3 mm
03:05 PM 25.2°F-3.8°C 5.7°F-14.6°C 43% 8.0 mph NNW12.9 kmh NNW 19.0 mph30.6 kmh 30.05 in1017.6 mb 1.35 in34.3 mm 0.00 in0.0 mm 1.35 in34.3 mm
03:06 PM 25.7°F-3.5°C 6.1°F-14.4°C 43% 7.0 mph NW11.3 kmh NW 17.0 mph27.4 kmh 30.05 in1017.6 mb 1.35 in34.3 mm 0.00 in0.0 mm 1.35 in34.3 mm
03:07 PM 25.7°F-3.5°C 6.1°F-14.4°C 43% 10.0 mph NNW16.1 kmh NNW 17.0 mph27.4 kmh 30.05 in1017.6 mb 1.35 in34.3 mm 0.00 in0.0 mm 1.35 in34.3 mm
03:08 PM 25.9°F-3.4°C 6.8°F-14.0°C 44% 7.0 mph NW11.3 kmh NW 12.0 mph19.3 kmh 30.05 in1017.6 mb 1.35 in34.3 mm 0.00 in0.0 mm 1.35 in34.3 mm
03:09 PM 25.9°F-3.4°C 6.8°F-14.0°C 44% 10.0 mph NNW16.1 kmh NNW 12.0 mph19.3 kmh 30.04 in1017.3 mb 1.35 in34.3 mm 0.00 in0.0 mm 1.35 in34.3 mm
03:10 PM 25.9°F-3.4°C 6.3°F-14.3°C 43% 15.0 mph NW24.1 kmh NW 16.0 mph25.7 kmh 30.05 in1017.6 mb 1.35 in34.3 mm 0.00 in0.0 mm 1.35 in34.3 mm
03:11 PM 25.9°F-3.4°C 4.7°F-15.2°C 40% 12.0 mph NW19.3 kmh NW 16.0 mph25.7 kmh 30.05 in1017.6 mb 1.35 in34.3 mm 0.00 in0.0 mm 1.35 in34.3 mm
03:12 PM 25.9°F-3.4°C 7.3°F-13.7°C 45% 10.0 mph ENE16.1 kmh ENE 16.0 mph25.7 kmh 30.05 in1017.6 mb 1.35 in34.3 mm 0.00 in0.0 mm 1.35 in34.3 mm
03:13 PM 25.7°F-3.5°C 4.5°F-15.3°C 40% 8.0 mph WNW12.9 kmh WNW 16.0 mph25.7 kmh 30.05 in1017.6 mb 1.35 in34.3 mm 0.00 in0.0 mm 1.35 in34.3 mm
03:14 PM 25.7°F-3.5°C 3.9°F-15.6°C 39% 4.0 mph W6.4 kmh W 16.0 mph25.7 kmh 30.05 in1017.6 mb 1.35 in34.3 mm 0.00 in0.0 mm 1.35 in34.3 mm
03:15 PM 25.7°F-3.5°C 3.9°F-15.6°C 39% 10.0 mph NW16.1 kmh NW 16.0 mph25.7 kmh 30.05 in1017.6 mb 1.35 in34.3 mm 0.00 in0.0 mm 1.35 in34.3 mm
03:16 PM 25.4°F-3.7°C 3.7°F-15.7°C 39% 12.0 mph W19.3 kmh W 16.0 mph25.7 kmh 30.05 in1017.6 mb 1.35 in34.3 mm 0.00 in0.0 mm 1.35 in34.3 mm
03:17 PM 25.4°F-3.7°C 3.7°F-15.7°C 39% 12.0 mph WSW19.3 kmh WSW 16.0 mph25.7 kmh 30.05 in1017.6 mb 1.35 in34.3 mm 0.00 in0.0 mm 1.35 in34.3 mm
03:18 PM 25.2°F-3.8°C 3.5°F-15.8°C 39% 17.0 mph W27.4 kmh W 17.0 mph27.4 kmh 30.06 in1017.9 mb 1.35 in34.3 mm 0.00 in0.0 mm 1.35 in34.3 mm
03:19 PM 25.2°F-3.8°C 4.0°F-15.6°C 40% 9.0 mph WSW14.5 kmh WSW 17.0 mph27.4 kmh 30.06 in1017.9 mb 1.35 in34.3 mm 0.00 in0.0 mm 1.35 in34.3 mm
03:20 PM 25.2°F-3.8°C 4.6°F-15.2°C 41% 12.0 mph W19.3 kmh W 17.0 mph27.4 kmh 30.06 in1017.9 mb 1.35 in34.3 mm 0.00 in0.0 mm 1.35 in34.3 mm
03:21 PM 25.1°F-3.8°C 4.5°F-15.3°C 41% 12.0 mph WNW19.3 kmh WNW 17.0 mph27.4 kmh 30.06 in1017.9 mb 1.35 in34.3 mm 0.00 in0.0 mm 1.35 in34.3 mm
03:22 PM 25.1°F-3.8°C 5.6°F-14.7°C 43% 12.0 mph W19.3 kmh W 17.0 mph27.4 kmh 30.06 in1017.9 mb 1.35 in34.3 mm 0.00 in0.0 mm 1.35 in34.3 mm
03:23 PM 25.1°F-3.8°C 6.1°F-14.4°C 44% 14.0 mph NW22.5 kmh NW 17.0 mph27.4 kmh 30.06 in1017.9 mb 1.35 in34.3 mm 0.00 in0.0 mm 1.35 in34.3 mm
03:24 PM 25.1°F-3.8°C 6.6°F-14.1°C 45% 8.0 mph WNW12.9 kmh WNW 17.0 mph27.4 kmh 30.05 in1017.6 mb 1.35 in34.3 mm 0.00 in0.0 mm 1.35 in34.3 mm
03:25 PM 25.1°F-3.8°C 6.6°F-14.1°C 45% 9.0 mph NW14.5 kmh NW 17.0 mph27.4 kmh 30.05 in1017.6 mb 1.35 in34.3 mm 0.00 in0.0 mm 1.35 in34.3 mm
03:26 PM 25.1°F-3.8°C 6.1°F-14.4°C 44% 11.0 mph NW17.7 kmh NW 17.0 mph27.4 kmh 30.05 in1017.6 mb 1.35 in34.3 mm 0.00 in0.0 mm 1.35 in34.3 mm
03:27 PM 25.1°F-3.8°C 6.6°F-14.1°C 45% 13.0 mph WNW20.9 kmh WNW 17.0 mph27.4 kmh 30.05 in1017.6 mb 1.35 in34.3 mm 0.00 in0.0 mm 1.35 in34.3 mm
03:28 PM 25.1°F-3.8°C 7.1°F-13.8°C 46% 10.0 mph NW16.1 kmh NW 17.0 mph27.4 kmh 30.06 in1017.9 mb 1.35 in34.3 mm 0.00 in0.0 mm 1.35 in34.3 mm
03:29 PM 25.1°F-3.8°C 6.6°F-14.1°C 45% 10.0 mph 16.1 kmh 14.0 mph22.5 kmh 30.06 in1017.9 mb 1.35 in34.3 mm 0.00 in0.0 mm 1.35 in34.3 mm
03:30 PM 25.2°F-3.8°C 6.7°F-14.1°C 45% 8.0 mph NNW12.9 kmh NNW 14.0 mph22.5 kmh 30.06 in1017.9 mb 1.35 in34.3 mm 0.00 in0.0 mm 1.35 in34.3 mm
03:31 PM 25.2°F-3.8°C 6.7°F-14.1°C 45% 11.0 mph NNW17.7 kmh NNW 14.0 mph22.5 kmh 30.06 in1017.9 mb 1.35 in34.3 mm 0.00 in0.0 mm 1.35 in34.3 mm
03:32 PM 25.4°F-3.7°C 6.9°F-13.9°C 45% 8.0 mph NNW12.9 kmh NNW 14.0 mph22.5 kmh 30.06 in1017.9 mb 1.35 in34.3 mm 0.00 in0.0 mm 1.35 in34.3 mm
03:33 PM 25.2°F-3.8°C 7.2°F-13.8°C 46% 8.0 mph WNW12.9 kmh WNW 13.0 mph20.9 kmh 30.06 in1017.9 mb 1.35 in34.3 mm 0.00 in0.0 mm 1.35 in34.3 mm
03:34 PM 25.4°F-3.7°C 9.3°F-12.6°C 50% 9.0 mph 14.5 kmh 13.0 mph20.9 kmh 30.06 in1017.9 mb 1.35 in34.3 mm 0.00 in0.0 mm 1.35 in34.3 mm
03:35 PM 25.7°F-3.5°C 9.1°F-12.7°C 49% 15.0 mph NW24.1 kmh NW 15.0 mph24.1 kmh 30.06 in1017.9 mb 1.35 in34.3 mm 0.00 in0.0 mm 1.35 in34.3 mm
03:36 PM 25.4°F-3.7°C 6.9°F-13.9°C 45% 8.0 mph NW12.9 kmh NW 15.0 mph24.1 kmh 30.06 in1017.9 mb 1.35 in34.3 mm 0.00 in0.0 mm 1.35 in34.3 mm
03:37 PM 25.7°F-3.5°C 7.1°F-13.8°C 45% 8.0 mph NW12.9 kmh NW 15.0 mph24.1 kmh 30.05 in1017.6 mb 1.35 in34.3 mm 0.00 in0.0 mm 1.35 in34.3 mm
03:38 PM 25.9°F-3.4°C 7.3°F-13.7°C 45% 6.0 mph NW9.7 kmh NW 15.0 mph24.1 kmh 30.06 in1017.9 mb 1.35 in34.3 mm 0.00 in0.0 mm 1.35 in34.3 mm
03:39 PM 26.2°F-3.2°C 6.6°F-14.1°C 43% 11.0 mph NW17.7 kmh NW 15.0 mph24.1 kmh 30.05 in1017.6 mb 1.35 in34.3 mm 0.00 in0.0 mm 1.35 in34.3 mm
03:40 PM 26.6°F-3.0°C 6.9°F-13.9°C 43% 6.0 mph 9.7 kmh 15.0 mph24.1 kmh 30.06 in1017.9 mb 1.35 in34.3 mm 0.00 in0.0 mm 1.35 in34.3 mm
03:41 PM 26.7°F-2.9°C 7.0°F-13.9°C 43% 8.0 mph NNW12.9 kmh NNW 15.0 mph24.1 kmh 30.05 in1017.6 mb 1.35 in34.3 mm 0.00 in0.0 mm 1.35 in34.3 mm
03:42 PM 27.1°F-2.7°C 8.4°F-13.1°C 45% 8.0 mph NW12.9 kmh NW 15.0 mph24.1 kmh 30.05 in1017.6 mb 1.35 in34.3 mm 0.00 in0.0 mm 1.35 in34.3 mm
03:43 PM 27.5°F-2.5°C 8.8°F-12.9°C 45% 8.0 mph NNW12.9 kmh NNW 15.0 mph24.1 kmh 30.05 in1017.6 mb 1.35 in34.3 mm 0.00 in0.0 mm 1.35 in34.3 mm
03:44 PM 27.6°F-2.4°C 7.8°F-13.4°C 43% 12.0 mph NW19.3 kmh NW 15.0 mph24.1 kmh 30.06 in1017.9 mb 1.35 in34.3 mm 0.00 in0.0 mm 1.35 in34.3 mm
03:45 PM 27.9°F-2.3°C 6.5°F-14.2°C 40% 10.0 mph NW16.1 kmh NW 13.0 mph20.9 kmh 30.06 in1017.9 mb 1.35 in34.3 mm 0.00 in0.0 mm 1.35 in34.3 mm
03:46 PM 28.2°F-2.1°C 7.3°F-13.7°C 41% 16.0 mph NNW25.7 kmh NNW 16.0 mph25.7 kmh 30.06 in1017.9 mb 1.35 in34.3 mm 0.00 in0.0 mm 1.35 in34.3 mm
03:47 PM 28.2°F-2.1°C 6.8°F-14.0°C 40% 17.0 mph WNW27.4 kmh WNW 17.0 mph27.4 kmh 30.05 in1017.6 mb 1.35 in34.3 mm 0.00 in0.0 mm 1.35 in34.3 mm
03:48 PM 27.9°F-2.3°C 5.9°F-14.5°C 39% 19.0 mph NW30.6 kmh NW 19.0 mph30.6 kmh 30.07 in1018.3 mb 1.35 in34.3 mm 0.00 in0.0 mm 1.35 in34.3 mm
03:49 PM 27.8°F-2.3°C 6.4°F-14.2°C 40% 16.0 mph W25.7 kmh W 19.0 mph30.6 kmh 30.06 in1017.9 mb 1.35 in34.3 mm 0.00 in0.0 mm 1.35 in34.3 mm
03:50 PM 27.6°F-2.4°C 6.2°F-14.3°C 40% 17.0 mph W27.4 kmh W 19.0 mph30.6 kmh 30.06 in1017.9 mb 1.35 in34.3 mm 0.00 in0.0 mm 1.35 in34.3 mm
03:51 PM 27.6°F-2.4°C 6.8°F-14.0°C 41% 12.0 mph W19.3 kmh W 19.0 mph30.6 kmh 30.06 in1017.9 mb 1.35 in34.3 mm 0.00 in0.0 mm 1.35 in34.3 mm
03:52 PM 27.6°F-2.4°C 6.2°F-14.3°C 40% 13.0 mph W20.9 kmh W 19.0 mph30.6 kmh 30.07 in1018.3 mb 1.35 in34.3 mm 0.00 in0.0 mm 1.35 in34.3 mm
03:53 PM 27.5°F-2.5°C 6.1°F-14.4°C 40% 13.0 mph W20.9 kmh W 19.0 mph30.6 kmh 30.06 in1017.9 mb 1.35 in34.3 mm 0.00 in0.0 mm 1.35 in34.3 mm
03:54 PM 27.5°F-2.5°C 6.1°F-14.4°C 40% 15.0 mph WNW24.1 kmh WNW 19.0 mph30.6 kmh 30.07 in1018.3 mb 1.35 in34.3 mm 0.00 in0.0 mm 1.35 in34.3 mm
03:55 PM 27.3°F-2.6°C 6.5°F-14.2°C 41% 15.0 mph WNW24.1 kmh WNW 19.0 mph30.6 kmh 30.06 in1017.9 mb 1.35 in34.3 mm 0.00 in0.0 mm 1.35 in34.3 mm
03:56 PM 27.3°F-2.6°C 5.9°F-14.5°C 40% 11.0 mph W17.7 kmh W 19.0 mph30.6 kmh 30.07 in1018.3 mb 1.35 in34.3 mm 0.00 in0.0 mm 1.35 in34.3 mm
03:57 PM 27.1°F-2.7°C 5.8°F-14.6°C 40% 15.0 mph W24.1 kmh W 20.0 mph32.2 kmh 30.06 in1017.9 mb 1.35 in34.3 mm 0.00 in0.0 mm 1.35 in34.3 mm
03:58 PM 27.1°F-2.7°C 5.8°F-14.6°C 40% 15.0 mph WNW24.1 kmh WNW 20.0 mph32.2 kmh 30.06 in1017.9 mb 1.35 in34.3 mm 0.00 in0.0 mm 1.35 in34.3 mm
03:59 PM 27.1°F-2.7°C 5.2°F-14.9°C 39% 17.0 mph WNW27.4 kmh WNW 20.0 mph32.2 kmh 30.06 in1017.9 mb 1.35 in34.3 mm 0.00 in0.0 mm 1.35 in34.3 mm
04:00 PM 27.1°F-2.7°C 5.8°F-14.6°C 40% 8.0 mph 12.9 kmh 20.0 mph32.2 kmh 30.07 in1018.3 mb 1.35 in34.3 mm 0.00 in0.0 mm 1.35 in34.3 mm
04:01 PM 27.0°F-2.8°C 5.7°F-14.6°C 40% 17.0 mph NW27.4 kmh NW 20.0 mph32.2 kmh 30.06 in1017.9 mb 1.35 in34.3 mm 0.00 in0.0 mm 1.35 in34.3 mm
04:02 PM 27.0°F-2.8°C 5.1°F-14.9°C 39% 12.0 mph NW19.3 kmh NW 20.0 mph32.2 kmh 30.07 in1018.3 mb 1.35 in34.3 mm 0.00 in0.0 mm 1.35 in34.3 mm
04:03 PM 27.1°F-2.7°C 5.2°F-14.9°C 39% 11.0 mph WNW17.7 kmh WNW 20.0 mph32.2 kmh 30.06 in1017.9 mb 1.35 in34.3 mm 0.00 in0.0 mm 1.35 in34.3 mm
04:04 PM 27.1°F-2.7°C 4.0°F-15.6°C 37% 9.0 mph WNW14.5 kmh WNW 20.0 mph32.2 kmh 30.06 in1017.9 mb 1.35 in34.3 mm 0.00 in0.0 mm 1.35 in34.3 mm
04:05 PM 27.1°F-2.7°C 5.2°F-14.9°C 39% 9.0 mph WNW14.5 kmh WNW 20.0 mph32.2 kmh 30.06 in1017.9 mb 1.35 in34.3 mm 0.00 in0.0 mm 1.35 in34.3 mm
04:06 PM 27.1°F-2.7°C 5.2°F-14.9°C 39% 15.0 mph WNW24.1 kmh WNW 20.0 mph32.2 kmh 30.07 in1018.3 mb 1.35 in34.3 mm 0.00 in0.0 mm 1.35 in34.3 mm
04:07 PM 27.1°F-2.7°C 5.2°F-14.9°C 39% 10.0 mph NW16.1 kmh NW 18.0 mph29.0 kmh 30.06 in1017.9 mb 1.35 in34.3 mm 0.00 in0.0 mm 1.35 in34.3 mm
04:08 PM 26.7°F-2.9°C 5.4°F-14.8°C 40% 15.0 mph WNW24.1 kmh WNW 17.0 mph27.4 kmh 30.06 in1017.9 mb 1.35 in34.3 mm 0.00 in0.0 mm 1.35 in34.3 mm
04:09 PM 26.6°F-3.0°C 5.3°F-14.8°C 40% 10.0 mph W16.1 kmh W 17.0 mph27.4 kmh 30.06 in1017.9 mb 1.35 in34.3 mm 0.00 in0.0 mm 1.35 in34.3 mm
04:10 PM 26.3°F-3.2°C 4.5°F-15.3°C 39% 12.0 mph W19.3 kmh W 17.0 mph27.4 kmh 30.06 in1017.9 mb 1.35 in34.3 mm 0.00 in0.0 mm 1.35 in34.3 mm
04:11 PM 26.2°F-3.2°C 4.4°F-15.3°C 39% 13.0 mph W20.9 kmh W 16.0 mph25.7 kmh 30.07 in1018.3 mb 1.35 in34.3 mm 0.00 in0.0 mm 1.35 in34.3 mm
04:12 PM 26.2°F-3.2°C 4.9°F-15.1°C 40% 14.0 mph W22.5 kmh W 16.0 mph25.7 kmh 30.07 in1018.3 mb 1.35 in34.3 mm 0.00 in0.0 mm 1.35 in34.3 mm
04:13 PM 26.2°F-3.2°C 5.5°F-14.7°C 41% 10.0 mph W16.1 kmh W 16.0 mph25.7 kmh 30.06 in1017.9 mb 1.35 in34.3 mm 0.00 in0.0 mm 1.35 in34.3 mm
04:14 PM 26.2°F-3.2°C 6.6°F-14.1°C 43% 15.0 mph NW24.1 kmh NW 16.0 mph25.7 kmh 30.06 in1017.9 mb 1.35 in34.3 mm 0.00 in0.0 mm 1.35 in34.3 mm
04:15 PM 26.1°F-3.3°C 6.5°F-14.2°C 43% 12.0 mph WNW19.3 kmh WNW 16.0 mph25.7 kmh 30.07 in1018.3 mb 1.35 in34.3 mm 0.00 in0.0 mm 1.35 in34.3 mm
04:16 PM 26.1°F-3.3°C 5.4°F-14.8°C 41% 14.0 mph W22.5 kmh W 16.0 mph25.7 kmh 30.06 in1017.9 mb 1.35 in34.3 mm 0.00 in0.0 mm 1.35 in34.3 mm
04:17 PM 25.9°F-3.4°C 5.2°F-14.9°C 41% 10.0 mph NW16.1 kmh NW 16.0 mph25.7 kmh 30.06 in1017.9 mb 1.35 in34.3 mm 0.00 in0.0 mm 1.35 in34.3 mm
04:18 PM 25.7°F-3.5°C 4.5°F-15.3°C 40% 10.0 mph W16.1 kmh W 16.0 mph25.7 kmh 30.06 in1017.9 mb 1.35 in34.3 mm 0.00 in0.0 mm 1.35 in34.3 mm
04:19 PM 25.7°F-3.5°C 5.0°F-15.0°C 41% 9.0 mph W14.5 kmh W 16.0 mph25.7 kmh 30.07 in1018.3 mb 1.35 in34.3 mm 0.00 in0.0 mm 1.35 in34.3 mm
04:20 PM 25.7°F-3.5°C 4.5°F-15.3°C 40% 8.0 mph W12.9 kmh W 16.0 mph25.7 kmh 30.06 in1017.9 mb 1.35 in34.3 mm 0.00 in0.0 mm 1.35 in34.3 mm
04:21 PM 25.7°F-3.5°C 3.9°F-15.6°C 39% 10.0 mph W16.1 kmh W 16.0 mph25.7 kmh 30.06 in1017.9 mb 1.35 in34.3 mm 0.00 in0.0 mm 1.35 in34.3 mm
04:22 PM 25.7°F-3.5°C 4.5°F-15.3°C 40% 8.0 mph WNW12.9 kmh WNW 16.0 mph25.7 kmh 30.06 in1017.9 mb 1.35 in34.3 mm 0.00 in0.0 mm 1.35 in34.3 mm
04:23 PM 26.1°F-3.3°C 7.5°F-13.6°C 45% 14.0 mph WNW22.5 kmh WNW 16.0 mph25.7 kmh 30.07 in1018.3 mb 1.35 in34.3 mm 0.00 in0.0 mm 1.35 in34.3 mm
04:24 PM 25.9°F-3.4°C 6.3°F-14.3°C 43% 10.0 mph W16.1 kmh W 14.0 mph22.5 kmh 30.06 in1017.9 mb 1.35 in34.3 mm 0.00 in0.0 mm 1.35 in34.3 mm
04:25 PM 25.9°F-3.4°C 6.3°F-14.3°C 43% 11.0 mph WNW17.7 kmh WNW 14.0 mph22.5 kmh 30.07 in1018.3 mb 1.35 in34.3 mm 0.00 in0.0 mm 1.35 in34.3 mm
04:26 PM 25.9°F-3.4°C 5.2°F-14.9°C 41% 15.0 mph WNW24.1 kmh WNW 15.0 mph24.1 kmh 30.07 in1018.3 mb 1.35 in34.3 mm 0.00 in0.0 mm 1.35 in34.3 mm
04:27 PM 25.7°F-3.5°C 4.5°F-15.3°C 40% 11.0 mph W17.7 kmh W 15.0 mph24.1 kmh 30.07 in1018.3 mb 1.35 in34.3 mm 0.00 in0.0 mm 1.35 in34.3 mm
04:28 PM 25.4°F-3.7°C 4.2°F-15.4°C 40% 7.0 mph WNW11.3 kmh WNW 15.0 mph24.1 kmh 30.07 in1018.3 mb 1.35 in34.3 mm 0.00 in0.0 mm 1.35 in34.3 mm
04:29 PM 25.4°F-3.7°C 4.2°F-15.4°C 40% 8.0 mph WNW12.9 kmh WNW 15.0 mph24.1 kmh 30.06 in1017.9 mb 1.35 in34.3 mm 0.00 in0.0 mm 1.35 in34.3 mm
04:30 PM 26.2°F-3.2°C 3.2°F-16.0°C 37% 10.0 mph W16.1 kmh W 15.0 mph24.1 kmh 30.06 in1017.9 mb 1.35 in34.3 mm 0.00 in0.0 mm 1.35 in34.3 mm
04:31 PM 26.6°F-3.0°C 3.6°F-15.8°C 37% 13.0 mph WSW20.9 kmh WSW 15.0 mph24.1 kmh 30.06 in1017.9 mb 1.35 in34.3 mm 0.00 in0.0 mm 1.35 in34.3 mm
04:32 PM 26.7°F-2.9°C 4.8°F-15.1°C 39% 10.0 mph W16.1 kmh W 15.0 mph24.1 kmh 30.07 in1018.3 mb 1.35 in34.3 mm 0.00 in0.0 mm 1.35 in34.3 mm
04:33 PM 27.3°F-2.6°C 5.9°F-14.5°C 40% 8.0 mph WNW12.9 kmh WNW 15.0 mph24.1 kmh 30.06 in1017.9 mb 1.35 in34.3 mm 0.00 in0.0 mm 1.35 in34.3 mm
04:34 PM 27.5°F-2.5°C 4.4°F-15.3°C 37% 7.0 mph W11.3 kmh W 15.0 mph24.1 kmh 30.07 in1018.3 mb 1.35 in34.3 mm 0.00 in0.0 mm 1.35 in34.3 mm
04:35 PM 27.8°F-2.3°C 5.8°F-14.6°C 39% 11.0 mph NW17.7 kmh NW 15.0 mph24.1 kmh 30.07 in1018.3 mb 1.35 in34.3 mm 0.00 in0.0 mm 1.35 in34.3 mm
04:36 PM 27.8°F-2.3°C 6.4°F-14.2°C 40% 12.0 mph WNW19.3 kmh WNW 13.0 mph20.9 kmh 30.07 in1018.3 mb 1.35 in34.3 mm 0.00 in0.0 mm 1.35 in34.3 mm
04:37 PM 27.8°F-2.3°C 6.4°F-14.2°C 40% 13.0 mph NW20.9 kmh NW 16.0 mph25.7 kmh 30.07 in1018.3 mb 1.35 in34.3 mm 0.00 in0.0 mm 1.35 in34.3 mm
04:38 PM 27.6°F-2.4°C 5.6°F-14.7°C 39% 13.0 mph NW20.9 kmh NW 16.0 mph25.7 kmh 30.07 in1018.3 mb 1.35 in34.3 mm 0.00 in0.0 mm 1.35 in34.3 mm
04:39 PM 27.6°F-2.4°C 5.6°F-14.7°C 39% 13.0 mph NW20.9 kmh NW 16.0 mph25.7 kmh 30.06 in1017.9 mb 1.35 in34.3 mm 0.00 in0.0 mm 1.35 in34.3 mm
04:40 PM 27.6°F-2.4°C 6.2°F-14.3°C 40% 10.0 mph NW16.1 kmh NW 16.0 mph25.7 kmh 30.07 in1018.3 mb 1.35 in34.3 mm 0.00 in0.0 mm 1.35 in34.3 mm
04:41 PM 27.6°F-2.4°C 6.2°F-14.3°C 40% 12.0 mph WNW19.3 kmh WNW 16.0 mph25.7 kmh 30.06 in1017.9 mb 1.35 in34.3 mm 0.00 in0.0 mm 1.35 in34.3 mm
04:42 PM 27.5°F-2.5°C 6.1°F-14.4°C 40% 6.0 mph NW9.7 kmh NW 16.0 mph25.7 kmh 30.07 in1018.3 mb 1.35 in34.3 mm 0.00 in0.0 mm 1.35 in34.3 mm
04:43 PM 27.1°F-2.7°C 5.2°F-14.9°C 39% 12.0 mph W19.3 kmh W 16.0 mph25.7 kmh 30.07 in1018.3 mb 1.35 in34.3 mm 0.00 in0.0 mm 1.35 in34.3 mm
04:44 PM 27.0°F-2.8°C 5.7°F-14.6°C 40% 13.0 mph NW20.9 kmh NW 16.0 mph25.7 kmh 30.07 in1018.3 mb 1.35 in34.3 mm 0.00 in0.0 mm 1.35 in34.3 mm
04:45 PM 26.7°F-2.9°C 4.8°F-15.1°C 39% 14.0 mph W22.5 kmh W 16.0 mph25.7 kmh 30.07 in1018.3 mb 1.35 in34.3 mm 0.00 in0.0 mm 1.35 in34.3 mm
04:46 PM 26.3°F-3.2°C 4.5°F-15.3°C 39% 8.0 mph W12.9 kmh W 16.0 mph25.7 kmh 30.07 in1018.3 mb 1.35 in34.3 mm 0.00 in0.0 mm 1.35 in34.3 mm
04:47 PM 26.2°F-3.2°C 4.4°F-15.3°C 39% 9.0 mph WSW14.5 kmh WSW 16.0 mph25.7 kmh 30.07 in1018.3 mb 1.35 in34.3 mm 0.00 in0.0 mm 1.35 in34.3 mm
04:48 PM 26.1°F-3.3°C 4.9°F-15.1°C 40% 6.0 mph W9.7 kmh W 16.0 mph25.7 kmh 30.07 in1018.3 mb 1.35 in34.3 mm 0.00 in0.0 mm 1.35 in34.3 mm
04:49 PM 26.1°F-3.3°C 4.9°F-15.1°C 40% 11.0 mph WNW17.7 kmh WNW 16.0 mph25.7 kmh 30.07 in1018.3 mb 1.35 in34.3 mm 0.00 in0.0 mm 1.35 in34.3 mm
04:50 PM 26.1°F-3.3°C 7.0°F-13.9°C 44% 10.0 mph W16.1 kmh W 16.0 mph25.7 kmh 30.07 in1018.3 mb 1.35 in34.3 mm 0.00 in0.0 mm 1.35 in34.3 mm
04:51 PM 25.7°F-3.5°C 4.5°F-15.3°C 40% 11.0 mph WNW17.7 kmh WNW 16.0 mph25.7 kmh 30.07 in1018.3 mb 1.35 in34.3 mm 0.00 in0.0 mm 1.35 in34.3 mm
04:52 PM 25.7°F-3.5°C 5.0°F-15.0°C 41% 10.0 mph W16.1 kmh W 16.0 mph25.7 kmh 30.07 in1018.3 mb 1.35 in34.3 mm 0.00 in0.0 mm 1.35 in34.3 mm
04:53 PM 25.7°F-3.5°C 6.6°F-14.1°C 44% 8.0 mph W12.9 kmh W 16.0 mph25.7 kmh 30.07 in1018.3 mb 1.35 in34.3 mm 0.00 in0.0 mm 1.35 in34.3 mm
04:54 PM 25.7°F-3.5°C 6.6°F-14.1°C 44% 11.0 mph W17.7 kmh W 14.0 mph22.5 kmh 30.07 in1018.3 mb 1.35 in34.3 mm 0.00 in0.0 mm 1.35 in34.3 mm
04:55 PM 25.4°F-3.7°C 4.8°F-15.1°C 41% 10.0 mph WNW16.1 kmh WNW 14.0 mph22.5 kmh 30.07 in1018.3 mb 1.35 in34.3 mm 0.00 in0.0 mm 1.35 in34.3 mm
04:56 PM 25.4°F-3.7°C 4.8°F-15.1°C 41% 8.0 mph W12.9 kmh W 13.0 mph20.9 kmh 30.07 in1018.3 mb 1.35 in34.3 mm 0.00 in0.0 mm 1.35 in34.3 mm
04:57 PM 25.2°F-3.8°C 4.0°F-15.6°C 40% 6.0 mph W9.7 kmh W 13.0 mph20.9 kmh 30.07 in1018.3 mb 1.35 in34.3 mm 0.00 in0.0 mm 1.35 in34.3 mm
04:58 PM 25.1°F-3.8°C 3.4°F-15.9°C 39% 6.0 mph WNW9.7 kmh WNW 13.0 mph20.9 kmh 30.07 in1018.3 mb 1.35 in34.3 mm 0.00 in0.0 mm 1.35 in34.3 mm
04:59 PM 25.1°F-3.8°C 4.0°F-15.6°C 40% 10.0 mph NW16.1 kmh NW 13.0 mph20.9 kmh 30.07 in1018.3 mb 1.35 in34.3 mm 0.00 in0.0 mm 1.35 in34.3 mm
05:00 PM 25.2°F-3.8°C 5.7°F-14.6°C 43% 9.0 mph NW14.5 kmh NW 13.0 mph20.9 kmh 30.07 in1018.3 mb 1.35 in34.3 mm 0.00 in0.0 mm 1.35 in34.3 mm
05:01 PM 25.2°F-3.8°C 5.7°F-14.6°C 43% 10.0 mph NW16.1 kmh NW 13.0 mph20.9 kmh 30.07 in1018.3 mb 1.35 in34.3 mm 0.00 in0.0 mm 1.35 in34.3 mm
05:02 PM 25.2°F-3.8°C 5.7°F-14.6°C 43% 9.0 mph NNW14.5 kmh NNW 13.0 mph20.9 kmh 30.07 in1018.3 mb 1.35 in34.3 mm 0.00 in0.0 mm 1.35 in34.3 mm
05:03 PM 25.2°F-3.8°C 4.6°F-15.2°C 41% 9.0 mph NW14.5 kmh NW 13.0 mph20.9 kmh 30.07 in1018.3 mb 1.35 in34.3 mm 0.00 in0.0 mm 1.35 in34.3 mm
05:04 PM 25.2°F-3.8°C 5.7°F-14.6°C 43% 8.0 mph 12.9 kmh 12.0 mph19.3 kmh 30.07 in1018.3 mb 1.35 in34.3 mm 0.00 in0.0 mm 1.35 in34.3 mm
05:05 PM 25.4°F-3.7°C 4.8°F-15.1°C 41% 8.0 mph NW12.9 kmh NW 12.0 mph19.3 kmh 30.07 in1018.3 mb 1.35 in34.3 mm 0.00 in0.0 mm 1.35 in34.3 mm
05:06 PM 25.7°F-3.5°C 6.1°F-14.4°C 43% 9.0 mph NW14.5 kmh NW 12.0 mph19.3 kmh 30.07 in1018.3 mb 1.35 in34.3 mm 0.00 in0.0 mm 1.35 in34.3 mm
05:07 PM 25.7°F-3.5°C 6.1°F-14.4°C 43% 9.0 mph NW14.5 kmh NW 12.0 mph19.3 kmh 30.07 in1018.3 mb 1.35 in34.3 mm 0.00 in0.0 mm 1.35 in34.3 mm
05:08 PM 25.7°F-3.5°C 6.1°F-14.4°C 43% 4.0 mph NW6.4 kmh NW 12.0 mph19.3 kmh 30.07 in1018.3 mb 1.35 in34.3 mm 0.00 in0.0 mm 1.35 in34.3 mm
05:09 PM 25.7°F-3.5°C 6.1°F-14.4°C 43% 4.0 mph NW6.4 kmh NW 12.0 mph19.3 kmh 30.07 in1018.3 mb 1.35 in34.3 mm 0.00 in0.0 mm 1.35 in34.3 mm
05:10 PM 25.7°F-3.5°C 4.5°F-15.3°C 40% 7.0 mph NNW11.3 kmh NNW 12.0 mph19.3 kmh 30.07 in1018.3 mb 1.35 in34.3 mm 0.00 in0.0 mm 1.35 in34.3 mm
05:11 PM 25.7°F-3.5°C 4.5°F-15.3°C 40% 5.0 mph WNW8.0 kmh WNW 12.0 mph19.3 kmh 30.07 in1018.3 mb 1.35 in34.3 mm 0.00 in0.0 mm 1.35 in34.3 mm
05:12 PM 25.7°F-3.5°C 3.9°F-15.6°C 39% 8.0 mph W12.9 kmh W 12.0 mph19.3 kmh 30.07 in1018.3 mb 1.35 in34.3 mm 0.00 in0.0 mm 1.35 in34.3 mm
05:13 PM 25.7°F-3.5°C 4.5°F-15.3°C 40% 5.0 mph W8.0 kmh W 11.0 mph17.7 kmh 30.07 in1018.3 mb 1.35 in34.3 mm 0.00 in0.0 mm 1.35 in34.3 mm